<?xml version="1.0" encoding="UTF-8" standalone="no" ?>
<gpx xmlns="http://www.topografix.com/GPX/1/1" xmlns:xsi="http://www.w3.org/2001/XMLSchema-instance" xsi:schemaLocation="http://www.topografix.com/GPX/1/1 http://www.topografix.com/GPX/1/1/gpx.xsd" version="1.1" creator="VisuGPX - https://www.visugpx.com">
  <metadata>
    <name>La Cadière d'Azur - Sainte Anne d'Evenos</name>
    <desc><![CDATA[Au départ de la Cadière d’Azur, vous rejoignez le Plan du Castellet en passant par le chemin de l’Argile. Ensuite direction le Beausset Vieux puis Saint Anne d’Evenos, en passant par le Val d’Aren,  une petite route qui chemine au milieu des vignes et des pins. Arrivé à Sainte Anne, vous retournerez vers Le Beausset puis rejoindrez le petit village du Brulât par la « vallée du silence » et finirez votre sortie en rejoignant La Cadière d’Azur par des petites routes serpentant au milieu du vignoble.
Cet itinéraire se fait aisément grâce à l’assistance électrique de nos vélos. 
]]></desc>
  </metadata>
  <trk>
    <name><![CDATA[Ste Anne Evenos]]></name>
    <trkseg>
      <trkpt lat="43.1958" lon="5.75701">
        <ele>138.80000305176</ele>
        <time>2018-04-01T14:37:41.000Z</time>
      </trkpt>
      <trkpt lat="43.19578" lon="5.75718">
        <ele>137.80000305176</ele>
        <time>2018-04-01T14:37:56.000Z</time>
      </trkpt>
      <trkpt lat="43.19573" lon="5.75734">
        <ele>135.39999389648</ele>
        <time>2018-04-01T14:37:58.000Z</time>
      </trkpt>
      <trkpt lat="43.19558" lon="5.75764">
        <ele>129.80000305176</ele>
        <time>2018-04-01T14:38:02.000Z</time>
      </trkpt>
      <trkpt lat="43.19543" lon="5.75781">
        <ele>127.59999847412</ele>
        <time>2018-04-01T14:38:07.000Z</time>
      </trkpt>
      <trkpt lat="43.19536" lon="5.75797">
        <ele>126.80000305176</ele>
        <time>2018-04-01T14:38:12.000Z</time>
      </trkpt>
      <trkpt lat="43.19535" lon="5.7582">
        <ele>125.59999847412</ele>
        <time>2018-04-01T14:38:16.000Z</time>
      </trkpt>
      <trkpt lat="43.19532" lon="5.75825">
        <ele>125</ele>
        <time>2018-04-01T14:38:17.000Z</time>
      </trkpt>
      <trkpt lat="43.19514" lon="5.75856">
        <ele>121.19999694824</ele>
        <time>2018-04-01T14:38:21.000Z</time>
      </trkpt>
      <trkpt lat="43.1949" lon="5.75897">
        <ele>115</ele>
        <time>2018-04-01T14:38:26.000Z</time>
      </trkpt>
      <trkpt lat="43.19485" lon="5.75903">
        <ele>114</ele>
        <time>2018-04-01T14:38:27.000Z</time>
      </trkpt>
      <trkpt lat="43.19464" lon="5.75901">
        <ele>110.19999694824</ele>
        <time>2018-04-01T14:38:30.000Z</time>
      </trkpt>
      <trkpt lat="43.19448" lon="5.75882">
        <ele>108.19999694824</ele>
        <time>2018-04-01T14:38:33.000Z</time>
      </trkpt>
      <trkpt lat="43.19445" lon="5.75875">
        <ele>108.19999694824</ele>
        <time>2018-04-01T14:38:34.000Z</time>
      </trkpt>
      <trkpt lat="43.19441" lon="5.7587">
        <ele>107.80000305176</ele>
        <time>2018-04-01T14:38:35.000Z</time>
      </trkpt>
      <trkpt lat="43.19431" lon="5.75861">
        <ele>106.59999847412</ele>
        <time>2018-04-01T14:38:37.000Z</time>
      </trkpt>
      <trkpt lat="43.19425" lon="5.75845">
        <ele>106.80000305176</ele>
        <time>2018-04-01T14:38:39.000Z</time>
      </trkpt>
      <trkpt lat="43.19423" lon="5.75827">
        <ele>108</ele>
        <time>2018-04-01T14:38:41.000Z</time>
      </trkpt>
      <trkpt lat="43.19423" lon="5.75808">
        <ele>109.59999847412</ele>
        <time>2018-04-01T14:38:43.000Z</time>
      </trkpt>
      <trkpt lat="43.1942" lon="5.75769">
        <ele>109.80000305176</ele>
        <time>2018-04-01T14:38:47.000Z</time>
      </trkpt>
      <trkpt lat="43.19416" lon="5.75761">
        <ele>109</ele>
        <time>2018-04-01T14:38:48.000Z</time>
      </trkpt>
      <trkpt lat="43.19397" lon="5.75746">
        <ele>105.19999694824</ele>
        <time>2018-04-01T14:38:51.000Z</time>
      </trkpt>
      <trkpt lat="43.19382" lon="5.75736">
        <ele>102.40000152588</ele>
        <time>2018-04-01T14:38:53.000Z</time>
      </trkpt>
      <trkpt lat="43.19372" lon="5.7572">
        <ele>100.40000152588</ele>
        <time>2018-04-01T14:38:55.000Z</time>
      </trkpt>
      <trkpt lat="43.19347" lon="5.75671">
        <ele>97.199996948242</ele>
        <time>2018-04-01T14:39:00.000Z</time>
      </trkpt>
      <trkpt lat="43.19309" lon="5.75614">
        <ele>97.199996948242</ele>
        <time>2018-04-01T14:39:06.000Z</time>
      </trkpt>
      <trkpt lat="43.1929" lon="5.75589">
        <ele>97.199996948242</ele>
        <time>2018-04-01T14:39:09.000Z</time>
      </trkpt>
      <trkpt lat="43.19282" lon="5.75584">
        <ele>97</ele>
        <time>2018-04-01T14:39:10.000Z</time>
      </trkpt>
      <trkpt lat="43.19274" lon="5.75581">
        <ele>96.599998474121</ele>
        <time>2018-04-01T14:39:11.000Z</time>
      </trkpt>
      <trkpt lat="43.19258" lon="5.7558">
        <ele>95.800003051758</ele>
        <time>2018-04-01T14:39:13.000Z</time>
      </trkpt>
      <trkpt lat="43.19238" lon="5.7559">
        <ele>94.199996948242</ele>
        <time>2018-04-01T14:39:16.000Z</time>
      </trkpt>
      <trkpt lat="43.19214" lon="5.75607">
        <ele>93.199996948242</ele>
        <time>2018-04-01T14:39:20.000Z</time>
      </trkpt>
      <trkpt lat="43.1921" lon="5.75615">
        <ele>93.400001525879</ele>
        <time>2018-04-01T14:39:21.000Z</time>
      </trkpt>
      <trkpt lat="43.19206" lon="5.75639">
        <ele>94</ele>
        <time>2018-04-01T14:39:24.000Z</time>
      </trkpt>
      <trkpt lat="43.19196" lon="5.75666">
        <ele>94</ele>
        <time>2018-04-01T14:39:28.000Z</time>
      </trkpt>
      <trkpt lat="43.19192" lon="5.75673">
        <ele>94</ele>
        <time>2018-04-01T14:39:29.000Z</time>
      </trkpt>
      <trkpt lat="43.19167" lon="5.75712">
        <ele>93.400001525879</ele>
        <time>2018-04-01T14:39:35.000Z</time>
      </trkpt>
      <trkpt lat="43.19133" lon="5.75752">
        <ele>89.599998474121</ele>
        <time>2018-04-01T14:39:41.000Z</time>
      </trkpt>
      <trkpt lat="43.19098" lon="5.75794">
        <ele>87.199996948242</ele>
        <time>2018-04-01T14:39:46.000Z</time>
      </trkpt>
      <trkpt lat="43.19082" lon="5.75807">
        <ele>85.800003051758</ele>
        <time>2018-04-01T14:39:48.000Z</time>
      </trkpt>
      <trkpt lat="43.19064" lon="5.75817">
        <ele>84</ele>
        <time>2018-04-01T14:39:50.000Z</time>
      </trkpt>
      <trkpt lat="43.19046" lon="5.75824">
        <ele>82</ele>
        <time>2018-04-01T14:39:52.000Z</time>
      </trkpt>
      <trkpt lat="43.19027" lon="5.75835">
        <ele>80.400001525879</ele>
        <time>2018-04-01T14:39:54.000Z</time>
      </trkpt>
      <trkpt lat="43.18972" lon="5.75856">
        <ele>78.199996948242</ele>
        <time>2018-04-01T14:39:59.000Z</time>
      </trkpt>
      <trkpt lat="43.1896" lon="5.75859">
        <ele>78</ele>
        <time>2018-04-01T14:40:00.000Z</time>
      </trkpt>
      <trkpt lat="43.18927" lon="5.75873">
        <ele>77.599998474121</ele>
        <time>2018-04-01T14:40:03.000Z</time>
      </trkpt>
      <trkpt lat="43.18917" lon="5.75881">
        <ele>78</ele>
        <time>2018-04-01T14:40:04.000Z</time>
      </trkpt>
      <trkpt lat="43.18894" lon="5.75911">
        <ele>76.800003051758</ele>
        <time>2018-04-01T14:40:07.000Z</time>
      </trkpt>
      <trkpt lat="43.18869" lon="5.75922">
        <ele>76.400001525879</ele>
        <time>2018-04-01T14:40:10.000Z</time>
      </trkpt>
      <trkpt lat="43.1886" lon="5.75922">
        <ele>76.400001525879</ele>
        <time>2018-04-01T14:40:11.000Z</time>
      </trkpt>
      <trkpt lat="43.18822" lon="5.75926">
        <ele>77.599998474121</ele>
        <time>2018-04-01T14:40:16.000Z</time>
      </trkpt>
      <trkpt lat="43.18802" lon="5.75926">
        <ele>78.599998474121</ele>
        <time>2018-04-01T14:40:19.000Z</time>
      </trkpt>
      <trkpt lat="43.18796" lon="5.75925">
        <ele>79</ele>
        <time>2018-04-01T14:40:20.000Z</time>
      </trkpt>
      <trkpt lat="43.1879" lon="5.75926">
        <ele>79.400001525879</ele>
        <time>2018-04-01T14:40:21.000Z</time>
      </trkpt>
      <trkpt lat="43.18783" lon="5.75928">
        <ele>80</ele>
        <time>2018-04-01T14:40:22.000Z</time>
      </trkpt>
      <trkpt lat="43.18777" lon="5.7593">
        <ele>80.400001525879</ele>
        <time>2018-04-01T14:40:23.000Z</time>
      </trkpt>
      <trkpt lat="43.18773" lon="5.75924">
        <ele>80.599998474121</ele>
        <time>2018-04-01T14:40:25.000Z</time>
      </trkpt>
      <trkpt lat="43.18768" lon="5.75925">
        <ele>81</ele>
        <time>2018-04-01T14:40:26.000Z</time>
      </trkpt>
      <trkpt lat="43.18762" lon="5.75927">
        <ele>81.400001525879</ele>
        <time>2018-04-01T14:40:27.000Z</time>
      </trkpt>
      <trkpt lat="43.18751" lon="5.75932">
        <ele>82.599998474121</ele>
        <time>2018-04-01T14:40:29.000Z</time>
      </trkpt>
      <trkpt lat="43.18728" lon="5.75937">
        <ele>85.199996948242</ele>
        <time>2018-04-01T14:40:33.000Z</time>
      </trkpt>
      <trkpt lat="43.18716" lon="5.75939">
        <ele>85.800003051758</ele>
        <time>2018-04-01T14:40:35.000Z</time>
      </trkpt>
      <trkpt lat="43.1871" lon="5.7594">
        <ele>86.199996948242</ele>
        <time>2018-04-01T14:40:36.000Z</time>
      </trkpt>
      <trkpt lat="43.18692" lon="5.75948">
        <ele>87</ele>
        <time>2018-04-01T14:40:39.000Z</time>
      </trkpt>
      <trkpt lat="43.18675" lon="5.75958">
        <ele>88</ele>
        <time>2018-04-01T14:40:42.000Z</time>
      </trkpt>
      <trkpt lat="43.18633" lon="5.75983">
        <ele>89.199996948242</ele>
        <time>2018-04-01T14:40:49.000Z</time>
      </trkpt>
      <trkpt lat="43.18628" lon="5.75987">
        <ele>89.199996948242</ele>
        <time>2018-04-01T14:40:50.000Z</time>
      </trkpt>
      <trkpt lat="43.18622" lon="5.75992">
        <ele>89.400001525879</ele>
        <time>2018-04-01T14:40:51.000Z</time>
      </trkpt>
      <trkpt lat="43.18603" lon="5.76014">
        <ele>88.599998474121</ele>
        <time>2018-04-01T14:40:55.000Z</time>
      </trkpt>
      <trkpt lat="43.18577" lon="5.76055">
        <ele>86.400001525879</ele>
        <time>2018-04-01T14:41:01.000Z</time>
      </trkpt>
      <trkpt lat="43.18554" lon="5.76109">
        <ele>83</ele>
        <time>2018-04-01T14:41:07.000Z</time>
      </trkpt>
      <trkpt lat="43.18544" lon="5.76128">
        <ele>82</ele>
        <time>2018-04-01T14:41:09.000Z</time>
      </trkpt>
      <trkpt lat="43.18538" lon="5.76136">
        <ele>81.400001525879</ele>
        <time>2018-04-01T14:41:10.000Z</time>
      </trkpt>
      <trkpt lat="43.18529" lon="5.76143">
        <ele>81.400001525879</ele>
        <time>2018-04-01T14:41:11.000Z</time>
      </trkpt>
      <trkpt lat="43.1852" lon="5.76149">
        <ele>81.199996948242</ele>
        <time>2018-04-01T14:41:12.000Z</time>
      </trkpt>
      <trkpt lat="43.18511" lon="5.76155">
        <ele>80.599998474121</ele>
        <time>2018-04-01T14:41:13.000Z</time>
      </trkpt>
      <trkpt lat="43.18501" lon="5.7616">
        <ele>81</ele>
        <time>2018-04-01T14:41:14.000Z</time>
      </trkpt>
      <trkpt lat="43.18491" lon="5.76166">
        <ele>81.400001525879</ele>
        <time>2018-04-01T14:41:15.000Z</time>
      </trkpt>
      <trkpt lat="43.18481" lon="5.76172">
        <ele>81.599998474121</ele>
        <time>2018-04-01T14:41:16.000Z</time>
      </trkpt>
      <trkpt lat="43.18454" lon="5.76187">
        <ele>83</ele>
        <time>2018-04-01T14:41:19.000Z</time>
      </trkpt>
      <trkpt lat="43.18437" lon="5.76197">
        <ele>83.800003051758</ele>
        <time>2018-04-01T14:41:21.000Z</time>
      </trkpt>
      <trkpt lat="43.18422" lon="5.76205">
        <ele>84.800003051758</ele>
        <time>2018-04-01T14:41:23.000Z</time>
      </trkpt>
      <trkpt lat="43.18408" lon="5.7621">
        <ele>85.400001525879</ele>
        <time>2018-04-01T14:41:25.000Z</time>
      </trkpt>
      <trkpt lat="43.18384" lon="5.76212">
        <ele>86.199996948242</ele>
        <time>2018-04-01T14:41:29.000Z</time>
      </trkpt>
      <trkpt lat="43.18374" lon="5.76211">
        <ele>86.800003051758</ele>
        <time>2018-04-01T14:41:31.000Z</time>
      </trkpt>
      <trkpt lat="43.18364" lon="5.7621">
        <ele>87.400001525879</ele>
        <time>2018-04-01T14:41:33.000Z</time>
      </trkpt>
      <trkpt lat="43.18349" lon="5.76209">
        <ele>88.199996948242</ele>
        <time>2018-04-01T14:41:36.000Z</time>
      </trkpt>
      <trkpt lat="43.18339" lon="5.7621">
        <ele>88.800003051758</ele>
        <time>2018-04-01T14:41:38.000Z</time>
      </trkpt>
      <trkpt lat="43.1833" lon="5.7621">
        <ele>89.400001525879</ele>
        <time>2018-04-01T14:41:40.000Z</time>
      </trkpt>
      <trkpt lat="43.18314" lon="5.76212">
        <ele>90.400001525879</ele>
        <time>2018-04-01T14:41:43.000Z</time>
      </trkpt>
      <trkpt lat="43.18309" lon="5.76212">
        <ele>90.599998474121</ele>
        <time>2018-04-01T14:41:44.000Z</time>
      </trkpt>
      <trkpt lat="43.18287" lon="5.76215">
        <ele>92</ele>
        <time>2018-04-01T14:41:48.000Z</time>
      </trkpt>
      <trkpt lat="43.18274" lon="5.76217">
        <ele>92.599998474121</ele>
        <time>2018-04-01T14:41:51.000Z</time>
      </trkpt>
      <trkpt lat="43.18253" lon="5.7622">
        <ele>93.400001525879</ele>
        <time>2018-04-01T14:41:57.000Z</time>
      </trkpt>
      <trkpt lat="43.18251" lon="5.76221">
        <ele>93.599998474121</ele>
        <time>2018-04-01T14:41:58.000Z</time>
      </trkpt>
      <trkpt lat="43.18239" lon="5.7622">
        <ele>94.199996948242</ele>
        <time>2018-04-01T14:42:04.000Z</time>
      </trkpt>
      <trkpt lat="43.18237" lon="5.76221">
        <ele>94.199996948242</ele>
        <time>2018-04-01T14:42:23.000Z</time>
      </trkpt>
      <trkpt lat="43.18234" lon="5.76221">
        <ele>94.400001525879</ele>
        <time>2018-04-01T14:42:25.000Z</time>
      </trkpt>
      <trkpt lat="43.18231" lon="5.7622">
        <ele>94.599998474121</ele>
        <time>2018-04-01T14:42:26.000Z</time>
      </trkpt>
      <trkpt lat="43.18218" lon="5.7622">
        <ele>95.199996948242</ele>
        <time>2018-04-01T14:42:30.000Z</time>
      </trkpt>
      <trkpt lat="43.18206" lon="5.76219">
        <ele>96</ele>
        <time>2018-04-01T14:42:33.000Z</time>
      </trkpt>
      <trkpt lat="43.18183" lon="5.76217">
        <ele>97.400001525879</ele>
        <time>2018-04-01T14:42:39.000Z</time>
      </trkpt>
      <trkpt lat="43.18154" lon="5.76217">
        <ele>98.800003051758</ele>
        <time>2018-04-01T14:42:48.000Z</time>
      </trkpt>
      <trkpt lat="43.18126" lon="5.76225">
        <ele>99.800003051758</ele>
        <time>2018-04-01T14:42:55.000Z</time>
      </trkpt>
      <trkpt lat="43.18121" lon="5.76227">
        <ele>100</ele>
        <time>2018-04-01T14:42:56.000Z</time>
      </trkpt>
      <trkpt lat="43.18113" lon="5.76238">
        <ele>99.599998474121</ele>
        <time>2018-04-01T14:42:59.000Z</time>
      </trkpt>
      <trkpt lat="43.18111" lon="5.76243">
        <ele>99.599998474121</ele>
        <time>2018-04-01T14:43:00.000Z</time>
      </trkpt>
      <trkpt lat="43.18108" lon="5.76279">
        <ele>99</ele>
        <time>2018-04-01T14:43:06.000Z</time>
      </trkpt>
      <trkpt lat="43.18107" lon="5.76284">
        <ele>99</ele>
        <time>2018-04-01T14:43:07.000Z</time>
      </trkpt>
      <trkpt lat="43.18103" lon="5.76314">
        <ele>98.800003051758</ele>
        <time>2018-04-01T14:43:13.000Z</time>
      </trkpt>
      <trkpt lat="43.18096" lon="5.76349">
        <ele>96.800003051758</ele>
        <time>2018-04-01T14:43:18.000Z</time>
      </trkpt>
      <trkpt lat="43.18094" lon="5.76358">
        <ele>96.199996948242</ele>
        <time>2018-04-01T14:43:19.000Z</time>
      </trkpt>
      <trkpt lat="43.18087" lon="5.76383">
        <ele>94</ele>
        <time>2018-04-01T14:43:22.000Z</time>
      </trkpt>
      <trkpt lat="43.18084" lon="5.76391">
        <ele>93.599998474121</ele>
        <time>2018-04-01T14:43:23.000Z</time>
      </trkpt>
      <trkpt lat="43.18081" lon="5.76398">
        <ele>93</ele>
        <time>2018-04-01T14:43:24.000Z</time>
      </trkpt>
      <trkpt lat="43.18077" lon="5.76406">
        <ele>92.199996948242</ele>
        <time>2018-04-01T14:43:25.000Z</time>
      </trkpt>
      <trkpt lat="43.18072" lon="5.76412">
        <ele>91.599998474121</ele>
        <time>2018-04-01T14:43:26.000Z</time>
      </trkpt>
      <trkpt lat="43.18066" lon="5.76417">
        <ele>91.199996948242</ele>
        <time>2018-04-01T14:43:27.000Z</time>
      </trkpt>
      <trkpt lat="43.18059" lon="5.76421">
        <ele>90.800003051758</ele>
        <time>2018-04-01T14:43:28.000Z</time>
      </trkpt>
      <trkpt lat="43.18044" lon="5.76428">
        <ele>90</ele>
        <time>2018-04-01T14:43:30.000Z</time>
      </trkpt>
      <trkpt lat="43.18036" lon="5.76432">
        <ele>89.400001525879</ele>
        <time>2018-04-01T14:43:31.000Z</time>
      </trkpt>
      <trkpt lat="43.18028" lon="5.76436">
        <ele>88.800003051758</ele>
        <time>2018-04-01T14:43:32.000Z</time>
      </trkpt>
      <trkpt lat="43.18011" lon="5.76445">
        <ele>87.400001525879</ele>
        <time>2018-04-01T14:43:34.000Z</time>
      </trkpt>
      <trkpt lat="43.17994" lon="5.76456">
        <ele>85.199996948242</ele>
        <time>2018-04-01T14:43:36.000Z</time>
      </trkpt>
      <trkpt lat="43.17977" lon="5.76468">
        <ele>83.199996948242</ele>
        <time>2018-04-01T14:43:38.000Z</time>
      </trkpt>
      <trkpt lat="43.17961" lon="5.76479">
        <ele>81.199996948242</ele>
        <time>2018-04-01T14:43:40.000Z</time>
      </trkpt>
      <trkpt lat="43.17944" lon="5.76488">
        <ele>79.400001525879</ele>
        <time>2018-04-01T14:43:42.000Z</time>
      </trkpt>
      <trkpt lat="43.17935" lon="5.7649">
        <ele>78.599998474121</ele>
        <time>2018-04-01T14:43:43.000Z</time>
      </trkpt>
      <trkpt lat="43.17926" lon="5.76492">
        <ele>78</ele>
        <time>2018-04-01T14:43:44.000Z</time>
      </trkpt>
      <trkpt lat="43.17907" lon="5.76494">
        <ele>77.800003051758</ele>
        <time>2018-04-01T14:43:46.000Z</time>
      </trkpt>
      <trkpt lat="43.17888" lon="5.76497">
        <ele>77.599998474121</ele>
        <time>2018-04-01T14:43:48.000Z</time>
      </trkpt>
      <trkpt lat="43.17861" lon="5.76505">
        <ele>77.800003051758</ele>
        <time>2018-04-01T14:43:51.000Z</time>
      </trkpt>
      <trkpt lat="43.17854" lon="5.76511">
        <ele>78</ele>
        <time>2018-04-01T14:43:52.000Z</time>
      </trkpt>
      <trkpt lat="43.17843" lon="5.76528">
        <ele>78</ele>
        <time>2018-04-01T14:43:54.000Z</time>
      </trkpt>
      <trkpt lat="43.17839" lon="5.76537">
        <ele>78</ele>
        <time>2018-04-01T14:43:55.000Z</time>
      </trkpt>
      <trkpt lat="43.17818" lon="5.76579">
        <ele>76.800003051758</ele>
        <time>2018-04-01T14:44:00.000Z</time>
      </trkpt>
      <trkpt lat="43.17812" lon="5.76586">
        <ele>76.599998474121</ele>
        <time>2018-04-01T14:44:01.000Z</time>
      </trkpt>
      <trkpt lat="43.17788" lon="5.766">
        <ele>76.599998474121</ele>
        <time>2018-04-01T14:44:05.000Z</time>
      </trkpt>
      <trkpt lat="43.17781" lon="5.76602">
        <ele>76.800003051758</ele>
        <time>2018-04-01T14:44:06.000Z</time>
      </trkpt>
      <trkpt lat="43.17748" lon="5.76615">
        <ele>76.800003051758</ele>
        <time>2018-04-01T14:44:11.000Z</time>
      </trkpt>
      <trkpt lat="43.1772" lon="5.76636">
        <ele>75.199996948242</ele>
        <time>2018-04-01T14:44:15.000Z</time>
      </trkpt>
      <trkpt lat="43.17713" lon="5.76642">
        <ele>74.800003051758</ele>
        <time>2018-04-01T14:44:16.000Z</time>
      </trkpt>
      <trkpt lat="43.1769" lon="5.76656">
        <ele>73.800003051758</ele>
        <time>2018-04-01T14:44:19.000Z</time>
      </trkpt>
      <trkpt lat="43.17682" lon="5.7666">
        <ele>73.199996948242</ele>
        <time>2018-04-01T14:44:20.000Z</time>
      </trkpt>
      <trkpt lat="43.17664" lon="5.76668">
        <ele>72</ele>
        <time>2018-04-01T14:44:22.000Z</time>
      </trkpt>
      <trkpt lat="43.17647" lon="5.76679">
        <ele>70.599998474121</ele>
        <time>2018-04-01T14:44:24.000Z</time>
      </trkpt>
      <trkpt lat="43.17638" lon="5.76685">
        <ele>70</ele>
        <time>2018-04-01T14:44:25.000Z</time>
      </trkpt>
      <trkpt lat="43.17622" lon="5.767">
        <ele>69.400001525879</ele>
        <time>2018-04-01T14:44:27.000Z</time>
      </trkpt>
      <trkpt lat="43.17599" lon="5.76718">
        <ele>69</ele>
        <time>2018-04-01T14:44:30.000Z</time>
      </trkpt>
      <trkpt lat="43.17569" lon="5.76735">
        <ele>68.599998474121</ele>
        <time>2018-04-01T14:44:34.000Z</time>
      </trkpt>
      <trkpt lat="43.17563" lon="5.7674">
        <ele>68.400001525879</ele>
        <time>2018-04-01T14:44:35.000Z</time>
      </trkpt>
      <trkpt lat="43.17557" lon="5.76746">
        <ele>68.199996948242</ele>
        <time>2018-04-01T14:44:36.000Z</time>
      </trkpt>
      <trkpt lat="43.17538" lon="5.76766">
        <ele>67.400001525879</ele>
        <time>2018-04-01T14:44:39.000Z</time>
      </trkpt>
      <trkpt lat="43.17531" lon="5.76773">
        <ele>67.199996948242</ele>
        <time>2018-04-01T14:44:40.000Z</time>
      </trkpt>
      <trkpt lat="43.17518" lon="5.76788">
        <ele>66.800003051758</ele>
        <time>2018-04-01T14:44:42.000Z</time>
      </trkpt>
      <trkpt lat="43.17499" lon="5.76809">
        <ele>65.800003051758</ele>
        <time>2018-04-01T14:44:45.000Z</time>
      </trkpt>
      <trkpt lat="43.17487" lon="5.76822">
        <ele>65.199996948242</ele>
        <time>2018-04-01T14:44:47.000Z</time>
      </trkpt>
      <trkpt lat="43.17472" lon="5.76842">
        <ele>63.799999237061</ele>
        <time>2018-04-01T14:44:50.000Z</time>
      </trkpt>
      <trkpt lat="43.17465" lon="5.76858">
        <ele>62</ele>
        <time>2018-04-01T14:44:52.000Z</time>
      </trkpt>
      <trkpt lat="43.17464" lon="5.76868">
        <ele>60.799999237061</ele>
        <time>2018-04-01T14:44:53.000Z</time>
      </trkpt>
      <trkpt lat="43.1747" lon="5.76885">
        <ele>58.799999237061</ele>
        <time>2018-04-01T14:44:55.000Z</time>
      </trkpt>
      <trkpt lat="43.17478" lon="5.76906">
        <ele>57.200000762939</ele>
        <time>2018-04-01T14:44:57.000Z</time>
      </trkpt>
      <trkpt lat="43.17486" lon="5.76927">
        <ele>55.400001525879</ele>
        <time>2018-04-01T14:44:59.000Z</time>
      </trkpt>
      <trkpt lat="43.17489" lon="5.76956">
        <ele>53</ele>
        <time>2018-04-01T14:45:02.000Z</time>
      </trkpt>
      <trkpt lat="43.17491" lon="5.76978">
        <ele>51.799999237061</ele>
        <time>2018-04-01T14:45:04.000Z</time>
      </trkpt>
      <trkpt lat="43.17493" lon="5.77008">
        <ele>51.200000762939</ele>
        <time>2018-04-01T14:45:07.000Z</time>
      </trkpt>
      <trkpt lat="43.17494" lon="5.77015">
        <ele>51</ele>
        <time>2018-04-01T14:45:08.000Z</time>
      </trkpt>
      <trkpt lat="43.17494" lon="5.77023">
        <ele>50.799999237061</ele>
        <time>2018-04-01T14:45:09.000Z</time>
      </trkpt>
      <trkpt lat="43.17491" lon="5.7704">
        <ele>50.200000762939</ele>
        <time>2018-04-01T14:45:11.000Z</time>
      </trkpt>
      <trkpt lat="43.17489" lon="5.77047">
        <ele>50</ele>
        <time>2018-04-01T14:45:12.000Z</time>
      </trkpt>
      <trkpt lat="43.17475" lon="5.77066">
        <ele>49.599998474121</ele>
        <time>2018-04-01T14:45:15.000Z</time>
      </trkpt>
      <trkpt lat="43.17464" lon="5.77072">
        <ele>49.400001525879</ele>
        <time>2018-04-01T14:45:17.000Z</time>
      </trkpt>
      <trkpt lat="43.17458" lon="5.77075">
        <ele>49.400001525879</ele>
        <time>2018-04-01T14:45:18.000Z</time>
      </trkpt>
      <trkpt lat="43.17453" lon="5.77077">
        <ele>49.200000762939</ele>
        <time>2018-04-01T14:45:19.000Z</time>
      </trkpt>
      <trkpt lat="43.17446" lon="5.77079">
        <ele>49.200000762939</ele>
        <time>2018-04-01T14:45:21.000Z</time>
      </trkpt>
      <trkpt lat="43.17445" lon="5.77079">
        <ele>49.200000762939</ele>
        <time>2018-04-01T14:45:22.000Z</time>
      </trkpt>
      <trkpt lat="43.17444" lon="5.77082">
        <ele>49</ele>
        <time>2018-04-01T14:45:23.000Z</time>
      </trkpt>
      <trkpt lat="43.17443" lon="5.77085">
        <ele>49</ele>
        <time>2018-04-01T14:45:24.000Z</time>
      </trkpt>
      <trkpt lat="43.17445" lon="5.77092">
        <ele>49</ele>
        <time>2018-04-01T14:45:26.000Z</time>
      </trkpt>
      <trkpt lat="43.17448" lon="5.77096">
        <ele>49</ele>
        <time>2018-04-01T14:45:27.000Z</time>
      </trkpt>
      <trkpt lat="43.17451" lon="5.77101">
        <ele>49</ele>
        <time>2018-04-01T14:45:28.000Z</time>
      </trkpt>
      <trkpt lat="43.17458" lon="5.77112">
        <ele>49</ele>
        <time>2018-04-01T14:45:30.000Z</time>
      </trkpt>
      <trkpt lat="43.17467" lon="5.77128">
        <ele>49</ele>
        <time>2018-04-01T14:45:33.000Z</time>
      </trkpt>
      <trkpt lat="43.17467" lon="5.77136">
        <ele>49</ele>
        <time>2018-04-01T14:45:35.000Z</time>
      </trkpt>
      <trkpt lat="43.17464" lon="5.77137">
        <ele>48.799999237061</ele>
        <time>2018-04-01T14:45:36.000Z</time>
      </trkpt>
      <trkpt lat="43.17459" lon="5.77138">
        <ele>48.799999237061</ele>
        <time>2018-04-01T14:45:37.000Z</time>
      </trkpt>
      <trkpt lat="43.17454" lon="5.77139">
        <ele>48.599998474121</ele>
        <time>2018-04-01T14:45:38.000Z</time>
      </trkpt>
      <trkpt lat="43.17443" lon="5.77143">
        <ele>48.400001525879</ele>
        <time>2018-04-01T14:45:40.000Z</time>
      </trkpt>
      <trkpt lat="43.1743" lon="5.77148">
        <ele>48</ele>
        <time>2018-04-01T14:45:42.000Z</time>
      </trkpt>
      <trkpt lat="43.17379" lon="5.77178">
        <ele>46.799999237061</ele>
        <time>2018-04-01T14:45:50.000Z</time>
      </trkpt>
      <trkpt lat="43.17373" lon="5.77182">
        <ele>46.599998474121</ele>
        <time>2018-04-01T14:45:51.000Z</time>
      </trkpt>
      <trkpt lat="43.17323" lon="5.77221">
        <ele>45.200000762939</ele>
        <time>2018-04-01T14:45:59.000Z</time>
      </trkpt>
      <trkpt lat="43.17317" lon="5.77226">
        <ele>45.599998474121</ele>
        <time>2018-04-01T14:46:00.000Z</time>
      </trkpt>
      <trkpt lat="43.17267" lon="5.77269">
        <ele>48.400001525879</ele>
        <time>2018-04-01T14:46:08.000Z</time>
      </trkpt>
      <trkpt lat="43.17261" lon="5.77275">
        <ele>48.599998474121</ele>
        <time>2018-04-01T14:46:09.000Z</time>
      </trkpt>
      <trkpt lat="43.1721" lon="5.77311">
        <ele>47.599998474121</ele>
        <time>2018-04-01T14:46:17.000Z</time>
      </trkpt>
      <trkpt lat="43.17185" lon="5.77323">
        <ele>47.599998474121</ele>
        <time>2018-04-01T14:46:21.000Z</time>
      </trkpt>
      <trkpt lat="43.17164" lon="5.77329">
        <ele>47.799999237061</ele>
        <time>2018-04-01T14:46:24.000Z</time>
      </trkpt>
      <trkpt lat="43.1711" lon="5.77346">
        <ele>47.400001525879</ele>
        <time>2018-04-01T14:46:32.000Z</time>
      </trkpt>
      <trkpt lat="43.17097" lon="5.77348">
        <ele>46.400001525879</ele>
        <time>2018-04-01T14:46:34.000Z</time>
      </trkpt>
      <trkpt lat="43.1707" lon="5.7735">
        <ele>45.599998474121</ele>
        <time>2018-04-01T14:46:38.000Z</time>
      </trkpt>
      <trkpt lat="43.17056" lon="5.77347">
        <ele>45.200000762939</ele>
        <time>2018-04-01T14:46:40.000Z</time>
      </trkpt>
      <trkpt lat="43.17001" lon="5.77341">
        <ele>44.200000762939</ele>
        <time>2018-04-01T14:46:48.000Z</time>
      </trkpt>
      <trkpt lat="43.16989" lon="5.77343">
        <ele>44.400001525879</ele>
        <time>2018-04-01T14:46:50.000Z</time>
      </trkpt>
      <trkpt lat="43.16979" lon="5.7735">
        <ele>44.799999237061</ele>
        <time>2018-04-01T14:46:52.000Z</time>
      </trkpt>
      <trkpt lat="43.16965" lon="5.77368">
        <ele>44.799999237061</ele>
        <time>2018-04-01T14:46:55.000Z</time>
      </trkpt>
      <trkpt lat="43.1696" lon="5.77375">
        <ele>44.799999237061</ele>
        <time>2018-04-01T14:46:56.000Z</time>
      </trkpt>
      <trkpt lat="43.16942" lon="5.774">
        <ele>45.599998474121</ele>
        <time>2018-04-01T14:47:00.000Z</time>
      </trkpt>
      <trkpt lat="43.1692" lon="5.77419">
        <ele>46</ele>
        <time>2018-04-01T14:47:04.000Z</time>
      </trkpt>
      <trkpt lat="43.16915" lon="5.77426">
        <ele>46.400001525879</ele>
        <time>2018-04-01T14:47:05.000Z</time>
      </trkpt>
      <trkpt lat="43.16901" lon="5.77448">
        <ele>47.799999237061</ele>
        <time>2018-04-01T14:47:08.000Z</time>
      </trkpt>
      <trkpt lat="43.16894" lon="5.77464">
        <ele>49.599998474121</ele>
        <time>2018-04-01T14:47:10.000Z</time>
      </trkpt>
      <trkpt lat="43.16888" lon="5.77486">
        <ele>51.400001525879</ele>
        <time>2018-04-01T14:47:13.000Z</time>
      </trkpt>
      <trkpt lat="43.16888" lon="5.77504">
        <ele>52.400001525879</ele>
        <time>2018-04-01T14:47:16.000Z</time>
      </trkpt>
      <trkpt lat="43.16889" lon="5.7751">
        <ele>52.799999237061</ele>
        <time>2018-04-01T14:47:17.000Z</time>
      </trkpt>
      <trkpt lat="43.16888" lon="5.77528">
        <ele>54.599998474121</ele>
        <time>2018-04-01T14:47:20.000Z</time>
      </trkpt>
      <trkpt lat="43.16889" lon="5.7755">
        <ele>57.200000762939</ele>
        <time>2018-04-01T14:47:24.000Z</time>
      </trkpt>
      <trkpt lat="43.16891" lon="5.77567">
        <ele>58.200000762939</ele>
        <time>2018-04-01T14:47:27.000Z</time>
      </trkpt>
      <trkpt lat="43.16894" lon="5.77585">
        <ele>58.799999237061</ele>
        <time>2018-04-01T14:47:30.000Z</time>
      </trkpt>
      <trkpt lat="43.16897" lon="5.77601">
        <ele>59.400001525879</ele>
        <time>2018-04-01T14:47:33.000Z</time>
      </trkpt>
      <trkpt lat="43.16894" lon="5.77609">
        <ele>60</ele>
        <time>2018-04-01T14:47:35.000Z</time>
      </trkpt>
      <trkpt lat="43.16891" lon="5.77607">
        <ele>60.200000762939</ele>
        <time>2018-04-01T14:47:36.000Z</time>
      </trkpt>
      <trkpt lat="43.16887" lon="5.77604">
        <ele>60.400001525879</ele>
        <time>2018-04-01T14:47:37.000Z</time>
      </trkpt>
      <trkpt lat="43.16879" lon="5.77599">
        <ele>60.799999237061</ele>
        <time>2018-04-01T14:47:39.000Z</time>
      </trkpt>
      <trkpt lat="43.16875" lon="5.776">
        <ele>61.200000762939</ele>
        <time>2018-04-01T14:47:40.000Z</time>
      </trkpt>
      <trkpt lat="43.1687" lon="5.77607">
        <ele>62</ele>
        <time>2018-04-01T14:47:42.000Z</time>
      </trkpt>
      <trkpt lat="43.16868" lon="5.77611">
        <ele>62.400001525879</ele>
        <time>2018-04-01T14:47:43.000Z</time>
      </trkpt>
      <trkpt lat="43.16866" lon="5.77616">
        <ele>62.799999237061</ele>
        <time>2018-04-01T14:47:44.000Z</time>
      </trkpt>
      <trkpt lat="43.16865" lon="5.77628">
        <ele>63.799999237061</ele>
        <time>2018-04-01T14:47:46.000Z</time>
      </trkpt>
      <trkpt lat="43.16863" lon="5.77635">
        <ele>64.199996948242</ele>
        <time>2018-04-01T14:47:47.000Z</time>
      </trkpt>
      <trkpt lat="43.16861" lon="5.77647">
        <ele>65.400001525879</ele>
        <time>2018-04-01T14:47:49.000Z</time>
      </trkpt>
      <trkpt lat="43.16859" lon="5.7766">
        <ele>66.199996948242</ele>
        <time>2018-04-01T14:47:51.000Z</time>
      </trkpt>
      <trkpt lat="43.16858" lon="5.77673">
        <ele>66.800003051758</ele>
        <time>2018-04-01T14:47:53.000Z</time>
      </trkpt>
      <trkpt lat="43.16856" lon="5.77685">
        <ele>67.199996948242</ele>
        <time>2018-04-01T14:47:55.000Z</time>
      </trkpt>
      <trkpt lat="43.16855" lon="5.77697">
        <ele>67.800003051758</ele>
        <time>2018-04-01T14:47:57.000Z</time>
      </trkpt>
      <trkpt lat="43.16855" lon="5.77709">
        <ele>68.199996948242</ele>
        <time>2018-04-01T14:47:59.000Z</time>
      </trkpt>
      <trkpt lat="43.16856" lon="5.77721">
        <ele>68.599998474121</ele>
        <time>2018-04-01T14:48:01.000Z</time>
      </trkpt>
      <trkpt lat="43.16858" lon="5.77734">
        <ele>69.199996948242</ele>
        <time>2018-04-01T14:48:03.000Z</time>
      </trkpt>
      <trkpt lat="43.16859" lon="5.77746">
        <ele>69.800003051758</ele>
        <time>2018-04-01T14:48:05.000Z</time>
      </trkpt>
      <trkpt lat="43.16861" lon="5.77759">
        <ele>70.199996948242</ele>
        <time>2018-04-01T14:48:07.000Z</time>
      </trkpt>
      <trkpt lat="43.16863" lon="5.77772">
        <ele>70.599998474121</ele>
        <time>2018-04-01T14:48:09.000Z</time>
      </trkpt>
      <trkpt lat="43.16865" lon="5.77778">
        <ele>70.800003051758</ele>
        <time>2018-04-01T14:48:10.000Z</time>
      </trkpt>
      <trkpt lat="43.16867" lon="5.77791">
        <ele>71.199996948242</ele>
        <time>2018-04-01T14:48:12.000Z</time>
      </trkpt>
      <trkpt lat="43.1687" lon="5.77812">
        <ele>72.599998474121</ele>
        <time>2018-04-01T14:48:15.000Z</time>
      </trkpt>
      <trkpt lat="43.16873" lon="5.77835">
        <ele>74.800003051758</ele>
        <time>2018-04-01T14:48:18.000Z</time>
      </trkpt>
      <trkpt lat="43.16875" lon="5.77857">
        <ele>76.599998474121</ele>
        <time>2018-04-01T14:48:21.000Z</time>
      </trkpt>
      <trkpt lat="43.16877" lon="5.7788">
        <ele>78.199996948242</ele>
        <time>2018-04-01T14:48:24.000Z</time>
      </trkpt>
      <trkpt lat="43.16881" lon="5.77902">
        <ele>79.400001525879</ele>
        <time>2018-04-01T14:48:27.000Z</time>
      </trkpt>
      <trkpt lat="43.16882" lon="5.7791">
        <ele>79.599998474121</ele>
        <time>2018-04-01T14:48:28.000Z</time>
      </trkpt>
      <trkpt lat="43.16882" lon="5.77917">
        <ele>80</ele>
        <time>2018-04-01T14:48:29.000Z</time>
      </trkpt>
      <trkpt lat="43.16884" lon="5.77932">
        <ele>80.599998474121</ele>
        <time>2018-04-01T14:48:31.000Z</time>
      </trkpt>
      <trkpt lat="43.16884" lon="5.77947">
        <ele>81.400001525879</ele>
        <time>2018-04-01T14:48:33.000Z</time>
      </trkpt>
      <trkpt lat="43.16881" lon="5.77961">
        <ele>82</ele>
        <time>2018-04-01T14:48:35.000Z</time>
      </trkpt>
      <trkpt lat="43.16878" lon="5.77967">
        <ele>82.199996948242</ele>
        <time>2018-04-01T14:48:36.000Z</time>
      </trkpt>
      <trkpt lat="43.16868" lon="5.77974">
        <ele>82.400001525879</ele>
        <time>2018-04-01T14:48:38.000Z</time>
      </trkpt>
      <trkpt lat="43.16863" lon="5.77978">
        <ele>82.800003051758</ele>
        <time>2018-04-01T14:48:39.000Z</time>
      </trkpt>
      <trkpt lat="43.16858" lon="5.77991">
        <ele>83.599998474121</ele>
        <time>2018-04-01T14:48:41.000Z</time>
      </trkpt>
      <trkpt lat="43.16858" lon="5.78006">
        <ele>84.400001525879</ele>
        <time>2018-04-01T14:48:43.000Z</time>
      </trkpt>
      <trkpt lat="43.16858" lon="5.78012">
        <ele>84.800003051758</ele>
        <time>2018-04-01T14:48:44.000Z</time>
      </trkpt>
      <trkpt lat="43.16858" lon="5.7802">
        <ele>85.199996948242</ele>
        <time>2018-04-01T14:48:45.000Z</time>
      </trkpt>
      <trkpt lat="43.16858" lon="5.78027">
        <ele>85.599998474121</ele>
        <time>2018-04-01T14:48:46.000Z</time>
      </trkpt>
      <trkpt lat="43.16857" lon="5.78035">
        <ele>86.199996948242</ele>
        <time>2018-04-01T14:48:47.000Z</time>
      </trkpt>
      <trkpt lat="43.16855" lon="5.78051">
        <ele>87</ele>
        <time>2018-04-01T14:48:49.000Z</time>
      </trkpt>
      <trkpt lat="43.16853" lon="5.78058">
        <ele>87.400001525879</ele>
        <time>2018-04-01T14:48:50.000Z</time>
      </trkpt>
      <trkpt lat="43.1685" lon="5.78073">
        <ele>87.800003051758</ele>
        <time>2018-04-01T14:48:52.000Z</time>
      </trkpt>
      <trkpt lat="43.16848" lon="5.78086">
        <ele>88.199996948242</ele>
        <time>2018-04-01T14:48:54.000Z</time>
      </trkpt>
      <trkpt lat="43.16849" lon="5.78092">
        <ele>88.400001525879</ele>
        <time>2018-04-01T14:48:55.000Z</time>
      </trkpt>
      <trkpt lat="43.1685" lon="5.78112">
        <ele>89.199996948242</ele>
        <time>2018-04-01T14:48:58.000Z</time>
      </trkpt>
      <trkpt lat="43.1685" lon="5.78123">
        <ele>89.599998474121</ele>
        <time>2018-04-01T14:49:00.000Z</time>
      </trkpt>
      <trkpt lat="43.1685" lon="5.78134">
        <ele>90</ele>
        <time>2018-04-01T14:49:02.000Z</time>
      </trkpt>
      <trkpt lat="43.16851" lon="5.78149">
        <ele>90.599998474121</ele>
        <time>2018-04-01T14:49:04.000Z</time>
      </trkpt>
      <trkpt lat="43.16854" lon="5.78167">
        <ele>91</ele>
        <time>2018-04-01T14:49:06.000Z</time>
      </trkpt>
      <trkpt lat="43.16861" lon="5.782">
        <ele>92</ele>
        <time>2018-04-01T14:49:10.000Z</time>
      </trkpt>
      <trkpt lat="43.16867" lon="5.78225">
        <ele>92.800003051758</ele>
        <time>2018-04-01T14:49:13.000Z</time>
      </trkpt>
      <trkpt lat="43.16878" lon="5.78282">
        <ele>96.400001525879</ele>
        <time>2018-04-01T14:49:20.000Z</time>
      </trkpt>
      <trkpt lat="43.16881" lon="5.78297">
        <ele>97.199996948242</ele>
        <time>2018-04-01T14:49:22.000Z</time>
      </trkpt>
      <trkpt lat="43.16886" lon="5.78329">
        <ele>99.400001525879</ele>
        <time>2018-04-01T14:49:26.000Z</time>
      </trkpt>
      <trkpt lat="43.16888" lon="5.78352">
        <ele>101</ele>
        <time>2018-04-01T14:49:29.000Z</time>
      </trkpt>
      <trkpt lat="43.16889" lon="5.7836">
        <ele>101.40000152588</ele>
        <time>2018-04-01T14:49:30.000Z</time>
      </trkpt>
      <trkpt lat="43.16888" lon="5.78375">
        <ele>102.19999694824</ele>
        <time>2018-04-01T14:49:32.000Z</time>
      </trkpt>
      <trkpt lat="43.16887" lon="5.78383">
        <ele>102.40000152588</ele>
        <time>2018-04-01T14:49:33.000Z</time>
      </trkpt>
      <trkpt lat="43.16886" lon="5.78398">
        <ele>103</ele>
        <time>2018-04-01T14:49:35.000Z</time>
      </trkpt>
      <trkpt lat="43.16884" lon="5.78405">
        <ele>103.40000152588</ele>
        <time>2018-04-01T14:49:36.000Z</time>
      </trkpt>
      <trkpt lat="43.16881" lon="5.78427">
        <ele>104.19999694824</ele>
        <time>2018-04-01T14:49:39.000Z</time>
      </trkpt>
      <trkpt lat="43.16881" lon="5.78442">
        <ele>104.40000152588</ele>
        <time>2018-04-01T14:49:41.000Z</time>
      </trkpt>
      <trkpt lat="43.16881" lon="5.7845">
        <ele>104.59999847412</ele>
        <time>2018-04-01T14:49:42.000Z</time>
      </trkpt>
      <trkpt lat="43.16881" lon="5.78471">
        <ele>105.19999694824</ele>
        <time>2018-04-01T14:49:45.000Z</time>
      </trkpt>
      <trkpt lat="43.16882" lon="5.78479">
        <ele>105.80000305176</ele>
        <time>2018-04-01T14:49:46.000Z</time>
      </trkpt>
      <trkpt lat="43.16883" lon="5.78486">
        <ele>106.19999694824</ele>
        <time>2018-04-01T14:49:47.000Z</time>
      </trkpt>
      <trkpt lat="43.16884" lon="5.78493">
        <ele>106.59999847412</ele>
        <time>2018-04-01T14:49:48.000Z</time>
      </trkpt>
      <trkpt lat="43.16885" lon="5.785">
        <ele>107.19999694824</ele>
        <time>2018-04-01T14:49:49.000Z</time>
      </trkpt>
      <trkpt lat="43.16887" lon="5.78515">
        <ele>108.19999694824</ele>
        <time>2018-04-01T14:49:51.000Z</time>
      </trkpt>
      <trkpt lat="43.16889" lon="5.78537">
        <ele>109.19999694824</ele>
        <time>2018-04-01T14:49:54.000Z</time>
      </trkpt>
      <trkpt lat="43.16889" lon="5.78545">
        <ele>109.59999847412</ele>
        <time>2018-04-01T14:49:55.000Z</time>
      </trkpt>
      <trkpt lat="43.1689" lon="5.78552">
        <ele>110</ele>
        <time>2018-04-01T14:49:56.000Z</time>
      </trkpt>
      <trkpt lat="43.16892" lon="5.7856">
        <ele>110.40000152588</ele>
        <time>2018-04-01T14:49:57.000Z</time>
      </trkpt>
      <trkpt lat="43.16895" lon="5.78566">
        <ele>110.80000305176</ele>
        <time>2018-04-01T14:49:58.000Z</time>
      </trkpt>
      <trkpt lat="43.169" lon="5.78572">
        <ele>111.59999847412</ele>
        <time>2018-04-01T14:49:59.000Z</time>
      </trkpt>
      <trkpt lat="43.1691" lon="5.78579">
        <ele>113.19999694824</ele>
        <time>2018-04-01T14:50:01.000Z</time>
      </trkpt>
      <trkpt lat="43.16922" lon="5.78584">
        <ele>115</ele>
        <time>2018-04-01T14:50:03.000Z</time>
      </trkpt>
      <trkpt lat="43.16932" lon="5.78592">
        <ele>116</ele>
        <time>2018-04-01T14:50:05.000Z</time>
      </trkpt>
      <trkpt lat="43.16939" lon="5.78604">
        <ele>115.80000305176</ele>
        <time>2018-04-01T14:50:07.000Z</time>
      </trkpt>
      <trkpt lat="43.16941" lon="5.78612">
        <ele>115.80000305176</ele>
        <time>2018-04-01T14:50:08.000Z</time>
      </trkpt>
      <trkpt lat="43.16943" lon="5.78619">
        <ele>115.80000305176</ele>
        <time>2018-04-01T14:50:09.000Z</time>
      </trkpt>
      <trkpt lat="43.16946" lon="5.78634">
        <ele>115.80000305176</ele>
        <time>2018-04-01T14:50:11.000Z</time>
      </trkpt>
      <trkpt lat="43.16952" lon="5.78666">
        <ele>118</ele>
        <time>2018-04-01T14:50:15.000Z</time>
      </trkpt>
      <trkpt lat="43.16958" lon="5.78697">
        <ele>118.59999847412</ele>
        <time>2018-04-01T14:50:19.000Z</time>
      </trkpt>
      <trkpt lat="43.16961" lon="5.78712">
        <ele>118.80000305176</ele>
        <time>2018-04-01T14:50:21.000Z</time>
      </trkpt>
      <trkpt lat="43.16966" lon="5.78736">
        <ele>120.59999847412</ele>
        <time>2018-04-01T14:50:25.000Z</time>
      </trkpt>
      <trkpt lat="43.16969" lon="5.78754">
        <ele>122.59999847412</ele>
        <time>2018-04-01T14:50:30.000Z</time>
      </trkpt>
      <trkpt lat="43.1697" lon="5.78758">
        <ele>123</ele>
        <time>2018-04-01T14:50:31.000Z</time>
      </trkpt>
      <trkpt lat="43.16971" lon="5.7877">
        <ele>124.19999694824</ele>
        <time>2018-04-01T14:50:35.000Z</time>
      </trkpt>
      <trkpt lat="43.1697" lon="5.78771">
        <ele>124.19999694824</ele>
        <time>2018-04-01T14:50:36.000Z</time>
      </trkpt>
      <trkpt lat="43.1697" lon="5.78772">
        <ele>124.19999694824</ele>
        <time>2018-04-01T14:50:37.000Z</time>
      </trkpt>
      <trkpt lat="43.16972" lon="5.78777">
        <ele>125</ele>
        <time>2018-04-01T14:51:11.000Z</time>
      </trkpt>
      <trkpt lat="43.16973" lon="5.7878">
        <ele>125.19999694824</ele>
        <time>2018-04-01T14:51:12.000Z</time>
      </trkpt>
      <trkpt lat="43.16979" lon="5.78801">
        <ele>127.59999847412</ele>
        <time>2018-04-01T14:51:17.000Z</time>
      </trkpt>
      <trkpt lat="43.1698" lon="5.78805">
        <ele>128</ele>
        <time>2018-04-01T14:51:18.000Z</time>
      </trkpt>
      <trkpt lat="43.16983" lon="5.78825">
        <ele>130</ele>
        <time>2018-04-01T14:51:22.000Z</time>
      </trkpt>
      <trkpt lat="43.16983" lon="5.78835">
        <ele>130.80000305176</ele>
        <time>2018-04-01T14:51:24.000Z</time>
      </trkpt>
      <trkpt lat="43.16981" lon="5.78846">
        <ele>131.60000610352</ele>
        <time>2018-04-01T14:51:26.000Z</time>
      </trkpt>
      <trkpt lat="43.16977" lon="5.7886">
        <ele>132.39999389648</ele>
        <time>2018-04-01T14:51:29.000Z</time>
      </trkpt>
      <trkpt lat="43.16964" lon="5.78891">
        <ele>134.39999389648</ele>
        <time>2018-04-01T14:51:36.000Z</time>
      </trkpt>
      <trkpt lat="43.16961" lon="5.78901">
        <ele>134.80000305176</ele>
        <time>2018-04-01T14:51:38.000Z</time>
      </trkpt>
      <trkpt lat="43.16949" lon="5.78933">
        <ele>136.60000610352</ele>
        <time>2018-04-01T14:51:45.000Z</time>
      </trkpt>
      <trkpt lat="43.16934" lon="5.78948">
        <ele>136.60000610352</ele>
        <time>2018-04-01T14:51:50.000Z</time>
      </trkpt>
      <trkpt lat="43.16924" lon="5.78944">
        <ele>135.19999694824</ele>
        <time>2018-04-01T14:51:53.000Z</time>
      </trkpt>
      <trkpt lat="43.16921" lon="5.78942">
        <ele>134.60000610352</ele>
        <time>2018-04-01T14:51:54.000Z</time>
      </trkpt>
      <trkpt lat="43.1691" lon="5.78943">
        <ele>133.19999694824</ele>
        <time>2018-04-01T14:51:59.000Z</time>
      </trkpt>
      <trkpt lat="43.16909" lon="5.78947">
        <ele>133.60000610352</ele>
        <time>2018-04-01T14:55:35.000Z</time>
      </trkpt>
      <trkpt lat="43.16909" lon="5.7895">
        <ele>133.80000305176</ele>
        <time>2018-04-01T14:55:36.000Z</time>
      </trkpt>
      <trkpt lat="43.16906" lon="5.78971">
        <ele>134.60000610352</ele>
        <time>2018-04-01T14:55:42.000Z</time>
      </trkpt>
      <trkpt lat="43.16906" lon="5.78983">
        <ele>135.19999694824</ele>
        <time>2018-04-01T14:55:45.000Z</time>
      </trkpt>
      <trkpt lat="43.16906" lon="5.78998">
        <ele>136.19999694824</ele>
        <time>2018-04-01T14:55:49.000Z</time>
      </trkpt>
      <trkpt lat="43.16914" lon="5.79011">
        <ele>138.19999694824</ele>
        <time>2018-04-01T14:55:54.000Z</time>
      </trkpt>
      <trkpt lat="43.16919" lon="5.79015">
        <ele>139.19999694824</ele>
        <time>2018-04-01T14:55:56.000Z</time>
      </trkpt>
      <trkpt lat="43.16938" lon="5.79027">
        <ele>143</ele>
        <time>2018-04-01T14:56:03.000Z</time>
      </trkpt>
      <trkpt lat="43.1695" lon="5.79035">
        <ele>145.39999389648</ele>
        <time>2018-04-01T14:56:07.000Z</time>
      </trkpt>
      <trkpt lat="43.16965" lon="5.79043">
        <ele>148.39999389648</ele>
        <time>2018-04-01T14:56:11.000Z</time>
      </trkpt>
      <trkpt lat="43.16981" lon="5.79051">
        <ele>151.60000610352</ele>
        <time>2018-04-01T14:56:15.000Z</time>
      </trkpt>
      <trkpt lat="43.16995" lon="5.79059">
        <ele>154.39999389648</ele>
        <time>2018-04-01T14:56:19.000Z</time>
      </trkpt>
      <trkpt lat="43.17002" lon="5.79066">
        <ele>155.80000305176</ele>
        <time>2018-04-01T14:56:21.000Z</time>
      </trkpt>
      <trkpt lat="43.17003" lon="5.79077">
        <ele>156</ele>
        <time>2018-04-01T14:56:23.000Z</time>
      </trkpt>
      <trkpt lat="43.16999" lon="5.79089">
        <ele>155.80000305176</ele>
        <time>2018-04-01T14:56:25.000Z</time>
      </trkpt>
      <trkpt lat="43.16997" lon="5.79095">
        <ele>155.60000610352</ele>
        <time>2018-04-01T14:56:26.000Z</time>
      </trkpt>
      <trkpt lat="43.16995" lon="5.79101">
        <ele>155.39999389648</ele>
        <time>2018-04-01T14:56:27.000Z</time>
      </trkpt>
      <trkpt lat="43.16993" lon="5.79107">
        <ele>155.19999694824</ele>
        <time>2018-04-01T14:56:28.000Z</time>
      </trkpt>
      <trkpt lat="43.16989" lon="5.7912">
        <ele>154.80000305176</ele>
        <time>2018-04-01T14:56:30.000Z</time>
      </trkpt>
      <trkpt lat="43.16987" lon="5.79133">
        <ele>154</ele>
        <time>2018-04-01T14:56:32.000Z</time>
      </trkpt>
      <trkpt lat="43.16986" lon="5.79139">
        <ele>153.80000305176</ele>
        <time>2018-04-01T14:56:33.000Z</time>
      </trkpt>
      <trkpt lat="43.16985" lon="5.79145">
        <ele>153.80000305176</ele>
        <time>2018-04-01T14:56:34.000Z</time>
      </trkpt>
      <trkpt lat="43.16984" lon="5.79158">
        <ele>153.60000610352</ele>
        <time>2018-04-01T14:56:36.000Z</time>
      </trkpt>
      <trkpt lat="43.16985" lon="5.79172">
        <ele>153.80000305176</ele>
        <time>2018-04-01T14:56:38.000Z</time>
      </trkpt>
      <trkpt lat="43.16987" lon="5.79188">
        <ele>154.19999694824</ele>
        <time>2018-04-01T14:56:40.000Z</time>
      </trkpt>
      <trkpt lat="43.16988" lon="5.79233">
        <ele>153.39999389648</ele>
        <time>2018-04-01T14:56:45.000Z</time>
      </trkpt>
      <trkpt lat="43.16984" lon="5.79269">
        <ele>153.39999389648</ele>
        <time>2018-04-01T14:56:50.000Z</time>
      </trkpt>
      <trkpt lat="43.16983" lon="5.7929">
        <ele>154.19999694824</ele>
        <time>2018-04-01T14:56:54.000Z</time>
      </trkpt>
      <trkpt lat="43.16984" lon="5.79295">
        <ele>154.60000610352</ele>
        <time>2018-04-01T14:56:55.000Z</time>
      </trkpt>
      <trkpt lat="43.16993" lon="5.79319">
        <ele>157.39999389648</ele>
        <time>2018-04-01T14:57:00.000Z</time>
      </trkpt>
      <trkpt lat="43.16998" lon="5.79331">
        <ele>159</ele>
        <time>2018-04-01T14:57:02.000Z</time>
      </trkpt>
      <trkpt lat="43.17" lon="5.79337">
        <ele>159.80000305176</ele>
        <time>2018-04-01T14:57:03.000Z</time>
      </trkpt>
      <trkpt lat="43.17" lon="5.79344">
        <ele>160</ele>
        <time>2018-04-01T14:57:04.000Z</time>
      </trkpt>
      <trkpt lat="43.16999" lon="5.7935">
        <ele>160.19999694824</ele>
        <time>2018-04-01T14:57:05.000Z</time>
      </trkpt>
      <trkpt lat="43.16994" lon="5.79372">
        <ele>159.80000305176</ele>
        <time>2018-04-01T14:57:08.000Z</time>
      </trkpt>
      <trkpt lat="43.16992" lon="5.7938">
        <ele>159.80000305176</ele>
        <time>2018-04-01T14:57:09.000Z</time>
      </trkpt>
      <trkpt lat="43.16981" lon="5.7941">
        <ele>160.80000305176</ele>
        <time>2018-04-01T14:57:13.000Z</time>
      </trkpt>
      <trkpt lat="43.16979" lon="5.79417">
        <ele>161.19999694824</ele>
        <time>2018-04-01T14:57:14.000Z</time>
      </trkpt>
      <trkpt lat="43.1697" lon="5.7944">
        <ele>161.80000305176</ele>
        <time>2018-04-01T14:57:17.000Z</time>
      </trkpt>
      <trkpt lat="43.16963" lon="5.7947">
        <ele>162.19999694824</ele>
        <time>2018-04-01T14:57:21.000Z</time>
      </trkpt>
      <trkpt lat="43.16961" lon="5.79478">
        <ele>162.80000305176</ele>
        <time>2018-04-01T14:57:22.000Z</time>
      </trkpt>
      <trkpt lat="43.16954" lon="5.7951">
        <ele>164.80000305176</ele>
        <time>2018-04-01T14:57:26.000Z</time>
      </trkpt>
      <trkpt lat="43.16952" lon="5.79526">
        <ele>165.39999389648</ele>
        <time>2018-04-01T14:57:28.000Z</time>
      </trkpt>
      <trkpt lat="43.16948" lon="5.79551">
        <ele>166.39999389648</ele>
        <time>2018-04-01T14:57:31.000Z</time>
      </trkpt>
      <trkpt lat="43.16942" lon="5.79573">
        <ele>167.60000610352</ele>
        <time>2018-04-01T14:57:34.000Z</time>
      </trkpt>
      <trkpt lat="43.16937" lon="5.79586">
        <ele>167.39999389648</ele>
        <time>2018-04-01T14:57:36.000Z</time>
      </trkpt>
      <trkpt lat="43.16928" lon="5.79616">
        <ele>167.80000305176</ele>
        <time>2018-04-01T14:57:40.000Z</time>
      </trkpt>
      <trkpt lat="43.16922" lon="5.7963">
        <ele>168.39999389648</ele>
        <time>2018-04-01T14:57:42.000Z</time>
      </trkpt>
      <trkpt lat="43.16919" lon="5.79637">
        <ele>168.60000610352</ele>
        <time>2018-04-01T14:57:43.000Z</time>
      </trkpt>
      <trkpt lat="43.1691" lon="5.79656">
        <ele>169</ele>
        <time>2018-04-01T14:57:46.000Z</time>
      </trkpt>
      <trkpt lat="43.16906" lon="5.79671">
        <ele>169.60000610352</ele>
        <time>2018-04-01T14:57:48.000Z</time>
      </trkpt>
      <trkpt lat="43.16906" lon="5.79678">
        <ele>170.19999694824</ele>
        <time>2018-04-01T14:57:49.000Z</time>
      </trkpt>
      <trkpt lat="43.16906" lon="5.79685">
        <ele>170.80000305176</ele>
        <time>2018-04-01T14:57:50.000Z</time>
      </trkpt>
      <trkpt lat="43.16907" lon="5.79698">
        <ele>172</ele>
        <time>2018-04-01T14:57:52.000Z</time>
      </trkpt>
      <trkpt lat="43.16906" lon="5.79721">
        <ele>171.80000305176</ele>
        <time>2018-04-01T14:57:55.000Z</time>
      </trkpt>
      <trkpt lat="43.1691" lon="5.79744">
        <ele>172.19999694824</ele>
        <time>2018-04-01T14:57:58.000Z</time>
      </trkpt>
      <trkpt lat="43.16914" lon="5.7976">
        <ele>172.60000610352</ele>
        <time>2018-04-01T14:58:00.000Z</time>
      </trkpt>
      <trkpt lat="43.16915" lon="5.79767">
        <ele>172.80000305176</ele>
        <time>2018-04-01T14:58:01.000Z</time>
      </trkpt>
      <trkpt lat="43.16916" lon="5.79776">
        <ele>172.80000305176</ele>
        <time>2018-04-01T14:58:02.000Z</time>
      </trkpt>
      <trkpt lat="43.16921" lon="5.79808">
        <ele>173.19999694824</ele>
        <time>2018-04-01T14:58:06.000Z</time>
      </trkpt>
      <trkpt lat="43.16931" lon="5.79848">
        <ele>175</ele>
        <time>2018-04-01T14:58:11.000Z</time>
      </trkpt>
      <trkpt lat="43.16935" lon="5.79864">
        <ele>175.80000305176</ele>
        <time>2018-04-01T14:58:13.000Z</time>
      </trkpt>
      <trkpt lat="43.16937" lon="5.79887">
        <ele>175.80000305176</ele>
        <time>2018-04-01T14:58:16.000Z</time>
      </trkpt>
      <trkpt lat="43.16936" lon="5.79903">
        <ele>174</ele>
        <time>2018-04-01T14:58:18.000Z</time>
      </trkpt>
      <trkpt lat="43.16935" lon="5.79911">
        <ele>173.39999389648</ele>
        <time>2018-04-01T14:58:19.000Z</time>
      </trkpt>
      <trkpt lat="43.16936" lon="5.79934">
        <ele>172.19999694824</ele>
        <time>2018-04-01T14:58:22.000Z</time>
      </trkpt>
      <trkpt lat="43.16938" lon="5.79942">
        <ele>172</ele>
        <time>2018-04-01T14:58:23.000Z</time>
      </trkpt>
      <trkpt lat="43.16943" lon="5.79957">
        <ele>172.39999389648</ele>
        <time>2018-04-01T14:58:25.000Z</time>
      </trkpt>
      <trkpt lat="43.1695" lon="5.7997">
        <ele>173</ele>
        <time>2018-04-01T14:58:27.000Z</time>
      </trkpt>
      <trkpt lat="43.16953" lon="5.79976">
        <ele>174</ele>
        <time>2018-04-01T14:58:28.000Z</time>
      </trkpt>
      <trkpt lat="43.16968" lon="5.79987">
        <ele>178</ele>
        <time>2018-04-01T14:58:31.000Z</time>
      </trkpt>
      <trkpt lat="43.16974" lon="5.7999">
        <ele>179.39999389648</ele>
        <time>2018-04-01T14:58:32.000Z</time>
      </trkpt>
      <trkpt lat="43.16984" lon="5.79997">
        <ele>182</ele>
        <time>2018-04-01T14:58:34.000Z</time>
      </trkpt>
      <trkpt lat="43.16999" lon="5.80008">
        <ele>185.80000305176</ele>
        <time>2018-04-01T14:58:37.000Z</time>
      </trkpt>
      <trkpt lat="43.17004" lon="5.80011">
        <ele>187.19999694824</ele>
        <time>2018-04-01T14:58:38.000Z</time>
      </trkpt>
      <trkpt lat="43.17015" lon="5.80017">
        <ele>190.19999694824</ele>
        <time>2018-04-01T14:58:40.000Z</time>
      </trkpt>
      <trkpt lat="43.17024" lon="5.80022">
        <ele>193.60000610352</ele>
        <time>2018-04-01T14:58:42.000Z</time>
      </trkpt>
      <trkpt lat="43.1703" lon="5.80033">
        <ele>195.80000305176</ele>
        <time>2018-04-01T14:58:44.000Z</time>
      </trkpt>
      <trkpt lat="43.17027" lon="5.8004">
        <ele>195.39999389648</ele>
        <time>2018-04-01T14:58:45.000Z</time>
      </trkpt>
      <trkpt lat="43.17022" lon="5.80045">
        <ele>193.80000305176</ele>
        <time>2018-04-01T14:58:46.000Z</time>
      </trkpt>
      <trkpt lat="43.17012" lon="5.8005">
        <ele>190.80000305176</ele>
        <time>2018-04-01T14:58:48.000Z</time>
      </trkpt>
      <trkpt lat="43.17006" lon="5.80053">
        <ele>190</ele>
        <time>2018-04-01T14:58:49.000Z</time>
      </trkpt>
      <trkpt lat="43.17002" lon="5.80056">
        <ele>189.19999694824</ele>
        <time>2018-04-01T14:58:50.000Z</time>
      </trkpt>
      <trkpt lat="43.16997" lon="5.80059">
        <ele>189.19999694824</ele>
        <time>2018-04-01T14:58:51.000Z</time>
      </trkpt>
      <trkpt lat="43.16993" lon="5.80063">
        <ele>189.39999389648</ele>
        <time>2018-04-01T14:58:52.000Z</time>
      </trkpt>
      <trkpt lat="43.16989" lon="5.80068">
        <ele>189.39999389648</ele>
        <time>2018-04-01T14:58:53.000Z</time>
      </trkpt>
      <trkpt lat="43.16979" lon="5.80078">
        <ele>190</ele>
        <time>2018-04-01T14:58:55.000Z</time>
      </trkpt>
      <trkpt lat="43.16975" lon="5.80084">
        <ele>190.19999694824</ele>
        <time>2018-04-01T14:58:56.000Z</time>
      </trkpt>
      <trkpt lat="43.16958" lon="5.80105">
        <ele>189</ele>
        <time>2018-04-01T14:59:00.000Z</time>
      </trkpt>
      <trkpt lat="43.16948" lon="5.80122">
        <ele>187</ele>
        <time>2018-04-01T14:59:03.000Z</time>
      </trkpt>
      <trkpt lat="43.16946" lon="5.80136">
        <ele>187.80000305176</ele>
        <time>2018-04-01T14:59:05.000Z</time>
      </trkpt>
      <trkpt lat="43.16947" lon="5.80143">
        <ele>189.19999694824</ele>
        <time>2018-04-01T14:59:06.000Z</time>
      </trkpt>
      <trkpt lat="43.16948" lon="5.80151">
        <ele>190.60000610352</ele>
        <time>2018-04-01T14:59:07.000Z</time>
      </trkpt>
      <trkpt lat="43.1695" lon="5.80166">
        <ele>193.80000305176</ele>
        <time>2018-04-01T14:59:09.000Z</time>
      </trkpt>
      <trkpt lat="43.1695" lon="5.80174">
        <ele>195</ele>
        <time>2018-04-01T14:59:10.000Z</time>
      </trkpt>
      <trkpt lat="43.16949" lon="5.80181">
        <ele>195.80000305176</ele>
        <time>2018-04-01T14:59:11.000Z</time>
      </trkpt>
      <trkpt lat="43.16947" lon="5.80189">
        <ele>196.39999389648</ele>
        <time>2018-04-01T14:59:12.000Z</time>
      </trkpt>
      <trkpt lat="43.16939" lon="5.80219">
        <ele>198.19999694824</ele>
        <time>2018-04-01T14:59:16.000Z</time>
      </trkpt>
      <trkpt lat="43.16936" lon="5.80225">
        <ele>198.19999694824</ele>
        <time>2018-04-01T14:59:17.000Z</time>
      </trkpt>
      <trkpt lat="43.16924" lon="5.8026">
        <ele>199.60000610352</ele>
        <time>2018-04-01T14:59:22.000Z</time>
      </trkpt>
      <trkpt lat="43.16919" lon="5.80273">
        <ele>200.80000305176</ele>
        <time>2018-04-01T14:59:24.000Z</time>
      </trkpt>
      <trkpt lat="43.16909" lon="5.80297">
        <ele>202.19999694824</ele>
        <time>2018-04-01T14:59:28.000Z</time>
      </trkpt>
      <trkpt lat="43.16899" lon="5.80318">
        <ele>201.39999389648</ele>
        <time>2018-04-01T14:59:32.000Z</time>
      </trkpt>
      <trkpt lat="43.16897" lon="5.80329">
        <ele>201</ele>
        <time>2018-04-01T14:59:34.000Z</time>
      </trkpt>
      <trkpt lat="43.16894" lon="5.80345">
        <ele>200.80000305176</ele>
        <time>2018-04-01T14:59:37.000Z</time>
      </trkpt>
      <trkpt lat="43.169" lon="5.80354">
        <ele>202</ele>
        <time>2018-04-01T14:59:39.000Z</time>
      </trkpt>
      <trkpt lat="43.16908" lon="5.8035">
        <ele>203.19999694824</ele>
        <time>2018-04-01T14:59:41.000Z</time>
      </trkpt>
      <trkpt lat="43.16912" lon="5.80349">
        <ele>204</ele>
        <time>2018-04-01T14:59:42.000Z</time>
      </trkpt>
      <trkpt lat="43.16923" lon="5.8035">
        <ele>205.80000305176</ele>
        <time>2018-04-01T14:59:45.000Z</time>
      </trkpt>
      <trkpt lat="43.16925" lon="5.80355">
        <ele>206.19999694824</ele>
        <time>2018-04-01T14:59:46.000Z</time>
      </trkpt>
      <trkpt lat="43.16929" lon="5.80363">
        <ele>207</ele>
        <time>2018-04-01T14:59:48.000Z</time>
      </trkpt>
      <trkpt lat="43.16931" lon="5.8037">
        <ele>207.80000305176</ele>
        <time>2018-04-01T14:59:49.000Z</time>
      </trkpt>
      <trkpt lat="43.16933" lon="5.80377">
        <ele>208.39999389648</ele>
        <time>2018-04-01T14:59:50.000Z</time>
      </trkpt>
      <trkpt lat="43.16938" lon="5.80398">
        <ele>210.39999389648</ele>
        <time>2018-04-01T14:59:53.000Z</time>
      </trkpt>
      <trkpt lat="43.16942" lon="5.80412">
        <ele>211.39999389648</ele>
        <time>2018-04-01T14:59:55.000Z</time>
      </trkpt>
      <trkpt lat="43.16943" lon="5.8042">
        <ele>211.39999389648</ele>
        <time>2018-04-01T14:59:56.000Z</time>
      </trkpt>
      <trkpt lat="43.16943" lon="5.80428">
        <ele>211.19999694824</ele>
        <time>2018-04-01T14:59:57.000Z</time>
      </trkpt>
      <trkpt lat="43.16944" lon="5.80443">
        <ele>210.80000305176</ele>
        <time>2018-04-01T14:59:59.000Z</time>
      </trkpt>
      <trkpt lat="43.16944" lon="5.80464">
        <ele>210.39999389648</ele>
        <time>2018-04-01T15:00:02.000Z</time>
      </trkpt>
      <trkpt lat="43.16947" lon="5.80486">
        <ele>210</ele>
        <time>2018-04-01T15:00:05.000Z</time>
      </trkpt>
      <trkpt lat="43.1695" lon="5.805">
        <ele>210.19999694824</ele>
        <time>2018-04-01T15:00:07.000Z</time>
      </trkpt>
      <trkpt lat="43.16952" lon="5.80506">
        <ele>211</ele>
        <time>2018-04-01T15:00:08.000Z</time>
      </trkpt>
      <trkpt lat="43.16959" lon="5.80517">
        <ele>213</ele>
        <time>2018-04-01T15:00:10.000Z</time>
      </trkpt>
      <trkpt lat="43.16963" lon="5.80522">
        <ele>214</ele>
        <time>2018-04-01T15:00:11.000Z</time>
      </trkpt>
      <trkpt lat="43.16967" lon="5.80527">
        <ele>215.19999694824</ele>
        <time>2018-04-01T15:00:12.000Z</time>
      </trkpt>
      <trkpt lat="43.16974" lon="5.80537">
        <ele>217.39999389648</ele>
        <time>2018-04-01T15:00:14.000Z</time>
      </trkpt>
      <trkpt lat="43.16982" lon="5.80546">
        <ele>219.39999389648</ele>
        <time>2018-04-01T15:00:16.000Z</time>
      </trkpt>
      <trkpt lat="43.16988" lon="5.80555">
        <ele>221.19999694824</ele>
        <time>2018-04-01T15:00:18.000Z</time>
      </trkpt>
      <trkpt lat="43.16991" lon="5.80561">
        <ele>222</ele>
        <time>2018-04-01T15:00:19.000Z</time>
      </trkpt>
      <trkpt lat="43.16994" lon="5.80567">
        <ele>222.39999389648</ele>
        <time>2018-04-01T15:00:20.000Z</time>
      </trkpt>
      <trkpt lat="43.16999" lon="5.80578">
        <ele>223.19999694824</ele>
        <time>2018-04-01T15:00:22.000Z</time>
      </trkpt>
      <trkpt lat="43.17005" lon="5.80591">
        <ele>224.19999694824</ele>
        <time>2018-04-01T15:00:24.000Z</time>
      </trkpt>
      <trkpt lat="43.17008" lon="5.80598">
        <ele>225</ele>
        <time>2018-04-01T15:00:25.000Z</time>
      </trkpt>
      <trkpt lat="43.17012" lon="5.80604">
        <ele>225.60000610352</ele>
        <time>2018-04-01T15:00:26.000Z</time>
      </trkpt>
      <trkpt lat="43.17019" lon="5.80616">
        <ele>226.39999389648</ele>
        <time>2018-04-01T15:00:28.000Z</time>
      </trkpt>
      <trkpt lat="43.17024" lon="5.80626">
        <ele>226.80000305176</ele>
        <time>2018-04-01T15:00:30.000Z</time>
      </trkpt>
      <trkpt lat="43.17028" lon="5.80632">
        <ele>227.19999694824</ele>
        <time>2018-04-01T15:00:31.000Z</time>
      </trkpt>
      <trkpt lat="43.17031" lon="5.80637">
        <ele>227.60000610352</ele>
        <time>2018-04-01T15:00:32.000Z</time>
      </trkpt>
      <trkpt lat="43.1704" lon="5.80651">
        <ele>230</ele>
        <time>2018-04-01T15:00:35.000Z</time>
      </trkpt>
      <trkpt lat="43.17045" lon="5.8066">
        <ele>231.39999389648</ele>
        <time>2018-04-01T15:00:37.000Z</time>
      </trkpt>
      <trkpt lat="43.17045" lon="5.80676">
        <ele>232.60000610352</ele>
        <time>2018-04-01T15:00:40.000Z</time>
      </trkpt>
      <trkpt lat="43.1704" lon="5.8068">
        <ele>232.80000305176</ele>
        <time>2018-04-01T15:00:41.000Z</time>
      </trkpt>
      <trkpt lat="43.17036" lon="5.80684">
        <ele>233</ele>
        <time>2018-04-01T15:00:42.000Z</time>
      </trkpt>
      <trkpt lat="43.17028" lon="5.80693">
        <ele>233.80000305176</ele>
        <time>2018-04-01T15:00:44.000Z</time>
      </trkpt>
      <trkpt lat="43.17022" lon="5.80697">
        <ele>233.80000305176</ele>
        <time>2018-04-01T15:00:45.000Z</time>
      </trkpt>
      <trkpt lat="43.17016" lon="5.80702">
        <ele>234</ele>
        <time>2018-04-01T15:00:46.000Z</time>
      </trkpt>
      <trkpt lat="43.16993" lon="5.80714">
        <ele>231.60000610352</ele>
        <time>2018-04-01T15:00:50.000Z</time>
      </trkpt>
      <trkpt lat="43.16986" lon="5.80715">
        <ele>230.39999389648</ele>
        <time>2018-04-01T15:00:51.000Z</time>
      </trkpt>
      <trkpt lat="43.1698" lon="5.80716">
        <ele>229.19999694824</ele>
        <time>2018-04-01T15:00:52.000Z</time>
      </trkpt>
      <trkpt lat="43.16967" lon="5.80717">
        <ele>226.39999389648</ele>
        <time>2018-04-01T15:00:54.000Z</time>
      </trkpt>
      <trkpt lat="43.1695" lon="5.80724">
        <ele>224</ele>
        <time>2018-04-01T15:00:57.000Z</time>
      </trkpt>
      <trkpt lat="43.1694" lon="5.80747">
        <ele>226.19999694824</ele>
        <time>2018-04-01T15:01:00.000Z</time>
      </trkpt>
      <trkpt lat="43.16938" lon="5.80755">
        <ele>226.80000305176</ele>
        <time>2018-04-01T15:01:01.000Z</time>
      </trkpt>
      <trkpt lat="43.16925" lon="5.808">
        <ele>230.60000610352</ele>
        <time>2018-04-01T15:01:06.000Z</time>
      </trkpt>
      <trkpt lat="43.16902" lon="5.8085">
        <ele>230.19999694824</ele>
        <time>2018-04-01T15:01:12.000Z</time>
      </trkpt>
      <trkpt lat="43.16894" lon="5.80868">
        <ele>229.80000305176</ele>
        <time>2018-04-01T15:01:14.000Z</time>
      </trkpt>
      <trkpt lat="43.16885" lon="5.80882">
        <ele>228.60000610352</ele>
        <time>2018-04-01T15:01:16.000Z</time>
      </trkpt>
      <trkpt lat="43.16881" lon="5.80888">
        <ele>227.60000610352</ele>
        <time>2018-04-01T15:01:17.000Z</time>
      </trkpt>
      <trkpt lat="43.16875" lon="5.80892">
        <ele>226.19999694824</ele>
        <time>2018-04-01T15:01:18.000Z</time>
      </trkpt>
      <trkpt lat="43.1686" lon="5.80894">
        <ele>222</ele>
        <time>2018-04-01T15:01:20.000Z</time>
      </trkpt>
      <trkpt lat="43.16837" lon="5.80901">
        <ele>216.80000305176</ele>
        <time>2018-04-01T15:01:23.000Z</time>
      </trkpt>
      <trkpt lat="43.16829" lon="5.80909">
        <ele>216.60000610352</ele>
        <time>2018-04-01T15:01:24.000Z</time>
      </trkpt>
      <trkpt lat="43.16821" lon="5.80917">
        <ele>216.60000610352</ele>
        <time>2018-04-01T15:01:25.000Z</time>
      </trkpt>
      <trkpt lat="43.16808" lon="5.80938">
        <ele>217.60000610352</ele>
        <time>2018-04-01T15:01:27.000Z</time>
      </trkpt>
      <trkpt lat="43.16794" lon="5.80956">
        <ele>216.19999694824</ele>
        <time>2018-04-01T15:01:29.000Z</time>
      </trkpt>
      <trkpt lat="43.16781" lon="5.80973">
        <ele>215</ele>
        <time>2018-04-01T15:01:31.000Z</time>
      </trkpt>
      <trkpt lat="43.16776" lon="5.8098">
        <ele>215</ele>
        <time>2018-04-01T15:01:32.000Z</time>
      </trkpt>
      <trkpt lat="43.1677" lon="5.80987">
        <ele>214.80000305176</ele>
        <time>2018-04-01T15:01:33.000Z</time>
      </trkpt>
      <trkpt lat="43.16761" lon="5.81002">
        <ele>214.80000305176</ele>
        <time>2018-04-01T15:01:35.000Z</time>
      </trkpt>
      <trkpt lat="43.16752" lon="5.81015">
        <ele>216.60000610352</ele>
        <time>2018-04-01T15:01:37.000Z</time>
      </trkpt>
      <trkpt lat="43.16747" lon="5.81021">
        <ele>217.60000610352</ele>
        <time>2018-04-01T15:01:38.000Z</time>
      </trkpt>
      <trkpt lat="43.16731" lon="5.81046">
        <ele>219.80000305176</ele>
        <time>2018-04-01T15:01:42.000Z</time>
      </trkpt>
      <trkpt lat="43.16723" lon="5.8106">
        <ele>220.39999389648</ele>
        <time>2018-04-01T15:01:44.000Z</time>
      </trkpt>
      <trkpt lat="43.16698" lon="5.81109">
        <ele>223.19999694824</ele>
        <time>2018-04-01T15:01:51.000Z</time>
      </trkpt>
      <trkpt lat="43.16675" lon="5.81138">
        <ele>221.80000305176</ele>
        <time>2018-04-01T15:01:56.000Z</time>
      </trkpt>
      <trkpt lat="43.1667" lon="5.81142">
        <ele>221.80000305176</ele>
        <time>2018-04-01T15:01:57.000Z</time>
      </trkpt>
      <trkpt lat="43.16655" lon="5.81158">
        <ele>222</ele>
        <time>2018-04-01T15:02:00.000Z</time>
      </trkpt>
      <trkpt lat="43.16651" lon="5.81164">
        <ele>222.19999694824</ele>
        <time>2018-04-01T15:02:01.000Z</time>
      </trkpt>
      <trkpt lat="43.16648" lon="5.81173">
        <ele>222.60000610352</ele>
        <time>2018-04-01T15:02:02.000Z</time>
      </trkpt>
      <trkpt lat="43.16646" lon="5.81199">
        <ele>224.60000610352</ele>
        <time>2018-04-01T15:02:05.000Z</time>
      </trkpt>
      <trkpt lat="43.16647" lon="5.81216">
        <ele>226</ele>
        <time>2018-04-01T15:02:07.000Z</time>
      </trkpt>
      <trkpt lat="43.16648" lon="5.81242">
        <ele>229.19999694824</ele>
        <time>2018-04-01T15:02:10.000Z</time>
      </trkpt>
      <trkpt lat="43.16648" lon="5.81251">
        <ele>230.39999389648</ele>
        <time>2018-04-01T15:02:11.000Z</time>
      </trkpt>
      <trkpt lat="43.16647" lon="5.81259">
        <ele>231.39999389648</ele>
        <time>2018-04-01T15:02:12.000Z</time>
      </trkpt>
      <trkpt lat="43.16638" lon="5.81281">
        <ele>233.39999389648</ele>
        <time>2018-04-01T15:02:15.000Z</time>
      </trkpt>
      <trkpt lat="43.16635" lon="5.81289">
        <ele>233.80000305176</ele>
        <time>2018-04-01T15:02:16.000Z</time>
      </trkpt>
      <trkpt lat="43.16624" lon="5.81316">
        <ele>235.60000610352</ele>
        <time>2018-04-01T15:02:20.000Z</time>
      </trkpt>
      <trkpt lat="43.1662" lon="5.81328">
        <ele>236.60000610352</ele>
        <time>2018-04-01T15:02:22.000Z</time>
      </trkpt>
      <trkpt lat="43.16618" lon="5.81334">
        <ele>236.80000305176</ele>
        <time>2018-04-01T15:02:23.000Z</time>
      </trkpt>
      <trkpt lat="43.16613" lon="5.81354">
        <ele>237.39999389648</ele>
        <time>2018-04-01T15:02:26.000Z</time>
      </trkpt>
      <trkpt lat="43.1661" lon="5.81369">
        <ele>237.80000305176</ele>
        <time>2018-04-01T15:02:28.000Z</time>
      </trkpt>
      <trkpt lat="43.16608" lon="5.81375">
        <ele>238</ele>
        <time>2018-04-01T15:02:29.000Z</time>
      </trkpt>
      <trkpt lat="43.16606" lon="5.81389">
        <ele>238.39999389648</ele>
        <time>2018-04-01T15:02:31.000Z</time>
      </trkpt>
      <trkpt lat="43.16606" lon="5.81397">
        <ele>237.60000610352</ele>
        <time>2018-04-01T15:02:32.000Z</time>
      </trkpt>
      <trkpt lat="43.16606" lon="5.81404">
        <ele>237</ele>
        <time>2018-04-01T15:02:33.000Z</time>
      </trkpt>
      <trkpt lat="43.16605" lon="5.81433">
        <ele>235.60000610352</ele>
        <time>2018-04-01T15:02:37.000Z</time>
      </trkpt>
      <trkpt lat="43.16607" lon="5.81449">
        <ele>235</ele>
        <time>2018-04-01T15:02:39.000Z</time>
      </trkpt>
      <trkpt lat="43.16618" lon="5.81474">
        <ele>234.39999389648</ele>
        <time>2018-04-01T15:02:42.000Z</time>
      </trkpt>
      <trkpt lat="43.16622" lon="5.81482">
        <ele>233.80000305176</ele>
        <time>2018-04-01T15:02:43.000Z</time>
      </trkpt>
      <trkpt lat="43.16636" lon="5.81515">
        <ele>231</ele>
        <time>2018-04-01T15:02:47.000Z</time>
      </trkpt>
      <trkpt lat="43.16648" lon="5.81551">
        <ele>229.19999694824</ele>
        <time>2018-04-01T15:02:51.000Z</time>
      </trkpt>
      <trkpt lat="43.16662" lon="5.81594">
        <ele>226.19999694824</ele>
        <time>2018-04-01T15:02:56.000Z</time>
      </trkpt>
      <trkpt lat="43.16671" lon="5.81619">
        <ele>224.39999389648</ele>
        <time>2018-04-01T15:02:59.000Z</time>
      </trkpt>
      <trkpt lat="43.16673" lon="5.81627">
        <ele>223.80000305176</ele>
        <time>2018-04-01T15:03:00.000Z</time>
      </trkpt>
      <trkpt lat="43.16689" lon="5.81666">
        <ele>222.60000610352</ele>
        <time>2018-04-01T15:03:05.000Z</time>
      </trkpt>
      <trkpt lat="43.16693" lon="5.81674">
        <ele>222.60000610352</ele>
        <time>2018-04-01T15:03:06.000Z</time>
      </trkpt>
      <trkpt lat="43.16709" lon="5.81722">
        <ele>221.19999694824</ele>
        <time>2018-04-01T15:03:12.000Z</time>
      </trkpt>
      <trkpt lat="43.16713" lon="5.81729">
        <ele>221.19999694824</ele>
        <time>2018-04-01T15:03:13.000Z</time>
      </trkpt>
      <trkpt lat="43.16737" lon="5.81771">
        <ele>220.80000305176</ele>
        <time>2018-04-01T15:03:19.000Z</time>
      </trkpt>
      <trkpt lat="43.16767" lon="5.81825">
        <ele>220.19999694824</ele>
        <time>2018-04-01T15:03:27.000Z</time>
      </trkpt>
      <trkpt lat="43.16772" lon="5.81832">
        <ele>220.39999389648</ele>
        <time>2018-04-01T15:03:28.000Z</time>
      </trkpt>
      <trkpt lat="43.16787" lon="5.81854">
        <ele>220.60000610352</ele>
        <time>2018-04-01T15:03:31.000Z</time>
      </trkpt>
      <trkpt lat="43.16792" lon="5.81862">
        <ele>220.80000305176</ele>
        <time>2018-04-01T15:03:32.000Z</time>
      </trkpt>
      <trkpt lat="43.16821" lon="5.81909">
        <ele>221.19999694824</ele>
        <time>2018-04-01T15:03:38.000Z</time>
      </trkpt>
      <trkpt lat="43.16837" lon="5.81941">
        <ele>221</ele>
        <time>2018-04-01T15:03:42.000Z</time>
      </trkpt>
      <trkpt lat="43.16858" lon="5.81993">
        <ele>220.19999694824</ele>
        <time>2018-04-01T15:03:49.000Z</time>
      </trkpt>
      <trkpt lat="43.16859" lon="5.82">
        <ele>220</ele>
        <time>2018-04-01T15:03:50.000Z</time>
      </trkpt>
      <trkpt lat="43.16859" lon="5.82008">
        <ele>219.39999389648</ele>
        <time>2018-04-01T15:03:51.000Z</time>
      </trkpt>
      <trkpt lat="43.16856" lon="5.82033">
        <ele>217.19999694824</ele>
        <time>2018-04-01T15:03:54.000Z</time>
      </trkpt>
      <trkpt lat="43.16852" lon="5.8204">
        <ele>216</ele>
        <time>2018-04-01T15:03:55.000Z</time>
      </trkpt>
      <trkpt lat="43.1684" lon="5.82056">
        <ele>213.39999389648</ele>
        <time>2018-04-01T15:03:57.000Z</time>
      </trkpt>
      <trkpt lat="43.16834" lon="5.82065">
        <ele>211.39999389648</ele>
        <time>2018-04-01T15:03:58.000Z</time>
      </trkpt>
      <trkpt lat="43.16827" lon="5.82074">
        <ele>209.39999389648</ele>
        <time>2018-04-01T15:03:59.000Z</time>
      </trkpt>
      <trkpt lat="43.16812" lon="5.82092">
        <ele>205.19999694824</ele>
        <time>2018-04-01T15:04:01.000Z</time>
      </trkpt>
      <trkpt lat="43.16805" lon="5.82102">
        <ele>203.39999389648</ele>
        <time>2018-04-01T15:04:02.000Z</time>
      </trkpt>
      <trkpt lat="43.16798" lon="5.82111">
        <ele>202</ele>
        <time>2018-04-01T15:04:03.000Z</time>
      </trkpt>
      <trkpt lat="43.16791" lon="5.8212">
        <ele>200.80000305176</ele>
        <time>2018-04-01T15:04:04.000Z</time>
      </trkpt>
      <trkpt lat="43.16784" lon="5.8213">
        <ele>199.60000610352</ele>
        <time>2018-04-01T15:04:05.000Z</time>
      </trkpt>
      <trkpt lat="43.16778" lon="5.8214">
        <ele>198.19999694824</ele>
        <time>2018-04-01T15:04:06.000Z</time>
      </trkpt>
      <trkpt lat="43.16774" lon="5.82152">
        <ele>197.19999694824</ele>
        <time>2018-04-01T15:04:07.000Z</time>
      </trkpt>
      <trkpt lat="43.16771" lon="5.82163">
        <ele>196.19999694824</ele>
        <time>2018-04-01T15:04:08.000Z</time>
      </trkpt>
      <trkpt lat="43.1677" lon="5.82175">
        <ele>195.39999389648</ele>
        <time>2018-04-01T15:04:09.000Z</time>
      </trkpt>
      <trkpt lat="43.16771" lon="5.82189">
        <ele>194.80000305176</ele>
        <time>2018-04-01T15:04:10.000Z</time>
      </trkpt>
      <trkpt lat="43.16772" lon="5.82203">
        <ele>194</ele>
        <time>2018-04-01T15:04:11.000Z</time>
      </trkpt>
      <trkpt lat="43.1677" lon="5.82216">
        <ele>193</ele>
        <time>2018-04-01T15:04:12.000Z</time>
      </trkpt>
      <trkpt lat="43.16767" lon="5.82228">
        <ele>192</ele>
        <time>2018-04-01T15:04:13.000Z</time>
      </trkpt>
      <trkpt lat="43.16763" lon="5.82239">
        <ele>191.19999694824</ele>
        <time>2018-04-01T15:04:14.000Z</time>
      </trkpt>
      <trkpt lat="43.16757" lon="5.82249">
        <ele>190.39999389648</ele>
        <time>2018-04-01T15:04:15.000Z</time>
      </trkpt>
      <trkpt lat="43.16744" lon="5.82268">
        <ele>188.19999694824</ele>
        <time>2018-04-01T15:04:17.000Z</time>
      </trkpt>
      <trkpt lat="43.16738" lon="5.8228">
        <ele>187</ele>
        <time>2018-04-01T15:04:18.000Z</time>
      </trkpt>
      <trkpt lat="43.16734" lon="5.82293">
        <ele>186.60000610352</ele>
        <time>2018-04-01T15:04:19.000Z</time>
      </trkpt>
      <trkpt lat="43.1673" lon="5.82306">
        <ele>186</ele>
        <time>2018-04-01T15:04:20.000Z</time>
      </trkpt>
      <trkpt lat="43.16725" lon="5.82319">
        <ele>184.60000610352</ele>
        <time>2018-04-01T15:04:21.000Z</time>
      </trkpt>
      <trkpt lat="43.16721" lon="5.82332">
        <ele>183.39999389648</ele>
        <time>2018-04-01T15:04:22.000Z</time>
      </trkpt>
      <trkpt lat="43.16716" lon="5.82344">
        <ele>182</ele>
        <time>2018-04-01T15:04:23.000Z</time>
      </trkpt>
      <trkpt lat="43.16711" lon="5.82356">
        <ele>181.80000305176</ele>
        <time>2018-04-01T15:04:24.000Z</time>
      </trkpt>
      <trkpt lat="43.16706" lon="5.82368">
        <ele>181.60000610352</ele>
        <time>2018-04-01T15:04:25.000Z</time>
      </trkpt>
      <trkpt lat="43.16701" lon="5.82377">
        <ele>181.19999694824</ele>
        <time>2018-04-01T15:04:26.000Z</time>
      </trkpt>
      <trkpt lat="43.16697" lon="5.82386">
        <ele>181</ele>
        <time>2018-04-01T15:04:27.000Z</time>
      </trkpt>
      <trkpt lat="43.16693" lon="5.82403">
        <ele>180</ele>
        <time>2018-04-01T15:04:29.000Z</time>
      </trkpt>
      <trkpt lat="43.16698" lon="5.8242">
        <ele>179</ele>
        <time>2018-04-01T15:04:31.000Z</time>
      </trkpt>
      <trkpt lat="43.16706" lon="5.82438">
        <ele>178</ele>
        <time>2018-04-01T15:04:33.000Z</time>
      </trkpt>
      <trkpt lat="43.16711" lon="5.82447">
        <ele>177.39999389648</ele>
        <time>2018-04-01T15:04:34.000Z</time>
      </trkpt>
      <trkpt lat="43.16715" lon="5.82457">
        <ele>176.80000305176</ele>
        <time>2018-04-01T15:04:35.000Z</time>
      </trkpt>
      <trkpt lat="43.1672" lon="5.82468">
        <ele>176.19999694824</ele>
        <time>2018-04-01T15:04:36.000Z</time>
      </trkpt>
      <trkpt lat="43.16728" lon="5.8249">
        <ele>175.60000610352</ele>
        <time>2018-04-01T15:04:38.000Z</time>
      </trkpt>
      <trkpt lat="43.16736" lon="5.82511">
        <ele>175.19999694824</ele>
        <time>2018-04-01T15:04:40.000Z</time>
      </trkpt>
      <trkpt lat="43.16741" lon="5.8252">
        <ele>175</ele>
        <time>2018-04-01T15:04:41.000Z</time>
      </trkpt>
      <trkpt lat="43.1675" lon="5.82538">
        <ele>174.39999389648</ele>
        <time>2018-04-01T15:04:43.000Z</time>
      </trkpt>
      <trkpt lat="43.16764" lon="5.82565">
        <ele>173.60000610352</ele>
        <time>2018-04-01T15:04:46.000Z</time>
      </trkpt>
      <trkpt lat="43.16775" lon="5.82589">
        <ele>172</ele>
        <time>2018-04-01T15:04:49.000Z</time>
      </trkpt>
      <trkpt lat="43.16779" lon="5.82598">
        <ele>171.39999389648</ele>
        <time>2018-04-01T15:04:50.000Z</time>
      </trkpt>
      <trkpt lat="43.16782" lon="5.82607">
        <ele>170.80000305176</ele>
        <time>2018-04-01T15:04:51.000Z</time>
      </trkpt>
      <trkpt lat="43.16785" lon="5.82618">
        <ele>170.39999389648</ele>
        <time>2018-04-01T15:04:52.000Z</time>
      </trkpt>
      <trkpt lat="43.16793" lon="5.8264">
        <ele>169.19999694824</ele>
        <time>2018-04-01T15:04:54.000Z</time>
      </trkpt>
      <trkpt lat="43.168" lon="5.82662">
        <ele>168</ele>
        <time>2018-04-01T15:04:56.000Z</time>
      </trkpt>
      <trkpt lat="43.16804" lon="5.82672">
        <ele>167.39999389648</ele>
        <time>2018-04-01T15:04:57.000Z</time>
      </trkpt>
      <trkpt lat="43.16811" lon="5.82692">
        <ele>166</ele>
        <time>2018-04-01T15:04:59.000Z</time>
      </trkpt>
      <trkpt lat="43.16818" lon="5.82711">
        <ele>163.60000610352</ele>
        <time>2018-04-01T15:05:01.000Z</time>
      </trkpt>
      <trkpt lat="43.16822" lon="5.82721">
        <ele>162.39999389648</ele>
        <time>2018-04-01T15:05:02.000Z</time>
      </trkpt>
      <trkpt lat="43.16826" lon="5.82731">
        <ele>160.60000610352</ele>
        <time>2018-04-01T15:05:03.000Z</time>
      </trkpt>
      <trkpt lat="43.1683" lon="5.82749">
        <ele>157</ele>
        <time>2018-04-01T15:05:05.000Z</time>
      </trkpt>
      <trkpt lat="43.16829" lon="5.8276">
        <ele>155</ele>
        <time>2018-04-01T15:05:06.000Z</time>
      </trkpt>
      <trkpt lat="43.16828" lon="5.82779">
        <ele>151.19999694824</ele>
        <time>2018-04-01T15:05:08.000Z</time>
      </trkpt>
      <trkpt lat="43.16826" lon="5.82804">
        <ele>145.19999694824</ele>
        <time>2018-04-01T15:05:11.000Z</time>
      </trkpt>
      <trkpt lat="43.16829" lon="5.82812">
        <ele>144.60000610352</ele>
        <time>2018-04-01T15:05:12.000Z</time>
      </trkpt>
      <trkpt lat="43.16832" lon="5.82819">
        <ele>144.19999694824</ele>
        <time>2018-04-01T15:05:13.000Z</time>
      </trkpt>
      <trkpt lat="43.16843" lon="5.82828">
        <ele>144</ele>
        <time>2018-04-01T15:05:15.000Z</time>
      </trkpt>
      <trkpt lat="43.16858" lon="5.82831">
        <ele>144.19999694824</ele>
        <time>2018-04-01T15:05:17.000Z</time>
      </trkpt>
      <trkpt lat="43.16874" lon="5.82832">
        <ele>144.39999389648</ele>
        <time>2018-04-01T15:05:19.000Z</time>
      </trkpt>
      <trkpt lat="43.1688" lon="5.82831">
        <ele>144.60000610352</ele>
        <time>2018-04-01T15:05:20.000Z</time>
      </trkpt>
      <trkpt lat="43.16886" lon="5.82828">
        <ele>144.80000305176</ele>
        <time>2018-04-01T15:05:21.000Z</time>
      </trkpt>
      <trkpt lat="43.16891" lon="5.82825">
        <ele>145.19999694824</ele>
        <time>2018-04-01T15:05:22.000Z</time>
      </trkpt>
      <trkpt lat="43.16895" lon="5.82822">
        <ele>145.39999389648</ele>
        <time>2018-04-01T15:05:23.000Z</time>
      </trkpt>
      <trkpt lat="43.16901" lon="5.82819">
        <ele>145.80000305176</ele>
        <time>2018-04-01T15:05:25.000Z</time>
      </trkpt>
      <trkpt lat="43.16907" lon="5.82825">
        <ele>145.39999389648</ele>
        <time>2018-04-01T15:05:27.000Z</time>
      </trkpt>
      <trkpt lat="43.16908" lon="5.82831">
        <ele>145</ele>
        <time>2018-04-01T15:05:28.000Z</time>
      </trkpt>
      <trkpt lat="43.16908" lon="5.82839">
        <ele>144.39999389648</ele>
        <time>2018-04-01T15:05:29.000Z</time>
      </trkpt>
      <trkpt lat="43.16905" lon="5.82847">
        <ele>143.80000305176</ele>
        <time>2018-04-01T15:05:30.000Z</time>
      </trkpt>
      <trkpt lat="43.16901" lon="5.82865">
        <ele>142.39999389648</ele>
        <time>2018-04-01T15:05:32.000Z</time>
      </trkpt>
      <trkpt lat="43.16897" lon="5.82877">
        <ele>141.19999694824</ele>
        <time>2018-04-01T15:05:34.000Z</time>
      </trkpt>
      <trkpt lat="43.16896" lon="5.82881">
        <ele>141</ele>
        <time>2018-04-01T15:05:35.000Z</time>
      </trkpt>
      <trkpt lat="43.16895" lon="5.82885">
        <ele>140.60000610352</ele>
        <time>2018-04-01T15:05:37.000Z</time>
      </trkpt>
      <trkpt lat="43.16899" lon="5.8289">
        <ele>140.39999389648</ele>
        <time>2018-04-01T15:05:39.000Z</time>
      </trkpt>
      <trkpt lat="43.16922" lon="5.82902">
        <ele>141.19999694824</ele>
        <time>2018-04-01T15:05:44.000Z</time>
      </trkpt>
      <trkpt lat="43.16963" lon="5.82929">
        <ele>142</ele>
        <time>2018-04-01T15:05:51.000Z</time>
      </trkpt>
      <trkpt lat="43.17007" lon="5.82964">
        <ele>143</ele>
        <time>2018-04-01T15:05:59.000Z</time>
      </trkpt>
      <trkpt lat="43.17013" lon="5.82968">
        <ele>143</ele>
        <time>2018-04-01T15:06:00.000Z</time>
      </trkpt>
      <trkpt lat="43.17058" lon="5.83002">
        <ele>144</ele>
        <time>2018-04-01T15:06:08.000Z</time>
      </trkpt>
      <trkpt lat="43.17064" lon="5.83007">
        <ele>144</ele>
        <time>2018-04-01T15:06:09.000Z</time>
      </trkpt>
      <trkpt lat="43.17094" lon="5.83025">
        <ele>144.60000610352</ele>
        <time>2018-04-01T15:06:14.000Z</time>
      </trkpt>
      <trkpt lat="43.171" lon="5.83028">
        <ele>144.80000305176</ele>
        <time>2018-04-01T15:06:15.000Z</time>
      </trkpt>
      <trkpt lat="43.17126" lon="5.83036">
        <ele>145.60000610352</ele>
        <time>2018-04-01T15:06:19.000Z</time>
      </trkpt>
      <trkpt lat="43.17132" lon="5.83037">
        <ele>145.60000610352</ele>
        <time>2018-04-01T15:06:20.000Z</time>
      </trkpt>
      <trkpt lat="43.17159" lon="5.83034">
        <ele>146.39999389648</ele>
        <time>2018-04-01T15:06:25.000Z</time>
      </trkpt>
      <trkpt lat="43.17163" lon="5.83033">
        <ele>146.60000610352</ele>
        <time>2018-04-01T15:06:26.000Z</time>
      </trkpt>
      <trkpt lat="43.17174" lon="5.8303">
        <ele>147.19999694824</ele>
        <time>2018-04-01T15:06:30.000Z</time>
      </trkpt>
      <trkpt lat="43.17179" lon="5.83028">
        <ele>147.39999389648</ele>
        <time>2018-04-01T15:06:49.000Z</time>
      </trkpt>
      <trkpt lat="43.17195" lon="5.83021">
        <ele>147.39999389648</ele>
        <time>2018-04-01T15:06:53.000Z</time>
      </trkpt>
      <trkpt lat="43.17212" lon="5.83014">
        <ele>147.39999389648</ele>
        <time>2018-04-01T15:06:56.000Z</time>
      </trkpt>
      <trkpt lat="43.17216" lon="5.83011">
        <ele>147.60000610352</ele>
        <time>2018-04-01T15:06:57.000Z</time>
      </trkpt>
      <trkpt lat="43.1723" lon="5.82998">
        <ele>148</ele>
        <time>2018-04-01T15:07:00.000Z</time>
      </trkpt>
      <trkpt lat="43.17236" lon="5.82994">
        <ele>148.19999694824</ele>
        <time>2018-04-01T15:07:01.000Z</time>
      </trkpt>
      <trkpt lat="43.17247" lon="5.82987">
        <ele>148.39999389648</ele>
        <time>2018-04-01T15:07:03.000Z</time>
      </trkpt>
      <trkpt lat="43.17259" lon="5.8298">
        <ele>148.80000305176</ele>
        <time>2018-04-01T15:07:05.000Z</time>
      </trkpt>
      <trkpt lat="43.1727" lon="5.82971">
        <ele>149</ele>
        <time>2018-04-01T15:07:07.000Z</time>
      </trkpt>
      <trkpt lat="43.17287" lon="5.8296">
        <ele>148.60000610352</ele>
        <time>2018-04-01T15:07:10.000Z</time>
      </trkpt>
      <trkpt lat="43.17304" lon="5.82948">
        <ele>148.39999389648</ele>
        <time>2018-04-01T15:07:13.000Z</time>
      </trkpt>
      <trkpt lat="43.17321" lon="5.82938">
        <ele>148.80000305176</ele>
        <time>2018-04-01T15:07:16.000Z</time>
      </trkpt>
      <trkpt lat="43.17337" lon="5.82928">
        <ele>149.80000305176</ele>
        <time>2018-04-01T15:07:19.000Z</time>
      </trkpt>
      <trkpt lat="43.17366" lon="5.82906">
        <ele>151.39999389648</ele>
        <time>2018-04-01T15:07:24.000Z</time>
      </trkpt>
      <trkpt lat="43.17372" lon="5.82902">
        <ele>151.60000610352</ele>
        <time>2018-04-01T15:07:25.000Z</time>
      </trkpt>
      <trkpt lat="43.17413" lon="5.82873">
        <ele>152.19999694824</ele>
        <time>2018-04-01T15:07:32.000Z</time>
      </trkpt>
      <trkpt lat="43.17454" lon="5.82843">
        <ele>153.19999694824</ele>
        <time>2018-04-01T15:07:39.000Z</time>
      </trkpt>
      <trkpt lat="43.17502" lon="5.82807">
        <ele>154</ele>
        <time>2018-04-01T15:07:47.000Z</time>
      </trkpt>
      <trkpt lat="43.17507" lon="5.82803">
        <ele>154</ele>
        <time>2018-04-01T15:07:48.000Z</time>
      </trkpt>
      <trkpt lat="43.17526" lon="5.82785">
        <ele>153.80000305176</ele>
        <time>2018-04-01T15:07:52.000Z</time>
      </trkpt>
      <trkpt lat="43.17535" lon="5.82779">
        <ele>153.80000305176</ele>
        <time>2018-04-01T15:07:54.000Z</time>
      </trkpt>
      <trkpt lat="43.17544" lon="5.8278">
        <ele>153.60000610352</ele>
        <time>2018-04-01T15:07:56.000Z</time>
      </trkpt>
      <trkpt lat="43.17547" lon="5.82782">
        <ele>153.39999389648</ele>
        <time>2018-04-01T15:07:57.000Z</time>
      </trkpt>
      <trkpt lat="43.17553" lon="5.828">
        <ele>153</ele>
        <time>2018-04-01T15:08:00.000Z</time>
      </trkpt>
      <trkpt lat="43.17557" lon="5.82826">
        <ele>153.39999389648</ele>
        <time>2018-04-01T15:08:03.000Z</time>
      </trkpt>
      <trkpt lat="43.17558" lon="5.82834">
        <ele>153.60000610352</ele>
        <time>2018-04-01T15:08:04.000Z</time>
      </trkpt>
      <trkpt lat="43.17559" lon="5.82851">
        <ele>154</ele>
        <time>2018-04-01T15:08:06.000Z</time>
      </trkpt>
      <trkpt lat="43.1756" lon="5.82865">
        <ele>153.80000305176</ele>
        <time>2018-04-01T15:08:08.000Z</time>
      </trkpt>
      <trkpt lat="43.17562" lon="5.82869">
        <ele>153.60000610352</ele>
        <time>2018-04-01T15:08:09.000Z</time>
      </trkpt>
      <trkpt lat="43.17574" lon="5.82869">
        <ele>154</ele>
        <time>2018-04-01T15:08:12.000Z</time>
      </trkpt>
      <trkpt lat="43.17579" lon="5.82867">
        <ele>153.80000305176</ele>
        <time>2018-04-01T15:08:13.000Z</time>
      </trkpt>
      <trkpt lat="43.17597" lon="5.82864">
        <ele>153.39999389648</ele>
        <time>2018-04-01T15:08:16.000Z</time>
      </trkpt>
      <trkpt lat="43.17609" lon="5.82862">
        <ele>152.80000305176</ele>
        <time>2018-04-01T15:08:18.000Z</time>
      </trkpt>
      <trkpt lat="43.17628" lon="5.82859">
        <ele>152.19999694824</ele>
        <time>2018-04-01T15:08:21.000Z</time>
      </trkpt>
      <trkpt lat="43.17646" lon="5.82858">
        <ele>151.39999389648</ele>
        <time>2018-04-01T15:08:24.000Z</time>
      </trkpt>
      <trkpt lat="43.17652" lon="5.82858">
        <ele>151.39999389648</ele>
        <time>2018-04-01T15:08:25.000Z</time>
      </trkpt>
      <trkpt lat="43.17682" lon="5.82855">
        <ele>151</ele>
        <time>2018-04-01T15:08:30.000Z</time>
      </trkpt>
      <trkpt lat="43.17688" lon="5.82853">
        <ele>151.19999694824</ele>
        <time>2018-04-01T15:08:31.000Z</time>
      </trkpt>
      <trkpt lat="43.17705" lon="5.82848">
        <ele>151.60000610352</ele>
        <time>2018-04-01T15:08:34.000Z</time>
      </trkpt>
      <trkpt lat="43.1772" lon="5.82842">
        <ele>152.19999694824</ele>
        <time>2018-04-01T15:08:37.000Z</time>
      </trkpt>
      <trkpt lat="43.17725" lon="5.8284">
        <ele>152.39999389648</ele>
        <time>2018-04-01T15:08:38.000Z</time>
      </trkpt>
      <trkpt lat="43.1774" lon="5.82832">
        <ele>153.39999389648</ele>
        <time>2018-04-01T15:08:41.000Z</time>
      </trkpt>
      <trkpt lat="43.17761" lon="5.82818">
        <ele>154.60000610352</ele>
        <time>2018-04-01T15:08:45.000Z</time>
      </trkpt>
      <trkpt lat="43.17767" lon="5.82814">
        <ele>155</ele>
        <time>2018-04-01T15:08:46.000Z</time>
      </trkpt>
      <trkpt lat="43.17789" lon="5.82799">
        <ele>155</ele>
        <time>2018-04-01T15:08:50.000Z</time>
      </trkpt>
      <trkpt lat="43.17806" lon="5.82787">
        <ele>155</ele>
        <time>2018-04-01T15:08:53.000Z</time>
      </trkpt>
      <trkpt lat="43.17823" lon="5.82775">
        <ele>155</ele>
        <time>2018-04-01T15:08:56.000Z</time>
      </trkpt>
      <trkpt lat="43.17852" lon="5.8276">
        <ele>155.19999694824</ele>
        <time>2018-04-01T15:09:01.000Z</time>
      </trkpt>
      <trkpt lat="43.17885" lon="5.82743">
        <ele>155.39999389648</ele>
        <time>2018-04-01T15:09:07.000Z</time>
      </trkpt>
      <trkpt lat="43.1789" lon="5.82738">
        <ele>155.39999389648</ele>
        <time>2018-04-01T15:09:08.000Z</time>
      </trkpt>
      <trkpt lat="43.17894" lon="5.82733">
        <ele>155.19999694824</ele>
        <time>2018-04-01T15:09:09.000Z</time>
      </trkpt>
      <trkpt lat="43.17918" lon="5.82711">
        <ele>155.19999694824</ele>
        <time>2018-04-01T15:09:14.000Z</time>
      </trkpt>
      <trkpt lat="43.17923" lon="5.82706">
        <ele>155.39999389648</ele>
        <time>2018-04-01T15:09:15.000Z</time>
      </trkpt>
      <trkpt lat="43.17943" lon="5.82689">
        <ele>156</ele>
        <time>2018-04-01T15:09:19.000Z</time>
      </trkpt>
      <trkpt lat="43.17957" lon="5.82677">
        <ele>156.39999389648</ele>
        <time>2018-04-01T15:09:22.000Z</time>
      </trkpt>
      <trkpt lat="43.17962" lon="5.82673">
        <ele>156.60000610352</ele>
        <time>2018-04-01T15:09:23.000Z</time>
      </trkpt>
      <trkpt lat="43.17978" lon="5.8266">
        <ele>157.39999389648</ele>
        <time>2018-04-01T15:09:26.000Z</time>
      </trkpt>
      <trkpt lat="43.17998" lon="5.82644">
        <ele>158.39999389648</ele>
        <time>2018-04-01T15:09:30.000Z</time>
      </trkpt>
      <trkpt lat="43.18009" lon="5.82638">
        <ele>159</ele>
        <time>2018-04-01T15:09:32.000Z</time>
      </trkpt>
      <trkpt lat="43.18031" lon="5.82625">
        <ele>159.39999389648</ele>
        <time>2018-04-01T15:09:36.000Z</time>
      </trkpt>
      <trkpt lat="43.18064" lon="5.82606">
        <ele>159.80000305176</ele>
        <time>2018-04-01T15:09:42.000Z</time>
      </trkpt>
      <trkpt lat="43.18074" lon="5.82599">
        <ele>160.19999694824</ele>
        <time>2018-04-01T15:09:44.000Z</time>
      </trkpt>
      <trkpt lat="43.18095" lon="5.82582">
        <ele>161</ele>
        <time>2018-04-01T15:09:48.000Z</time>
      </trkpt>
      <trkpt lat="43.18099" lon="5.82577">
        <ele>161.39999389648</ele>
        <time>2018-04-01T15:09:49.000Z</time>
      </trkpt>
      <trkpt lat="43.18132" lon="5.82543">
        <ele>162</ele>
        <time>2018-04-01T15:09:56.000Z</time>
      </trkpt>
      <trkpt lat="43.18141" lon="5.82531">
        <ele>162</ele>
        <time>2018-04-01T15:09:58.000Z</time>
      </trkpt>
      <trkpt lat="43.18167" lon="5.82493">
        <ele>162</ele>
        <time>2018-04-01T15:10:04.000Z</time>
      </trkpt>
      <trkpt lat="43.18176" lon="5.82481">
        <ele>162</ele>
        <time>2018-04-01T15:10:06.000Z</time>
      </trkpt>
      <trkpt lat="43.1819" lon="5.82463">
        <ele>162.60000610352</ele>
        <time>2018-04-01T15:10:09.000Z</time>
      </trkpt>
      <trkpt lat="43.1821" lon="5.82444">
        <ele>163.80000305176</ele>
        <time>2018-04-01T15:10:13.000Z</time>
      </trkpt>
      <trkpt lat="43.18226" lon="5.82431">
        <ele>164.39999389648</ele>
        <time>2018-04-01T15:10:16.000Z</time>
      </trkpt>
      <trkpt lat="43.18269" lon="5.82396">
        <ele>164.19999694824</ele>
        <time>2018-04-01T15:10:24.000Z</time>
      </trkpt>
      <trkpt lat="43.18294" lon="5.82372">
        <ele>166</ele>
        <time>2018-04-01T15:10:29.000Z</time>
      </trkpt>
      <trkpt lat="43.18308" lon="5.82357">
        <ele>167.19999694824</ele>
        <time>2018-04-01T15:10:32.000Z</time>
      </trkpt>
      <trkpt lat="43.18346" lon="5.82318">
        <ele>168.80000305176</ele>
        <time>2018-04-01T15:10:40.000Z</time>
      </trkpt>
      <trkpt lat="43.18357" lon="5.82308">
        <ele>168.80000305176</ele>
        <time>2018-04-01T15:10:42.000Z</time>
      </trkpt>
      <trkpt lat="43.18395" lon="5.82278">
        <ele>168.19999694824</ele>
        <time>2018-04-01T15:10:49.000Z</time>
      </trkpt>
      <trkpt lat="43.184" lon="5.82275">
        <ele>168</ele>
        <time>2018-04-01T15:10:50.000Z</time>
      </trkpt>
      <trkpt lat="43.18435" lon="5.82243">
        <ele>168</ele>
        <time>2018-04-01T15:10:57.000Z</time>
      </trkpt>
      <trkpt lat="43.18461" lon="5.82219">
        <ele>169.39999389648</ele>
        <time>2018-04-01T15:11:03.000Z</time>
      </trkpt>
      <trkpt lat="43.18478" lon="5.82208">
        <ele>170.60000610352</ele>
        <time>2018-04-01T15:11:07.000Z</time>
      </trkpt>
      <trkpt lat="43.18488" lon="5.82203">
        <ele>171.39999389648</ele>
        <time>2018-04-01T15:11:09.000Z</time>
      </trkpt>
      <trkpt lat="43.185" lon="5.82197">
        <ele>171.39999389648</ele>
        <time>2018-04-01T15:11:11.000Z</time>
      </trkpt>
      <trkpt lat="43.18539" lon="5.82172">
        <ele>171.19999694824</ele>
        <time>2018-04-01T15:11:18.000Z</time>
      </trkpt>
      <trkpt lat="43.18544" lon="5.82168">
        <ele>171.19999694824</ele>
        <time>2018-04-01T15:11:19.000Z</time>
      </trkpt>
      <trkpt lat="43.18575" lon="5.82143">
        <ele>171.80000305176</ele>
        <time>2018-04-01T15:11:25.000Z</time>
      </trkpt>
      <trkpt lat="43.18585" lon="5.82134">
        <ele>172</ele>
        <time>2018-04-01T15:11:27.000Z</time>
      </trkpt>
      <trkpt lat="43.18615" lon="5.82105">
        <ele>173</ele>
        <time>2018-04-01T15:11:34.000Z</time>
      </trkpt>
      <trkpt lat="43.1863" lon="5.82094">
        <ele>173.19999694824</ele>
        <time>2018-04-01T15:11:39.000Z</time>
      </trkpt>
      <trkpt lat="43.18637" lon="5.82089">
        <ele>173.19999694824</ele>
        <time>2018-04-01T15:11:41.000Z</time>
      </trkpt>
      <trkpt lat="43.18641" lon="5.82085">
        <ele>173.19999694824</ele>
        <time>2018-04-01T15:11:42.000Z</time>
      </trkpt>
      <trkpt lat="43.18666" lon="5.82059">
        <ele>173.19999694824</ele>
        <time>2018-04-01T15:11:47.000Z</time>
      </trkpt>
      <trkpt lat="43.18706" lon="5.82019">
        <ele>173</ele>
        <time>2018-04-01T15:11:55.000Z</time>
      </trkpt>
      <trkpt lat="43.18734" lon="5.81989">
        <ele>172.19999694824</ele>
        <time>2018-04-01T15:12:02.000Z</time>
      </trkpt>
      <trkpt lat="43.18745" lon="5.81984">
        <ele>171.80000305176</ele>
        <time>2018-04-01T15:12:06.000Z</time>
      </trkpt>
      <trkpt lat="43.18748" lon="5.81985">
        <ele>171.39999389648</ele>
        <time>2018-04-01T15:12:07.000Z</time>
      </trkpt>
      <trkpt lat="43.18755" lon="5.81993">
        <ele>170.80000305176</ele>
        <time>2018-04-01T15:12:09.000Z</time>
      </trkpt>
      <trkpt lat="43.18779" lon="5.82021">
        <ele>169.39999389648</ele>
        <time>2018-04-01T15:12:14.000Z</time>
      </trkpt>
      <trkpt lat="43.18818" lon="5.82061">
        <ele>167.60000610352</ele>
        <time>2018-04-01T15:12:21.000Z</time>
      </trkpt>
      <trkpt lat="43.18846" lon="5.82089">
        <ele>166.60000610352</ele>
        <time>2018-04-01T15:12:26.000Z</time>
      </trkpt>
      <trkpt lat="43.18852" lon="5.82092">
        <ele>166.60000610352</ele>
        <time>2018-04-01T15:12:27.000Z</time>
      </trkpt>
      <trkpt lat="43.18896" lon="5.82104">
        <ele>167</ele>
        <time>2018-04-01T15:12:34.000Z</time>
      </trkpt>
      <trkpt lat="43.18927" lon="5.82112">
        <ele>167</ele>
        <time>2018-04-01T15:12:39.000Z</time>
      </trkpt>
      <trkpt lat="43.18947" lon="5.82116">
        <ele>166.80000305176</ele>
        <time>2018-04-01T15:12:42.000Z</time>
      </trkpt>
      <trkpt lat="43.18986" lon="5.82118">
        <ele>166.39999389648</ele>
        <time>2018-04-01T15:12:48.000Z</time>
      </trkpt>
      <trkpt lat="43.19025" lon="5.82112">
        <ele>166.60000610352</ele>
        <time>2018-04-01T15:12:54.000Z</time>
      </trkpt>
      <trkpt lat="43.19031" lon="5.8211">
        <ele>166.60000610352</ele>
        <time>2018-04-01T15:12:55.000Z</time>
      </trkpt>
      <trkpt lat="43.19066" lon="5.8209">
        <ele>166.19999694824</ele>
        <time>2018-04-01T15:13:01.000Z</time>
      </trkpt>
      <trkpt lat="43.19111" lon="5.82062">
        <ele>164.19999694824</ele>
        <time>2018-04-01T15:13:09.000Z</time>
      </trkpt>
      <trkpt lat="43.19128" lon="5.82056">
        <ele>164</ele>
        <time>2018-04-01T15:13:12.000Z</time>
      </trkpt>
      <trkpt lat="43.19139" lon="5.82056">
        <ele>164</ele>
        <time>2018-04-01T15:13:14.000Z</time>
      </trkpt>
      <trkpt lat="43.19149" lon="5.82054">
        <ele>164</ele>
        <time>2018-04-01T15:13:16.000Z</time>
      </trkpt>
      <trkpt lat="43.19157" lon="5.82048">
        <ele>164.19999694824</ele>
        <time>2018-04-01T15:13:18.000Z</time>
      </trkpt>
      <trkpt lat="43.19165" lon="5.82038">
        <ele>164.39999389648</ele>
        <time>2018-04-01T15:13:20.000Z</time>
      </trkpt>
      <trkpt lat="43.19174" lon="5.82029">
        <ele>164.19999694824</ele>
        <time>2018-04-01T15:13:22.000Z</time>
      </trkpt>
      <trkpt lat="43.19183" lon="5.82021">
        <ele>164</ele>
        <time>2018-04-01T15:13:24.000Z</time>
      </trkpt>
      <trkpt lat="43.19188" lon="5.82018">
        <ele>164</ele>
        <time>2018-04-01T15:13:25.000Z</time>
      </trkpt>
      <trkpt lat="43.19206" lon="5.82005">
        <ele>164</ele>
        <time>2018-04-01T15:13:30.000Z</time>
      </trkpt>
      <trkpt lat="43.19213" lon="5.82001">
        <ele>164</ele>
        <time>2018-04-01T15:15:19.000Z</time>
      </trkpt>
      <trkpt lat="43.19224" lon="5.81994">
        <ele>164.19999694824</ele>
        <time>2018-04-01T15:15:23.000Z</time>
      </trkpt>
      <trkpt lat="43.19251" lon="5.81975">
        <ele>164.80000305176</ele>
        <time>2018-04-01T15:15:29.000Z</time>
      </trkpt>
      <trkpt lat="43.19261" lon="5.81966">
        <ele>165</ele>
        <time>2018-04-01T15:15:31.000Z</time>
      </trkpt>
      <trkpt lat="43.19275" lon="5.81949">
        <ele>165</ele>
        <time>2018-04-01T15:15:34.000Z</time>
      </trkpt>
      <trkpt lat="43.1929" lon="5.81923">
        <ele>165</ele>
        <time>2018-04-01T15:15:38.000Z</time>
      </trkpt>
      <trkpt lat="43.193" lon="5.81904">
        <ele>164.80000305176</ele>
        <time>2018-04-01T15:15:41.000Z</time>
      </trkpt>
      <trkpt lat="43.19319" lon="5.81852">
        <ele>163</ele>
        <time>2018-04-01T15:15:49.000Z</time>
      </trkpt>
      <trkpt lat="43.19335" lon="5.81796">
        <ele>161.39999389648</ele>
        <time>2018-04-01T15:15:56.000Z</time>
      </trkpt>
      <trkpt lat="43.19339" lon="5.8178">
        <ele>161.39999389648</ele>
        <time>2018-04-01T15:15:58.000Z</time>
      </trkpt>
      <trkpt lat="43.1935" lon="5.8175">
        <ele>161.80000305176</ele>
        <time>2018-04-01T15:16:02.000Z</time>
      </trkpt>
      <trkpt lat="43.19363" lon="5.8171">
        <ele>161.80000305176</ele>
        <time>2018-04-01T15:16:08.000Z</time>
      </trkpt>
      <trkpt lat="43.19375" lon="5.817">
        <ele>161.80000305176</ele>
        <time>2018-04-01T15:16:11.000Z</time>
      </trkpt>
      <trkpt lat="43.1939" lon="5.81689">
        <ele>161.60000610352</ele>
        <time>2018-04-01T15:16:14.000Z</time>
      </trkpt>
      <trkpt lat="43.19398" lon="5.81677">
        <ele>161.19999694824</ele>
        <time>2018-04-01T15:16:16.000Z</time>
      </trkpt>
      <trkpt lat="43.19427" lon="5.81628">
        <ele>159</ele>
        <time>2018-04-01T15:16:23.000Z</time>
      </trkpt>
      <trkpt lat="43.19461" lon="5.81582">
        <ele>158.80000305176</ele>
        <time>2018-04-01T15:16:30.000Z</time>
      </trkpt>
      <trkpt lat="43.19474" lon="5.81562">
        <ele>159.19999694824</ele>
        <time>2018-04-01T15:16:33.000Z</time>
      </trkpt>
      <trkpt lat="43.19477" lon="5.81553">
        <ele>159.19999694824</ele>
        <time>2018-04-01T15:16:34.000Z</time>
      </trkpt>
      <trkpt lat="43.19479" lon="5.81536">
        <ele>160</ele>
        <time>2018-04-01T15:16:36.000Z</time>
      </trkpt>
      <trkpt lat="43.1948" lon="5.81518">
        <ele>160.39999389648</ele>
        <time>2018-04-01T15:16:38.000Z</time>
      </trkpt>
      <trkpt lat="43.19482" lon="5.815">
        <ele>160.39999389648</ele>
        <time>2018-04-01T15:16:40.000Z</time>
      </trkpt>
      <trkpt lat="43.19482" lon="5.8149">
        <ele>160.39999389648</ele>
        <time>2018-04-01T15:16:41.000Z</time>
      </trkpt>
      <trkpt lat="43.19486" lon="5.81454">
        <ele>160.39999389648</ele>
        <time>2018-04-01T15:16:45.000Z</time>
      </trkpt>
      <trkpt lat="43.1949" lon="5.81436">
        <ele>160.39999389648</ele>
        <time>2018-04-01T15:16:47.000Z</time>
      </trkpt>
      <trkpt lat="43.19497" lon="5.81421">
        <ele>160.60000610352</ele>
        <time>2018-04-01T15:16:49.000Z</time>
      </trkpt>
      <trkpt lat="43.19502" lon="5.81414">
        <ele>160.60000610352</ele>
        <time>2018-04-01T15:16:50.000Z</time>
      </trkpt>
      <trkpt lat="43.19507" lon="5.81408">
        <ele>160.80000305176</ele>
        <time>2018-04-01T15:16:51.000Z</time>
      </trkpt>
      <trkpt lat="43.19512" lon="5.81403">
        <ele>160.80000305176</ele>
        <time>2018-04-01T15:16:52.000Z</time>
      </trkpt>
      <trkpt lat="43.19518" lon="5.81399">
        <ele>160.80000305176</ele>
        <time>2018-04-01T15:16:53.000Z</time>
      </trkpt>
      <trkpt lat="43.19538" lon="5.81389">
        <ele>160.39999389648</ele>
        <time>2018-04-01T15:16:56.000Z</time>
      </trkpt>
      <trkpt lat="43.1955" lon="5.81382">
        <ele>160</ele>
        <time>2018-04-01T15:16:58.000Z</time>
      </trkpt>
      <trkpt lat="43.19592" lon="5.81351">
        <ele>159</ele>
        <time>2018-04-01T15:17:05.000Z</time>
      </trkpt>
      <trkpt lat="43.19616" lon="5.81334">
        <ele>158.80000305176</ele>
        <time>2018-04-01T15:17:09.000Z</time>
      </trkpt>
      <trkpt lat="43.19621" lon="5.81328">
        <ele>158.60000610352</ele>
        <time>2018-04-01T15:17:10.000Z</time>
      </trkpt>
      <trkpt lat="43.19653" lon="5.81303">
        <ele>157.60000610352</ele>
        <time>2018-04-01T15:17:16.000Z</time>
      </trkpt>
      <trkpt lat="43.19658" lon="5.81301">
        <ele>157.60000610352</ele>
        <time>2018-04-01T15:17:17.000Z</time>
      </trkpt>
      <trkpt lat="43.19671" lon="5.813">
        <ele>157.39999389648</ele>
        <time>2018-04-01T15:17:20.000Z</time>
      </trkpt>
      <trkpt lat="43.19678" lon="5.81296">
        <ele>157</ele>
        <time>2018-04-01T15:17:23.000Z</time>
      </trkpt>
      <trkpt lat="43.19684" lon="5.81285">
        <ele>157</ele>
        <time>2018-04-01T15:17:25.000Z</time>
      </trkpt>
      <trkpt lat="43.19689" lon="5.81274">
        <ele>157.19999694824</ele>
        <time>2018-04-01T15:17:27.000Z</time>
      </trkpt>
      <trkpt lat="43.19692" lon="5.81267">
        <ele>157.19999694824</ele>
        <time>2018-04-01T15:17:28.000Z</time>
      </trkpt>
      <trkpt lat="43.19697" lon="5.81254">
        <ele>157.19999694824</ele>
        <time>2018-04-01T15:17:30.000Z</time>
      </trkpt>
      <trkpt lat="43.19701" lon="5.81248">
        <ele>157.19999694824</ele>
        <time>2018-04-01T15:17:31.000Z</time>
      </trkpt>
      <trkpt lat="43.19713" lon="5.81228">
        <ele>157</ele>
        <time>2018-04-01T15:17:34.000Z</time>
      </trkpt>
      <trkpt lat="43.19725" lon="5.81206">
        <ele>157.19999694824</ele>
        <time>2018-04-01T15:17:37.000Z</time>
      </trkpt>
      <trkpt lat="43.19733" lon="5.81193">
        <ele>157.39999389648</ele>
        <time>2018-04-01T15:17:39.000Z</time>
      </trkpt>
      <trkpt lat="43.19747" lon="5.81179">
        <ele>156.80000305176</ele>
        <time>2018-04-01T15:17:42.000Z</time>
      </trkpt>
      <trkpt lat="43.19762" lon="5.81164">
        <ele>156.39999389648</ele>
        <time>2018-04-01T15:17:45.000Z</time>
      </trkpt>
      <trkpt lat="43.19775" lon="5.81145">
        <ele>156.19999694824</ele>
        <time>2018-04-01T15:17:48.000Z</time>
      </trkpt>
      <trkpt lat="43.19808" lon="5.81091">
        <ele>155.39999389648</ele>
        <time>2018-04-01T15:17:56.000Z</time>
      </trkpt>
      <trkpt lat="43.19833" lon="5.81039">
        <ele>155.39999389648</ele>
        <time>2018-04-01T15:18:03.000Z</time>
      </trkpt>
      <trkpt lat="43.19838" lon="5.81032">
        <ele>155.39999389648</ele>
        <time>2018-04-01T15:18:04.000Z</time>
      </trkpt>
      <trkpt lat="43.19852" lon="5.81014">
        <ele>155.60000610352</ele>
        <time>2018-04-01T15:18:07.000Z</time>
      </trkpt>
      <trkpt lat="43.19871" lon="5.80988">
        <ele>156</ele>
        <time>2018-04-01T15:18:11.000Z</time>
      </trkpt>
      <trkpt lat="43.19878" lon="5.80972">
        <ele>155.19999694824</ele>
        <time>2018-04-01T15:18:13.000Z</time>
      </trkpt>
      <trkpt lat="43.19903" lon="5.8092">
        <ele>154.60000610352</ele>
        <time>2018-04-01T15:18:20.000Z</time>
      </trkpt>
      <trkpt lat="43.19909" lon="5.80916">
        <ele>154.39999389648</ele>
        <time>2018-04-01T15:18:21.000Z</time>
      </trkpt>
      <trkpt lat="43.19928" lon="5.80917">
        <ele>154</ele>
        <time>2018-04-01T15:18:24.000Z</time>
      </trkpt>
      <trkpt lat="43.19946" lon="5.8091">
        <ele>154.60000610352</ele>
        <time>2018-04-01T15:18:27.000Z</time>
      </trkpt>
      <trkpt lat="43.19962" lon="5.80892">
        <ele>154.39999389648</ele>
        <time>2018-04-01T15:18:31.000Z</time>
      </trkpt>
      <trkpt lat="43.19964" lon="5.80874">
        <ele>154.80000305176</ele>
        <time>2018-04-01T15:18:34.000Z</time>
      </trkpt>
      <trkpt lat="43.19956" lon="5.80854">
        <ele>155.19999694824</ele>
        <time>2018-04-01T15:18:37.000Z</time>
      </trkpt>
      <trkpt lat="43.19947" lon="5.80841">
        <ele>155.39999389648</ele>
        <time>2018-04-01T15:18:39.000Z</time>
      </trkpt>
      <trkpt lat="43.19932" lon="5.80812">
        <ele>155.80000305176</ele>
        <time>2018-04-01T15:18:43.000Z</time>
      </trkpt>
      <trkpt lat="43.1992" lon="5.80772">
        <ele>157</ele>
        <time>2018-04-01T15:18:48.000Z</time>
      </trkpt>
      <trkpt lat="43.19903" lon="5.80749">
        <ele>157.60000610352</ele>
        <time>2018-04-01T15:18:52.000Z</time>
      </trkpt>
      <trkpt lat="43.19892" lon="5.80741">
        <ele>157.80000305176</ele>
        <time>2018-04-01T15:18:54.000Z</time>
      </trkpt>
      <trkpt lat="43.19878" lon="5.80729">
        <ele>158.19999694824</ele>
        <time>2018-04-01T15:18:57.000Z</time>
      </trkpt>
      <trkpt lat="43.19845" lon="5.80703">
        <ele>158.39999389648</ele>
        <time>2018-04-01T15:19:05.000Z</time>
      </trkpt>
      <trkpt lat="43.19839" lon="5.80691">
        <ele>159</ele>
        <time>2018-04-01T15:19:08.000Z</time>
      </trkpt>
      <trkpt lat="43.19839" lon="5.80687">
        <ele>159.19999694824</ele>
        <time>2018-04-01T15:19:09.000Z</time>
      </trkpt>
      <trkpt lat="43.1984" lon="5.8068">
        <ele>159.19999694824</ele>
        <time>2018-04-01T15:19:12.000Z</time>
      </trkpt>
      <trkpt lat="43.1984" lon="5.80678">
        <ele>159.19999694824</ele>
        <time>2018-04-01T15:19:13.000Z</time>
      </trkpt>
      <trkpt lat="43.19839" lon="5.80668">
        <ele>159.60000610352</ele>
        <time>2018-04-01T15:19:16.000Z</time>
      </trkpt>
      <trkpt lat="43.19837" lon="5.80665">
        <ele>159.80000305176</ele>
        <time>2018-04-01T15:19:17.000Z</time>
      </trkpt>
      <trkpt lat="43.19826" lon="5.80657">
        <ele>160.39999389648</ele>
        <time>2018-04-01T15:19:20.000Z</time>
      </trkpt>
      <trkpt lat="43.19821" lon="5.80654">
        <ele>160.80000305176</ele>
        <time>2018-04-01T15:19:21.000Z</time>
      </trkpt>
      <trkpt lat="43.19817" lon="5.80652">
        <ele>161</ele>
        <time>2018-04-01T15:19:22.000Z</time>
      </trkpt>
      <trkpt lat="43.19801" lon="5.80641">
        <ele>162</ele>
        <time>2018-04-01T15:19:26.000Z</time>
      </trkpt>
      <trkpt lat="43.19799" lon="5.80635">
        <ele>162.19999694824</ele>
        <time>2018-04-01T15:19:27.000Z</time>
      </trkpt>
      <trkpt lat="43.19799" lon="5.80629">
        <ele>162.39999389648</ele>
        <time>2018-04-01T15:19:28.000Z</time>
      </trkpt>
      <trkpt lat="43.19802" lon="5.80613">
        <ele>162.39999389648</ele>
        <time>2018-04-01T15:19:30.000Z</time>
      </trkpt>
      <trkpt lat="43.19804" lon="5.80604">
        <ele>162.39999389648</ele>
        <time>2018-04-01T15:19:31.000Z</time>
      </trkpt>
      <trkpt lat="43.19806" lon="5.80595">
        <ele>162.39999389648</ele>
        <time>2018-04-01T15:19:32.000Z</time>
      </trkpt>
      <trkpt lat="43.19813" lon="5.80568">
        <ele>162.80000305176</ele>
        <time>2018-04-01T15:19:35.000Z</time>
      </trkpt>
      <trkpt lat="43.19821" lon="5.80533">
        <ele>163.39999389648</ele>
        <time>2018-04-01T15:19:39.000Z</time>
      </trkpt>
      <trkpt lat="43.19823" lon="5.80524">
        <ele>163.80000305176</ele>
        <time>2018-04-01T15:19:40.000Z</time>
      </trkpt>
      <trkpt lat="43.19828" lon="5.80498">
        <ele>165.39999389648</ele>
        <time>2018-04-01T15:19:43.000Z</time>
      </trkpt>
      <trkpt lat="43.19833" lon="5.80475">
        <ele>166.80000305176</ele>
        <time>2018-04-01T15:19:46.000Z</time>
      </trkpt>
      <trkpt lat="43.19837" lon="5.80471">
        <ele>167</ele>
        <time>2018-04-01T15:19:47.000Z</time>
      </trkpt>
      <trkpt lat="43.19842" lon="5.8047">
        <ele>167.19999694824</ele>
        <time>2018-04-01T15:19:48.000Z</time>
      </trkpt>
      <trkpt lat="43.19847" lon="5.80472">
        <ele>167</ele>
        <time>2018-04-01T15:19:49.000Z</time>
      </trkpt>
      <trkpt lat="43.19859" lon="5.80477">
        <ele>166.60000610352</ele>
        <time>2018-04-01T15:19:51.000Z</time>
      </trkpt>
      <trkpt lat="43.19872" lon="5.80482">
        <ele>166.19999694824</ele>
        <time>2018-04-01T15:19:53.000Z</time>
      </trkpt>
      <trkpt lat="43.19913" lon="5.80485">
        <ele>166</ele>
        <time>2018-04-01T15:19:59.000Z</time>
      </trkpt>
      <trkpt lat="43.19941" lon="5.80485">
        <ele>165.80000305176</ele>
        <time>2018-04-01T15:20:03.000Z</time>
      </trkpt>
      <trkpt lat="43.19948" lon="5.80488">
        <ele>165.19999694824</ele>
        <time>2018-04-01T15:20:04.000Z</time>
      </trkpt>
      <trkpt lat="43.19956" lon="5.80492">
        <ele>164.60000610352</ele>
        <time>2018-04-01T15:20:05.000Z</time>
      </trkpt>
      <trkpt lat="43.19971" lon="5.80506">
        <ele>163.19999694824</ele>
        <time>2018-04-01T15:20:07.000Z</time>
      </trkpt>
      <trkpt lat="43.19979" lon="5.80515">
        <ele>162.39999389648</ele>
        <time>2018-04-01T15:20:08.000Z</time>
      </trkpt>
      <trkpt lat="43.19986" lon="5.80525">
        <ele>161.60000610352</ele>
        <time>2018-04-01T15:20:09.000Z</time>
      </trkpt>
      <trkpt lat="43.19999" lon="5.80544">
        <ele>160.19999694824</ele>
        <time>2018-04-01T15:20:11.000Z</time>
      </trkpt>
      <trkpt lat="43.20012" lon="5.80563">
        <ele>158.80000305176</ele>
        <time>2018-04-01T15:20:13.000Z</time>
      </trkpt>
      <trkpt lat="43.20024" lon="5.80581">
        <ele>158</ele>
        <time>2018-04-01T15:20:15.000Z</time>
      </trkpt>
      <trkpt lat="43.20036" lon="5.806">
        <ele>157</ele>
        <time>2018-04-01T15:20:17.000Z</time>
      </trkpt>
      <trkpt lat="43.20047" lon="5.80617">
        <ele>156.19999694824</ele>
        <time>2018-04-01T15:20:19.000Z</time>
      </trkpt>
      <trkpt lat="43.20058" lon="5.8063">
        <ele>155.60000610352</ele>
        <time>2018-04-01T15:20:21.000Z</time>
      </trkpt>
      <trkpt lat="43.20064" lon="5.80634">
        <ele>155.19999694824</ele>
        <time>2018-04-01T15:20:22.000Z</time>
      </trkpt>
      <trkpt lat="43.2007" lon="5.80637">
        <ele>155</ele>
        <time>2018-04-01T15:20:23.000Z</time>
      </trkpt>
      <trkpt lat="43.2008" lon="5.80643">
        <ele>154.60000610352</ele>
        <time>2018-04-01T15:20:25.000Z</time>
      </trkpt>
      <trkpt lat="43.20083" lon="5.80649">
        <ele>154.60000610352</ele>
        <time>2018-04-01T15:20:26.000Z</time>
      </trkpt>
      <trkpt lat="43.20089" lon="5.80663">
        <ele>154.60000610352</ele>
        <time>2018-04-01T15:20:28.000Z</time>
      </trkpt>
      <trkpt lat="43.20099" lon="5.80689">
        <ele>154.60000610352</ele>
        <time>2018-04-01T15:20:32.000Z</time>
      </trkpt>
      <trkpt lat="43.20102" lon="5.80696">
        <ele>154.80000305176</ele>
        <time>2018-04-01T15:20:33.000Z</time>
      </trkpt>
      <trkpt lat="43.20105" lon="5.80702">
        <ele>154.80000305176</ele>
        <time>2018-04-01T15:20:34.000Z</time>
      </trkpt>
      <trkpt lat="43.20118" lon="5.80718">
        <ele>155.19999694824</ele>
        <time>2018-04-01T15:20:37.000Z</time>
      </trkpt>
      <trkpt lat="43.2014" lon="5.80733">
        <ele>156.39999389648</ele>
        <time>2018-04-01T15:20:41.000Z</time>
      </trkpt>
      <trkpt lat="43.20146" lon="5.80735">
        <ele>156.60000610352</ele>
        <time>2018-04-01T15:20:42.000Z</time>
      </trkpt>
      <trkpt lat="43.20167" lon="5.8073">
        <ele>156.39999389648</ele>
        <time>2018-04-01T15:20:46.000Z</time>
      </trkpt>
      <trkpt lat="43.20179" lon="5.80712">
        <ele>155.80000305176</ele>
        <time>2018-04-01T15:20:49.000Z</time>
      </trkpt>
      <trkpt lat="43.20182" lon="5.80706">
        <ele>156.19999694824</ele>
        <time>2018-04-01T15:20:50.000Z</time>
      </trkpt>
      <trkpt lat="43.20188" lon="5.80695">
        <ele>156.39999389648</ele>
        <time>2018-04-01T15:20:52.000Z</time>
      </trkpt>
      <trkpt lat="43.20193" lon="5.80685">
        <ele>156.80000305176</ele>
        <time>2018-04-01T15:20:54.000Z</time>
      </trkpt>
      <trkpt lat="43.20195" lon="5.80682">
        <ele>157</ele>
        <time>2018-04-01T15:20:55.000Z</time>
      </trkpt>
      <trkpt lat="43.20206" lon="5.80675">
        <ele>158.19999694824</ele>
        <time>2018-04-01T15:20:58.000Z</time>
      </trkpt>
      <trkpt lat="43.20209" lon="5.80671">
        <ele>158.39999389648</ele>
        <time>2018-04-01T15:20:59.000Z</time>
      </trkpt>
      <trkpt lat="43.20211" lon="5.80666">
        <ele>158.60000610352</ele>
        <time>2018-04-01T15:21:00.000Z</time>
      </trkpt>
      <trkpt lat="43.20223" lon="5.8064">
        <ele>159.80000305176</ele>
        <time>2018-04-01T15:21:04.000Z</time>
      </trkpt>
      <trkpt lat="43.20229" lon="5.80626">
        <ele>160.39999389648</ele>
        <time>2018-04-01T15:21:06.000Z</time>
      </trkpt>
      <trkpt lat="43.20245" lon="5.80589">
        <ele>160.60000610352</ele>
        <time>2018-04-01T15:21:11.000Z</time>
      </trkpt>
      <trkpt lat="43.20248" lon="5.80581">
        <ele>160.39999389648</ele>
        <time>2018-04-01T15:21:12.000Z</time>
      </trkpt>
      <trkpt lat="43.20273" lon="5.8053">
        <ele>160.19999694824</ele>
        <time>2018-04-01T15:21:19.000Z</time>
      </trkpt>
      <trkpt lat="43.20276" lon="5.80523">
        <ele>160.19999694824</ele>
        <time>2018-04-01T15:21:20.000Z</time>
      </trkpt>
      <trkpt lat="43.20297" lon="5.80484">
        <ele>161.19999694824</ele>
        <time>2018-04-01T15:21:26.000Z</time>
      </trkpt>
      <trkpt lat="43.20304" lon="5.80471">
        <ele>161.39999389648</ele>
        <time>2018-04-01T15:21:28.000Z</time>
      </trkpt>
      <trkpt lat="43.20306" lon="5.80463">
        <ele>161.19999694824</ele>
        <time>2018-04-01T15:21:29.000Z</time>
      </trkpt>
      <trkpt lat="43.20305" lon="5.80449">
        <ele>160</ele>
        <time>2018-04-01T15:21:31.000Z</time>
      </trkpt>
      <trkpt lat="43.20299" lon="5.80433">
        <ele>158.39999389648</ele>
        <time>2018-04-01T15:21:33.000Z</time>
      </trkpt>
      <trkpt lat="43.20293" lon="5.80417">
        <ele>156.80000305176</ele>
        <time>2018-04-01T15:21:35.000Z</time>
      </trkpt>
      <trkpt lat="43.20291" lon="5.80409">
        <ele>156.39999389648</ele>
        <time>2018-04-01T15:21:36.000Z</time>
      </trkpt>
      <trkpt lat="43.20291" lon="5.80388">
        <ele>156</ele>
        <time>2018-04-01T15:21:39.000Z</time>
      </trkpt>
      <trkpt lat="43.20293" lon="5.8038">
        <ele>156.19999694824</ele>
        <time>2018-04-01T15:21:41.000Z</time>
      </trkpt>
      <trkpt lat="43.20294" lon="5.80373">
        <ele>156.19999694824</ele>
        <time>2018-04-01T15:21:43.000Z</time>
      </trkpt>
      <trkpt lat="43.20294" lon="5.80368">
        <ele>156.39999389648</ele>
        <time>2018-04-01T15:21:44.000Z</time>
      </trkpt>
      <trkpt lat="43.20295" lon="5.80356">
        <ele>156.39999389648</ele>
        <time>2018-04-01T15:21:46.000Z</time>
      </trkpt>
      <trkpt lat="43.20297" lon="5.80341">
        <ele>156.60000610352</ele>
        <time>2018-04-01T15:21:48.000Z</time>
      </trkpt>
      <trkpt lat="43.20299" lon="5.80324">
        <ele>156.60000610352</ele>
        <time>2018-04-01T15:21:50.000Z</time>
      </trkpt>
      <trkpt lat="43.20301" lon="5.80309">
        <ele>156.80000305176</ele>
        <time>2018-04-01T15:21:52.000Z</time>
      </trkpt>
      <trkpt lat="43.20303" lon="5.80302">
        <ele>157</ele>
        <time>2018-04-01T15:21:53.000Z</time>
      </trkpt>
      <trkpt lat="43.20311" lon="5.8029">
        <ele>158</ele>
        <time>2018-04-01T15:21:55.000Z</time>
      </trkpt>
      <trkpt lat="43.20316" lon="5.80284">
        <ele>158.60000610352</ele>
        <time>2018-04-01T15:21:56.000Z</time>
      </trkpt>
      <trkpt lat="43.20321" lon="5.80278">
        <ele>158.80000305176</ele>
        <time>2018-04-01T15:21:57.000Z</time>
      </trkpt>
      <trkpt lat="43.20337" lon="5.80263">
        <ele>157</ele>
        <time>2018-04-01T15:22:00.000Z</time>
      </trkpt>
      <trkpt lat="43.20343" lon="5.8026">
        <ele>156.60000610352</ele>
        <time>2018-04-01T15:22:01.000Z</time>
      </trkpt>
      <trkpt lat="43.2035" lon="5.80257">
        <ele>156.60000610352</ele>
        <time>2018-04-01T15:22:02.000Z</time>
      </trkpt>
      <trkpt lat="43.20357" lon="5.80257">
        <ele>157.19999694824</ele>
        <time>2018-04-01T15:22:03.000Z</time>
      </trkpt>
      <trkpt lat="43.20373" lon="5.80258">
        <ele>158.60000610352</ele>
        <time>2018-04-01T15:22:05.000Z</time>
      </trkpt>
      <trkpt lat="43.20389" lon="5.80259">
        <ele>159.60000610352</ele>
        <time>2018-04-01T15:22:07.000Z</time>
      </trkpt>
      <trkpt lat="43.20422" lon="5.80262">
        <ele>160.19999694824</ele>
        <time>2018-04-01T15:22:11.000Z</time>
      </trkpt>
      <trkpt lat="43.20453" lon="5.80258">
        <ele>155</ele>
        <time>2018-04-01T15:22:15.000Z</time>
      </trkpt>
      <trkpt lat="43.20463" lon="5.8024">
        <ele>151.60000610352</ele>
        <time>2018-04-01T15:22:18.000Z</time>
      </trkpt>
      <trkpt lat="43.20465" lon="5.80232">
        <ele>151</ele>
        <time>2018-04-01T15:22:19.000Z</time>
      </trkpt>
      <trkpt lat="43.20476" lon="5.80205">
        <ele>149</ele>
        <time>2018-04-01T15:22:22.000Z</time>
      </trkpt>
      <trkpt lat="43.20494" lon="5.80182">
        <ele>148</ele>
        <time>2018-04-01T15:22:25.000Z</time>
      </trkpt>
      <trkpt lat="43.20506" lon="5.80171">
        <ele>147.60000610352</ele>
        <time>2018-04-01T15:22:27.000Z</time>
      </trkpt>
      <trkpt lat="43.20522" lon="5.80154">
        <ele>148</ele>
        <time>2018-04-01T15:22:30.000Z</time>
      </trkpt>
      <trkpt lat="43.20527" lon="5.80148">
        <ele>148</ele>
        <time>2018-04-01T15:22:31.000Z</time>
      </trkpt>
      <trkpt lat="43.20539" lon="5.80135">
        <ele>147.60000610352</ele>
        <time>2018-04-01T15:22:33.000Z</time>
      </trkpt>
      <trkpt lat="43.20551" lon="5.80123">
        <ele>147.80000305176</ele>
        <time>2018-04-01T15:22:35.000Z</time>
      </trkpt>
      <trkpt lat="43.20563" lon="5.80098">
        <ele>147.39999389648</ele>
        <time>2018-04-01T15:22:38.000Z</time>
      </trkpt>
      <trkpt lat="43.20565" lon="5.80078">
        <ele>146.19999694824</ele>
        <time>2018-04-01T15:22:40.000Z</time>
      </trkpt>
      <trkpt lat="43.20566" lon="5.80059">
        <ele>145</ele>
        <time>2018-04-01T15:22:42.000Z</time>
      </trkpt>
      <trkpt lat="43.20569" lon="5.80042">
        <ele>145.19999694824</ele>
        <time>2018-04-01T15:22:44.000Z</time>
      </trkpt>
      <trkpt lat="43.20579" lon="5.8003">
        <ele>144.80000305176</ele>
        <time>2018-04-01T15:22:46.000Z</time>
      </trkpt>
      <trkpt lat="43.20585" lon="5.80028">
        <ele>144.19999694824</ele>
        <time>2018-04-01T15:22:47.000Z</time>
      </trkpt>
      <trkpt lat="43.20592" lon="5.80025">
        <ele>143.60000610352</ele>
        <time>2018-04-01T15:22:48.000Z</time>
      </trkpt>
      <trkpt lat="43.20605" lon="5.8002">
        <ele>145</ele>
        <time>2018-04-01T15:22:50.000Z</time>
      </trkpt>
      <trkpt lat="43.20619" lon="5.79999">
        <ele>147.39999389648</ele>
        <time>2018-04-01T15:22:53.000Z</time>
      </trkpt>
      <trkpt lat="43.20628" lon="5.79973">
        <ele>146.80000305176</ele>
        <time>2018-04-01T15:22:56.000Z</time>
      </trkpt>
      <trkpt lat="43.20631" lon="5.79964">
        <ele>147</ele>
        <time>2018-04-01T15:22:57.000Z</time>
      </trkpt>
      <trkpt lat="43.20644" lon="5.79898">
        <ele>145.80000305176</ele>
        <time>2018-04-01T15:23:04.000Z</time>
      </trkpt>
      <trkpt lat="43.20653" lon="5.79872">
        <ele>146</ele>
        <time>2018-04-01T15:23:07.000Z</time>
      </trkpt>
      <trkpt lat="43.20661" lon="5.79856">
        <ele>145.39999389648</ele>
        <time>2018-04-01T15:23:09.000Z</time>
      </trkpt>
      <trkpt lat="43.20696" lon="5.79803">
        <ele>143</ele>
        <time>2018-04-01T15:23:16.000Z</time>
      </trkpt>
      <trkpt lat="43.20735" lon="5.79745">
        <ele>144</ele>
        <time>2018-04-01T15:23:24.000Z</time>
      </trkpt>
      <trkpt lat="43.20745" lon="5.7973">
        <ele>142</ele>
        <time>2018-04-01T15:23:26.000Z</time>
      </trkpt>
      <trkpt lat="43.20768" lon="5.79704">
        <ele>141.39999389648</ele>
        <time>2018-04-01T15:23:30.000Z</time>
      </trkpt>
      <trkpt lat="43.20774" lon="5.79699">
        <ele>142.39999389648</ele>
        <time>2018-04-01T15:23:31.000Z</time>
      </trkpt>
      <trkpt lat="43.20811" lon="5.79669">
        <ele>145.80000305176</ele>
        <time>2018-04-01T15:23:37.000Z</time>
      </trkpt>
      <trkpt lat="43.20823" lon="5.7966">
        <ele>145</ele>
        <time>2018-04-01T15:23:39.000Z</time>
      </trkpt>
      <trkpt lat="43.20863" lon="5.7963">
        <ele>143.39999389648</ele>
        <time>2018-04-01T15:23:46.000Z</time>
      </trkpt>
      <trkpt lat="43.20868" lon="5.79628">
        <ele>143.60000610352</ele>
        <time>2018-04-01T15:23:47.000Z</time>
      </trkpt>
      <trkpt lat="43.20878" lon="5.7963">
        <ele>144.60000610352</ele>
        <time>2018-04-01T15:23:49.000Z</time>
      </trkpt>
      <trkpt lat="43.20891" lon="5.79644">
        <ele>147.19999694824</ele>
        <time>2018-04-01T15:23:52.000Z</time>
      </trkpt>
      <trkpt lat="43.20899" lon="5.79659">
        <ele>150.19999694824</ele>
        <time>2018-04-01T15:23:54.000Z</time>
      </trkpt>
      <trkpt lat="43.20908" lon="5.79672">
        <ele>153.19999694824</ele>
        <time>2018-04-01T15:23:56.000Z</time>
      </trkpt>
      <trkpt lat="43.20931" lon="5.7969">
        <ele>157.80000305176</ele>
        <time>2018-04-01T15:24:00.000Z</time>
      </trkpt>
      <trkpt lat="43.20937" lon="5.79693">
        <ele>158.39999389648</ele>
        <time>2018-04-01T15:24:01.000Z</time>
      </trkpt>
      <trkpt lat="43.20962" lon="5.79697">
        <ele>160</ele>
        <time>2018-04-01T15:24:05.000Z</time>
      </trkpt>
      <trkpt lat="43.20978" lon="5.79686">
        <ele>158.60000610352</ele>
        <time>2018-04-01T15:24:08.000Z</time>
      </trkpt>
      <trkpt lat="43.20982" lon="5.7968">
        <ele>157</ele>
        <time>2018-04-01T15:24:09.000Z</time>
      </trkpt>
      <trkpt lat="43.20987" lon="5.79673">
        <ele>155.19999694824</ele>
        <time>2018-04-01T15:24:10.000Z</time>
      </trkpt>
      <trkpt lat="43.21003" lon="5.79655">
        <ele>150.19999694824</ele>
        <time>2018-04-01T15:24:13.000Z</time>
      </trkpt>
      <trkpt lat="43.21021" lon="5.79636">
        <ele>146.80000305176</ele>
        <time>2018-04-01T15:24:16.000Z</time>
      </trkpt>
      <trkpt lat="43.21047" lon="5.79613">
        <ele>149.19999694824</ele>
        <time>2018-04-01T15:24:20.000Z</time>
      </trkpt>
      <trkpt lat="43.21073" lon="5.79601">
        <ele>149.19999694824</ele>
        <time>2018-04-01T15:24:23.000Z</time>
      </trkpt>
      <trkpt lat="43.21082" lon="5.79598">
        <ele>148</ele>
        <time>2018-04-01T15:24:24.000Z</time>
      </trkpt>
      <trkpt lat="43.21108" lon="5.79588">
        <ele>148</ele>
        <time>2018-04-01T15:24:27.000Z</time>
      </trkpt>
      <trkpt lat="43.21133" lon="5.79581">
        <ele>149.80000305176</ele>
        <time>2018-04-01T15:24:30.000Z</time>
      </trkpt>
      <trkpt lat="43.21159" lon="5.79574">
        <ele>149.80000305176</ele>
        <time>2018-04-01T15:24:33.000Z</time>
      </trkpt>
      <trkpt lat="43.21176" lon="5.79564">
        <ele>148.80000305176</ele>
        <time>2018-04-01T15:24:35.000Z</time>
      </trkpt>
      <trkpt lat="43.21203" lon="5.79542">
        <ele>149</ele>
        <time>2018-04-01T15:24:39.000Z</time>
      </trkpt>
      <trkpt lat="43.21222" lon="5.79525">
        <ele>150.60000610352</ele>
        <time>2018-04-01T15:24:42.000Z</time>
      </trkpt>
      <trkpt lat="43.21239" lon="5.79508">
        <ele>148.19999694824</ele>
        <time>2018-04-01T15:24:45.000Z</time>
      </trkpt>
      <trkpt lat="43.21254" lon="5.79488">
        <ele>144</ele>
        <time>2018-04-01T15:24:48.000Z</time>
      </trkpt>
      <trkpt lat="43.21266" lon="5.79468">
        <ele>141.39999389648</ele>
        <time>2018-04-01T15:24:51.000Z</time>
      </trkpt>
      <trkpt lat="43.21279" lon="5.79448">
        <ele>142.80000305176</ele>
        <time>2018-04-01T15:24:54.000Z</time>
      </trkpt>
      <trkpt lat="43.21284" lon="5.79442">
        <ele>143.39999389648</ele>
        <time>2018-04-01T15:24:55.000Z</time>
      </trkpt>
      <trkpt lat="43.2129" lon="5.79437">
        <ele>144</ele>
        <time>2018-04-01T15:24:56.000Z</time>
      </trkpt>
      <trkpt lat="43.21302" lon="5.79426">
        <ele>145</ele>
        <time>2018-04-01T15:24:58.000Z</time>
      </trkpt>
      <trkpt lat="43.21321" lon="5.7941">
        <ele>141</ele>
        <time>2018-04-01T15:25:01.000Z</time>
      </trkpt>
      <trkpt lat="43.2134" lon="5.79391">
        <ele>136.80000305176</ele>
        <time>2018-04-01T15:25:04.000Z</time>
      </trkpt>
      <trkpt lat="43.21346" lon="5.79384">
        <ele>135.39999389648</ele>
        <time>2018-04-01T15:25:05.000Z</time>
      </trkpt>
      <trkpt lat="43.21369" lon="5.79354">
        <ele>131</ele>
        <time>2018-04-01T15:25:09.000Z</time>
      </trkpt>
      <trkpt lat="43.21377" lon="5.79341">
        <ele>129</ele>
        <time>2018-04-01T15:25:11.000Z</time>
      </trkpt>
      <trkpt lat="43.2138" lon="5.79334">
        <ele>128.80000305176</ele>
        <time>2018-04-01T15:25:12.000Z</time>
      </trkpt>
      <trkpt lat="43.21383" lon="5.79322">
        <ele>129.19999694824</ele>
        <time>2018-04-01T15:25:14.000Z</time>
      </trkpt>
      <trkpt lat="43.21382" lon="5.79317">
        <ele>129.39999389648</ele>
        <time>2018-04-01T15:25:15.000Z</time>
      </trkpt>
      <trkpt lat="43.21374" lon="5.79311">
        <ele>129</ele>
        <time>2018-04-01T15:25:17.000Z</time>
      </trkpt>
      <trkpt lat="43.21368" lon="5.79308">
        <ele>128.60000610352</ele>
        <time>2018-04-01T15:25:18.000Z</time>
      </trkpt>
      <trkpt lat="43.21363" lon="5.79305">
        <ele>128.19999694824</ele>
        <time>2018-04-01T15:25:19.000Z</time>
      </trkpt>
      <trkpt lat="43.21345" lon="5.79293">
        <ele>127</ele>
        <time>2018-04-01T15:25:23.000Z</time>
      </trkpt>
      <trkpt lat="43.21339" lon="5.79288">
        <ele>128.19999694824</ele>
        <time>2018-04-01T15:25:24.000Z</time>
      </trkpt>
      <trkpt lat="43.21324" lon="5.79267">
        <ele>131.19999694824</ele>
        <time>2018-04-01T15:25:27.000Z</time>
      </trkpt>
      <trkpt lat="43.2132" lon="5.79259">
        <ele>132</ele>
        <time>2018-04-01T15:25:28.000Z</time>
      </trkpt>
      <trkpt lat="43.21309" lon="5.79237">
        <ele>134.39999389648</ele>
        <time>2018-04-01T15:25:31.000Z</time>
      </trkpt>
      <trkpt lat="43.21305" lon="5.79231">
        <ele>135.19999694824</ele>
        <time>2018-04-01T15:25:32.000Z</time>
      </trkpt>
      <trkpt lat="43.21301" lon="5.79225">
        <ele>136</ele>
        <time>2018-04-01T15:25:33.000Z</time>
      </trkpt>
      <trkpt lat="43.21283" lon="5.79197">
        <ele>137.60000610352</ele>
        <time>2018-04-01T15:25:37.000Z</time>
      </trkpt>
      <trkpt lat="43.2128" lon="5.79189">
        <ele>137.60000610352</ele>
        <time>2018-04-01T15:25:38.000Z</time>
      </trkpt>
      <trkpt lat="43.21277" lon="5.7918">
        <ele>137.39999389648</ele>
        <time>2018-04-01T15:25:39.000Z</time>
      </trkpt>
      <trkpt lat="43.21276" lon="5.79151">
        <ele>135.39999389648</ele>
        <time>2018-04-01T15:25:42.000Z</time>
      </trkpt>
      <trkpt lat="43.21287" lon="5.79115">
        <ele>134.60000610352</ele>
        <time>2018-04-01T15:25:46.000Z</time>
      </trkpt>
      <trkpt lat="43.21291" lon="5.79106">
        <ele>134.19999694824</ele>
        <time>2018-04-01T15:25:47.000Z</time>
      </trkpt>
      <trkpt lat="43.21309" lon="5.79076">
        <ele>130.80000305176</ele>
        <time>2018-04-01T15:25:51.000Z</time>
      </trkpt>
      <trkpt lat="43.21315" lon="5.7907">
        <ele>129.39999389648</ele>
        <time>2018-04-01T15:25:52.000Z</time>
      </trkpt>
      <trkpt lat="43.21335" lon="5.79044">
        <ele>124</ele>
        <time>2018-04-01T15:25:56.000Z</time>
      </trkpt>
      <trkpt lat="43.21338" lon="5.79036">
        <ele>123.19999694824</ele>
        <time>2018-04-01T15:25:57.000Z</time>
      </trkpt>
      <trkpt lat="43.21342" lon="5.79007">
        <ele>122.19999694824</ele>
        <time>2018-04-01T15:26:00.000Z</time>
      </trkpt>
      <trkpt lat="43.21341" lon="5.78998">
        <ele>122.19999694824</ele>
        <time>2018-04-01T15:26:01.000Z</time>
      </trkpt>
      <trkpt lat="43.21341" lon="5.78989">
        <ele>122.19999694824</ele>
        <time>2018-04-01T15:26:02.000Z</time>
      </trkpt>
      <trkpt lat="43.21337" lon="5.78952">
        <ele>121.40000152588</ele>
        <time>2018-04-01T15:26:06.000Z</time>
      </trkpt>
      <trkpt lat="43.21332" lon="5.78936">
        <ele>121.80000305176</ele>
        <time>2018-04-01T15:26:08.000Z</time>
      </trkpt>
      <trkpt lat="43.21328" lon="5.7893">
        <ele>122</ele>
        <time>2018-04-01T15:26:09.000Z</time>
      </trkpt>
      <trkpt lat="43.21309" lon="5.78921">
        <ele>122.40000152588</ele>
        <time>2018-04-01T15:26:12.000Z</time>
      </trkpt>
      <trkpt lat="43.21295" lon="5.78918">
        <ele>122.80000305176</ele>
        <time>2018-04-01T15:26:14.000Z</time>
      </trkpt>
      <trkpt lat="43.2128" lon="5.78918">
        <ele>125.19999694824</ele>
        <time>2018-04-01T15:26:16.000Z</time>
      </trkpt>
      <trkpt lat="43.21273" lon="5.78917">
        <ele>126.59999847412</ele>
        <time>2018-04-01T15:26:17.000Z</time>
      </trkpt>
      <trkpt lat="43.21227" lon="5.78904">
        <ele>144</ele>
        <time>2018-04-01T15:26:24.000Z</time>
      </trkpt>
      <trkpt lat="43.21215" lon="5.78884">
        <ele>146.60000610352</ele>
        <time>2018-04-01T15:26:27.000Z</time>
      </trkpt>
      <trkpt lat="43.21211" lon="5.78856">
        <ele>143</ele>
        <time>2018-04-01T15:26:30.000Z</time>
      </trkpt>
      <trkpt lat="43.2121" lon="5.78846">
        <ele>141.39999389648</ele>
        <time>2018-04-01T15:26:31.000Z</time>
      </trkpt>
      <trkpt lat="43.21206" lon="5.78827">
        <ele>139.80000305176</ele>
        <time>2018-04-01T15:26:33.000Z</time>
      </trkpt>
      <trkpt lat="43.21199" lon="5.78801">
        <ele>139.60000610352</ele>
        <time>2018-04-01T15:26:36.000Z</time>
      </trkpt>
      <trkpt lat="43.21184" lon="5.78738">
        <ele>136.19999694824</ele>
        <time>2018-04-01T15:26:43.000Z</time>
      </trkpt>
      <trkpt lat="43.2117" lon="5.78684">
        <ele>131.39999389648</ele>
        <time>2018-04-01T15:26:49.000Z</time>
      </trkpt>
      <trkpt lat="43.21165" lon="5.78666">
        <ele>129.39999389648</ele>
        <time>2018-04-01T15:26:51.000Z</time>
      </trkpt>
      <trkpt lat="43.21154" lon="5.78641">
        <ele>127</ele>
        <time>2018-04-01T15:26:54.000Z</time>
      </trkpt>
      <trkpt lat="43.21149" lon="5.78633">
        <ele>126.40000152588</ele>
        <time>2018-04-01T15:26:55.000Z</time>
      </trkpt>
      <trkpt lat="43.21144" lon="5.78627">
        <ele>126</ele>
        <time>2018-04-01T15:26:56.000Z</time>
      </trkpt>
      <trkpt lat="43.21111" lon="5.7859">
        <ele>124.59999847412</ele>
        <time>2018-04-01T15:27:02.000Z</time>
      </trkpt>
      <trkpt lat="43.21065" lon="5.78543">
        <ele>122.40000152588</ele>
        <time>2018-04-01T15:27:10.000Z</time>
      </trkpt>
      <trkpt lat="43.21031" lon="5.78494">
        <ele>122</ele>
        <time>2018-04-01T15:27:17.000Z</time>
      </trkpt>
      <trkpt lat="43.21004" lon="5.78449">
        <ele>121</ele>
        <time>2018-04-01T15:27:23.000Z</time>
      </trkpt>
      <trkpt lat="43.21001" lon="5.7844">
        <ele>120.59999847412</ele>
        <time>2018-04-01T15:27:24.000Z</time>
      </trkpt>
      <trkpt lat="43.21006" lon="5.78414">
        <ele>117.80000305176</ele>
        <time>2018-04-01T15:27:27.000Z</time>
      </trkpt>
      <trkpt lat="43.21014" lon="5.78397">
        <ele>115.59999847412</ele>
        <time>2018-04-01T15:27:29.000Z</time>
      </trkpt>
      <trkpt lat="43.21026" lon="5.78374">
        <ele>114.40000152588</ele>
        <time>2018-04-01T15:27:32.000Z</time>
      </trkpt>
      <trkpt lat="43.21029" lon="5.78365">
        <ele>114</ele>
        <time>2018-04-01T15:27:33.000Z</time>
      </trkpt>
      <trkpt lat="43.21048" lon="5.78329">
        <ele>112.59999847412</ele>
        <time>2018-04-01T15:27:38.000Z</time>
      </trkpt>
      <trkpt lat="43.21052" lon="5.78322">
        <ele>112.40000152588</ele>
        <time>2018-04-01T15:27:39.000Z</time>
      </trkpt>
      <trkpt lat="43.21066" lon="5.78306">
        <ele>112</ele>
        <time>2018-04-01T15:27:42.000Z</time>
      </trkpt>
      <trkpt lat="43.21077" lon="5.7828">
        <ele>111.19999694824</ele>
        <time>2018-04-01T15:27:46.000Z</time>
      </trkpt>
      <trkpt lat="43.21077" lon="5.78268">
        <ele>111.19999694824</ele>
        <time>2018-04-01T15:27:48.000Z</time>
      </trkpt>
      <trkpt lat="43.21078" lon="5.78263">
        <ele>111.19999694824</ele>
        <time>2018-04-01T15:27:49.000Z</time>
      </trkpt>
      <trkpt lat="43.21078" lon="5.78258">
        <ele>111.19999694824</ele>
        <time>2018-04-01T15:27:50.000Z</time>
      </trkpt>
      <trkpt lat="43.21083" lon="5.7823">
        <ele>111.40000152588</ele>
        <time>2018-04-01T15:27:54.000Z</time>
      </trkpt>
      <trkpt lat="43.21089" lon="5.78178">
        <ele>112.59999847412</ele>
        <time>2018-04-01T15:28:00.000Z</time>
      </trkpt>
      <trkpt lat="43.2109" lon="5.78169">
        <ele>112.80000305176</ele>
        <time>2018-04-01T15:28:01.000Z</time>
      </trkpt>
      <trkpt lat="43.21097" lon="5.7811">
        <ele>114.19999694824</ele>
        <time>2018-04-01T15:28:08.000Z</time>
      </trkpt>
      <trkpt lat="43.211" lon="5.78076">
        <ele>114.59999847412</ele>
        <time>2018-04-01T15:28:12.000Z</time>
      </trkpt>
      <trkpt lat="43.21103" lon="5.78042">
        <ele>115.40000152588</ele>
        <time>2018-04-01T15:28:16.000Z</time>
      </trkpt>
      <trkpt lat="43.21104" lon="5.78034">
        <ele>115.80000305176</ele>
        <time>2018-04-01T15:28:17.000Z</time>
      </trkpt>
      <trkpt lat="43.21109" lon="5.77984">
        <ele>118.19999694824</ele>
        <time>2018-04-01T15:28:23.000Z</time>
      </trkpt>
      <trkpt lat="43.21111" lon="5.77976">
        <ele>118.40000152588</ele>
        <time>2018-04-01T15:28:24.000Z</time>
      </trkpt>
      <trkpt lat="43.21115" lon="5.7796">
        <ele>117.80000305176</ele>
        <time>2018-04-01T15:28:26.000Z</time>
      </trkpt>
      <trkpt lat="43.2112" lon="5.77946">
        <ele>117.19999694824</ele>
        <time>2018-04-01T15:28:28.000Z</time>
      </trkpt>
      <trkpt lat="43.2113" lon="5.77926">
        <ele>116.59999847412</ele>
        <time>2018-04-01T15:28:31.000Z</time>
      </trkpt>
      <trkpt lat="43.21134" lon="5.7792">
        <ele>116.59999847412</ele>
        <time>2018-04-01T15:28:32.000Z</time>
      </trkpt>
      <trkpt lat="43.21139" lon="5.77914">
        <ele>116.80000305176</ele>
        <time>2018-04-01T15:28:33.000Z</time>
      </trkpt>
      <trkpt lat="43.21166" lon="5.77884">
        <ele>117.59999847412</ele>
        <time>2018-04-01T15:28:39.000Z</time>
      </trkpt>
      <trkpt lat="43.21176" lon="5.7787">
        <ele>118</ele>
        <time>2018-04-01T15:28:42.000Z</time>
      </trkpt>
      <trkpt lat="43.21185" lon="5.77855">
        <ele>118</ele>
        <time>2018-04-01T15:28:45.000Z</time>
      </trkpt>
      <trkpt lat="43.21194" lon="5.77837">
        <ele>117.80000305176</ele>
        <time>2018-04-01T15:28:48.000Z</time>
      </trkpt>
      <trkpt lat="43.21197" lon="5.77823">
        <ele>117.40000152588</ele>
        <time>2018-04-01T15:28:50.000Z</time>
      </trkpt>
      <trkpt lat="43.21202" lon="5.77805">
        <ele>116.40000152588</ele>
        <time>2018-04-01T15:28:53.000Z</time>
      </trkpt>
      <trkpt lat="43.21207" lon="5.77797">
        <ele>116.59999847412</ele>
        <time>2018-04-01T15:28:55.000Z</time>
      </trkpt>
      <trkpt lat="43.21208" lon="5.77779">
        <ele>116.19999694824</ele>
        <time>2018-04-01T15:28:58.000Z</time>
      </trkpt>
      <trkpt lat="43.21206" lon="5.7777">
        <ele>115.80000305176</ele>
        <time>2018-04-01T15:28:59.000Z</time>
      </trkpt>
      <trkpt lat="43.21202" lon="5.77752">
        <ele>115.19999694824</ele>
        <time>2018-04-01T15:29:01.000Z</time>
      </trkpt>
      <trkpt lat="43.21199" lon="5.77744">
        <ele>114.80000305176</ele>
        <time>2018-04-01T15:29:02.000Z</time>
      </trkpt>
      <trkpt lat="43.21196" lon="5.77736">
        <ele>114.40000152588</ele>
        <time>2018-04-01T15:29:03.000Z</time>
      </trkpt>
      <trkpt lat="43.21181" lon="5.7772">
        <ele>113</ele>
        <time>2018-04-01T15:29:06.000Z</time>
      </trkpt>
      <trkpt lat="43.21175" lon="5.77715">
        <ele>112.80000305176</ele>
        <time>2018-04-01T15:29:07.000Z</time>
      </trkpt>
      <trkpt lat="43.21163" lon="5.77704">
        <ele>112.19999694824</ele>
        <time>2018-04-01T15:29:09.000Z</time>
      </trkpt>
      <trkpt lat="43.21153" lon="5.77691">
        <ele>111.80000305176</ele>
        <time>2018-04-01T15:29:11.000Z</time>
      </trkpt>
      <trkpt lat="43.21115" lon="5.77636">
        <ele>109.80000305176</ele>
        <time>2018-04-01T15:29:19.000Z</time>
      </trkpt>
      <trkpt lat="43.21112" lon="5.77627">
        <ele>109.59999847412</ele>
        <time>2018-04-01T15:29:20.000Z</time>
      </trkpt>
      <trkpt lat="43.21099" lon="5.77591">
        <ele>109.19999694824</ele>
        <time>2018-04-01T15:29:24.000Z</time>
      </trkpt>
      <trkpt lat="43.21077" lon="5.77544">
        <ele>109.19999694824</ele>
        <time>2018-04-01T15:29:30.000Z</time>
      </trkpt>
      <trkpt lat="43.21046" lon="5.7749">
        <ele>111.40000152588</ele>
        <time>2018-04-01T15:29:38.000Z</time>
      </trkpt>
      <trkpt lat="43.21035" lon="5.7748">
        <ele>111.59999847412</ele>
        <time>2018-04-01T15:29:40.000Z</time>
      </trkpt>
      <trkpt lat="43.21024" lon="5.77472">
        <ele>112</ele>
        <time>2018-04-01T15:29:42.000Z</time>
      </trkpt>
      <trkpt lat="43.21008" lon="5.7746">
        <ele>113</ele>
        <time>2018-04-01T15:29:45.000Z</time>
      </trkpt>
      <trkpt lat="43.20985" lon="5.77446">
        <ele>112.40000152588</ele>
        <time>2018-04-01T15:29:49.000Z</time>
      </trkpt>
      <trkpt lat="43.20979" lon="5.77443">
        <ele>112.19999694824</ele>
        <time>2018-04-01T15:29:50.000Z</time>
      </trkpt>
      <trkpt lat="43.20942" lon="5.77431">
        <ele>110.59999847412</ele>
        <time>2018-04-01T15:29:56.000Z</time>
      </trkpt>
      <trkpt lat="43.20925" lon="5.77422">
        <ele>109.80000305176</ele>
        <time>2018-04-01T15:29:59.000Z</time>
      </trkpt>
      <trkpt lat="43.20915" lon="5.77407">
        <ele>110</ele>
        <time>2018-04-01T15:30:01.000Z</time>
      </trkpt>
      <trkpt lat="43.20909" lon="5.77379">
        <ele>111.40000152588</ele>
        <time>2018-04-01T15:30:04.000Z</time>
      </trkpt>
      <trkpt lat="43.20908" lon="5.77369">
        <ele>111.40000152588</ele>
        <time>2018-04-01T15:30:05.000Z</time>
      </trkpt>
      <trkpt lat="43.20908" lon="5.77359">
        <ele>111.59999847412</ele>
        <time>2018-04-01T15:30:06.000Z</time>
      </trkpt>
      <trkpt lat="43.20908" lon="5.7733">
        <ele>112.19999694824</ele>
        <time>2018-04-01T15:30:09.000Z</time>
      </trkpt>
      <trkpt lat="43.20909" lon="5.77285">
        <ele>113.80000305176</ele>
        <time>2018-04-01T15:30:14.000Z</time>
      </trkpt>
      <trkpt lat="43.2091" lon="5.7727">
        <ele>113.59999847412</ele>
        <time>2018-04-01T15:30:16.000Z</time>
      </trkpt>
      <trkpt lat="43.20915" lon="5.77242">
        <ele>113.80000305176</ele>
        <time>2018-04-01T15:30:20.000Z</time>
      </trkpt>
      <trkpt lat="43.20918" lon="5.77236">
        <ele>114</ele>
        <time>2018-04-01T15:30:21.000Z</time>
      </trkpt>
      <trkpt lat="43.20925" lon="5.7722">
        <ele>114.59999847412</ele>
        <time>2018-04-01T15:30:24.000Z</time>
      </trkpt>
      <trkpt lat="43.20934" lon="5.77203">
        <ele>115.80000305176</ele>
        <time>2018-04-01T15:30:27.000Z</time>
      </trkpt>
      <trkpt lat="43.20944" lon="5.77187">
        <ele>117.19999694824</ele>
        <time>2018-04-01T15:30:30.000Z</time>
      </trkpt>
      <trkpt lat="43.20955" lon="5.7717">
        <ele>118.80000305176</ele>
        <time>2018-04-01T15:30:33.000Z</time>
      </trkpt>
      <trkpt lat="43.20959" lon="5.77166">
        <ele>119.19999694824</ele>
        <time>2018-04-01T15:30:34.000Z</time>
      </trkpt>
      <trkpt lat="43.20963" lon="5.77161">
        <ele>119.59999847412</ele>
        <time>2018-04-01T15:30:35.000Z</time>
      </trkpt>
      <trkpt lat="43.20967" lon="5.77156">
        <ele>119.80000305176</ele>
        <time>2018-04-01T15:30:36.000Z</time>
      </trkpt>
      <trkpt lat="43.20986" lon="5.7714">
        <ele>121.19999694824</ele>
        <time>2018-04-01T15:30:40.000Z</time>
      </trkpt>
      <trkpt lat="43.21001" lon="5.77128">
        <ele>122.80000305176</ele>
        <time>2018-04-01T15:30:43.000Z</time>
      </trkpt>
      <trkpt lat="43.21016" lon="5.77117">
        <ele>123.19999694824</ele>
        <time>2018-04-01T15:30:46.000Z</time>
      </trkpt>
      <trkpt lat="43.21036" lon="5.77103">
        <ele>125</ele>
        <time>2018-04-01T15:30:50.000Z</time>
      </trkpt>
      <trkpt lat="43.21045" lon="5.77094">
        <ele>125.59999847412</ele>
        <time>2018-04-01T15:30:52.000Z</time>
      </trkpt>
      <trkpt lat="43.21059" lon="5.7708">
        <ele>126.59999847412</ele>
        <time>2018-04-01T15:30:55.000Z</time>
      </trkpt>
      <trkpt lat="43.21078" lon="5.77061">
        <ele>128</ele>
        <time>2018-04-01T15:30:59.000Z</time>
      </trkpt>
      <trkpt lat="43.21087" lon="5.7705">
        <ele>128.60000610352</ele>
        <time>2018-04-01T15:31:01.000Z</time>
      </trkpt>
      <trkpt lat="43.21115" lon="5.77008">
        <ele>128.19999694824</ele>
        <time>2018-04-01T15:31:08.000Z</time>
      </trkpt>
      <trkpt lat="43.21118" lon="5.77001">
        <ele>128</ele>
        <time>2018-04-01T15:31:09.000Z</time>
      </trkpt>
      <trkpt lat="43.21139" lon="5.76965">
        <ele>129</ele>
        <time>2018-04-01T15:31:15.000Z</time>
      </trkpt>
      <trkpt lat="43.21147" lon="5.76954">
        <ele>129.60000610352</ele>
        <time>2018-04-01T15:31:17.000Z</time>
      </trkpt>
      <trkpt lat="43.21165" lon="5.76936">
        <ele>131.39999389648</ele>
        <time>2018-04-01T15:31:21.000Z</time>
      </trkpt>
      <trkpt lat="43.2117" lon="5.76932">
        <ele>131.80000305176</ele>
        <time>2018-04-01T15:31:22.000Z</time>
      </trkpt>
      <trkpt lat="43.21187" lon="5.76915">
        <ele>133.19999694824</ele>
        <time>2018-04-01T15:31:26.000Z</time>
      </trkpt>
      <trkpt lat="43.21201" lon="5.76902">
        <ele>134.39999389648</ele>
        <time>2018-04-01T15:31:29.000Z</time>
      </trkpt>
      <trkpt lat="43.21212" lon="5.76887">
        <ele>135.80000305176</ele>
        <time>2018-04-01T15:31:32.000Z</time>
      </trkpt>
      <trkpt lat="43.21225" lon="5.76873">
        <ele>136.80000305176</ele>
        <time>2018-04-01T15:31:35.000Z</time>
      </trkpt>
      <trkpt lat="43.2123" lon="5.76868">
        <ele>137.19999694824</ele>
        <time>2018-04-01T15:31:36.000Z</time>
      </trkpt>
      <trkpt lat="43.21239" lon="5.76862">
        <ele>138.19999694824</ele>
        <time>2018-04-01T15:31:38.000Z</time>
      </trkpt>
      <trkpt lat="43.21254" lon="5.76853">
        <ele>139.39999389648</ele>
        <time>2018-04-01T15:31:41.000Z</time>
      </trkpt>
      <trkpt lat="43.21259" lon="5.76851">
        <ele>140</ele>
        <time>2018-04-01T15:31:42.000Z</time>
      </trkpt>
      <trkpt lat="43.21269" lon="5.76846">
        <ele>141</ele>
        <time>2018-04-01T15:31:44.000Z</time>
      </trkpt>
      <trkpt lat="43.2129" lon="5.76838">
        <ele>142.80000305176</ele>
        <time>2018-04-01T15:31:48.000Z</time>
      </trkpt>
      <trkpt lat="43.213" lon="5.76834">
        <ele>143.80000305176</ele>
        <time>2018-04-01T15:31:50.000Z</time>
      </trkpt>
      <trkpt lat="43.21306" lon="5.76832">
        <ele>144.39999389648</ele>
        <time>2018-04-01T15:31:51.000Z</time>
      </trkpt>
      <trkpt lat="43.21316" lon="5.76828">
        <ele>145.60000610352</ele>
        <time>2018-04-01T15:31:53.000Z</time>
      </trkpt>
      <trkpt lat="43.21322" lon="5.76825">
        <ele>146.19999694824</ele>
        <time>2018-04-01T15:31:54.000Z</time>
      </trkpt>
      <trkpt lat="43.21337" lon="5.76815">
        <ele>147.60000610352</ele>
        <time>2018-04-01T15:31:57.000Z</time>
      </trkpt>
      <trkpt lat="43.21342" lon="5.76812">
        <ele>148</ele>
        <time>2018-04-01T15:31:58.000Z</time>
      </trkpt>
      <trkpt lat="43.21356" lon="5.76801">
        <ele>148.80000305176</ele>
        <time>2018-04-01T15:32:01.000Z</time>
      </trkpt>
      <trkpt lat="43.21369" lon="5.76791">
        <ele>148.80000305176</ele>
        <time>2018-04-01T15:32:04.000Z</time>
      </trkpt>
      <trkpt lat="43.2138" lon="5.76784">
        <ele>149</ele>
        <time>2018-04-01T15:32:06.000Z</time>
      </trkpt>
      <trkpt lat="43.21389" lon="5.76776">
        <ele>149</ele>
        <time>2018-04-01T15:32:08.000Z</time>
      </trkpt>
      <trkpt lat="43.21393" lon="5.76771">
        <ele>148.80000305176</ele>
        <time>2018-04-01T15:32:09.000Z</time>
      </trkpt>
      <trkpt lat="43.21409" lon="5.7675">
        <ele>148.60000610352</ele>
        <time>2018-04-01T15:32:13.000Z</time>
      </trkpt>
      <trkpt lat="43.21413" lon="5.76744">
        <ele>148.39999389648</ele>
        <time>2018-04-01T15:32:14.000Z</time>
      </trkpt>
      <trkpt lat="43.21431" lon="5.76719">
        <ele>148</ele>
        <time>2018-04-01T15:32:18.000Z</time>
      </trkpt>
      <trkpt lat="43.21449" lon="5.76694">
        <ele>148</ele>
        <time>2018-04-01T15:32:22.000Z</time>
      </trkpt>
      <trkpt lat="43.21456" lon="5.76683">
        <ele>147.80000305176</ele>
        <time>2018-04-01T15:32:24.000Z</time>
      </trkpt>
      <trkpt lat="43.21467" lon="5.76665">
        <ele>147.60000610352</ele>
        <time>2018-04-01T15:32:27.000Z</time>
      </trkpt>
      <trkpt lat="43.21484" lon="5.76642">
        <ele>147.60000610352</ele>
        <time>2018-04-01T15:32:31.000Z</time>
      </trkpt>
      <trkpt lat="43.21502" lon="5.76606">
        <ele>146.19999694824</ele>
        <time>2018-04-01T15:32:36.000Z</time>
      </trkpt>
      <trkpt lat="43.21509" lon="5.7659">
        <ele>145.19999694824</ele>
        <time>2018-04-01T15:32:38.000Z</time>
      </trkpt>
      <trkpt lat="43.21519" lon="5.76579">
        <ele>145</ele>
        <time>2018-04-01T15:32:40.000Z</time>
      </trkpt>
      <trkpt lat="43.21556" lon="5.76542">
        <ele>148.19999694824</ele>
        <time>2018-04-01T15:32:48.000Z</time>
      </trkpt>
      <trkpt lat="43.21574" lon="5.76525">
        <ele>149.19999694824</ele>
        <time>2018-04-01T15:32:52.000Z</time>
      </trkpt>
      <trkpt lat="43.21593" lon="5.76512">
        <ele>150</ele>
        <time>2018-04-01T15:32:56.000Z</time>
      </trkpt>
      <trkpt lat="43.21611" lon="5.76504">
        <ele>150.60000610352</ele>
        <time>2018-04-01T15:32:59.000Z</time>
      </trkpt>
      <trkpt lat="43.21615" lon="5.76498">
        <ele>150.19999694824</ele>
        <time>2018-04-01T15:33:00.000Z</time>
      </trkpt>
      <trkpt lat="43.21624" lon="5.76476">
        <ele>150.39999389648</ele>
        <time>2018-04-01T15:33:03.000Z</time>
      </trkpt>
      <trkpt lat="43.21644" lon="5.76427">
        <ele>147.60000610352</ele>
        <time>2018-04-01T15:33:10.000Z</time>
      </trkpt>
      <trkpt lat="43.21647" lon="5.7642">
        <ele>147</ele>
        <time>2018-04-01T15:33:11.000Z</time>
      </trkpt>
      <trkpt lat="43.21657" lon="5.76402">
        <ele>145.80000305176</ele>
        <time>2018-04-01T15:33:15.000Z</time>
      </trkpt>
      <trkpt lat="43.21677" lon="5.76385">
        <ele>146.60000610352</ele>
        <time>2018-04-01T15:33:19.000Z</time>
      </trkpt>
      <trkpt lat="43.21698" lon="5.76368">
        <ele>144.60000610352</ele>
        <time>2018-04-01T15:33:22.000Z</time>
      </trkpt>
      <trkpt lat="43.21703" lon="5.76361">
        <ele>143.60000610352</ele>
        <time>2018-04-01T15:33:23.000Z</time>
      </trkpt>
      <trkpt lat="43.21716" lon="5.76348">
        <ele>142.19999694824</ele>
        <time>2018-04-01T15:33:25.000Z</time>
      </trkpt>
      <trkpt lat="43.21728" lon="5.76337">
        <ele>140.60000610352</ele>
        <time>2018-04-01T15:33:27.000Z</time>
      </trkpt>
      <trkpt lat="43.21732" lon="5.76332">
        <ele>140</ele>
        <time>2018-04-01T15:33:28.000Z</time>
      </trkpt>
      <trkpt lat="43.21741" lon="5.76323">
        <ele>138.60000610352</ele>
        <time>2018-04-01T15:33:30.000Z</time>
      </trkpt>
      <trkpt lat="43.21744" lon="5.76318">
        <ele>137.80000305176</ele>
        <time>2018-04-01T15:33:31.000Z</time>
      </trkpt>
      <trkpt lat="43.2175" lon="5.7631">
        <ele>136.60000610352</ele>
        <time>2018-04-01T15:33:33.000Z</time>
      </trkpt>
      <trkpt lat="43.21755" lon="5.76297">
        <ele>136</ele>
        <time>2018-04-01T15:33:37.000Z</time>
      </trkpt>
      <trkpt lat="43.21761" lon="5.7629">
        <ele>135</ele>
        <time>2018-04-01T15:33:40.000Z</time>
      </trkpt>
      <trkpt lat="43.21766" lon="5.76286">
        <ele>134.80000305176</ele>
        <time>2018-04-01T15:33:42.000Z</time>
      </trkpt>
      <trkpt lat="43.21775" lon="5.76282">
        <ele>134.80000305176</ele>
        <time>2018-04-01T15:33:45.000Z</time>
      </trkpt>
      <trkpt lat="43.21783" lon="5.76278">
        <ele>134.60000610352</ele>
        <time>2018-04-01T15:33:47.000Z</time>
      </trkpt>
      <trkpt lat="43.21813" lon="5.76264">
        <ele>135</ele>
        <time>2018-04-01T15:33:53.000Z</time>
      </trkpt>
      <trkpt lat="43.21827" lon="5.76257">
        <ele>136.19999694824</ele>
        <time>2018-04-01T15:33:56.000Z</time>
      </trkpt>
      <trkpt lat="43.2184" lon="5.76249">
        <ele>137.60000610352</ele>
        <time>2018-04-01T15:33:59.000Z</time>
      </trkpt>
      <trkpt lat="43.21845" lon="5.76245">
        <ele>138</ele>
        <time>2018-04-01T15:34:00.000Z</time>
      </trkpt>
      <trkpt lat="43.21859" lon="5.76235">
        <ele>138.39999389648</ele>
        <time>2018-04-01T15:34:03.000Z</time>
      </trkpt>
      <trkpt lat="43.21865" lon="5.76232">
        <ele>138.19999694824</ele>
        <time>2018-04-01T15:34:04.000Z</time>
      </trkpt>
      <trkpt lat="43.21876" lon="5.76226">
        <ele>138.19999694824</ele>
        <time>2018-04-01T15:34:06.000Z</time>
      </trkpt>
      <trkpt lat="43.21887" lon="5.76221">
        <ele>138</ele>
        <time>2018-04-01T15:34:08.000Z</time>
      </trkpt>
      <trkpt lat="43.21914" lon="5.7621">
        <ele>137.39999389648</ele>
        <time>2018-04-01T15:34:13.000Z</time>
      </trkpt>
      <trkpt lat="43.21923" lon="5.76203">
        <ele>137.39999389648</ele>
        <time>2018-04-01T15:34:15.000Z</time>
      </trkpt>
      <trkpt lat="43.21931" lon="5.76194">
        <ele>137.39999389648</ele>
        <time>2018-04-01T15:34:17.000Z</time>
      </trkpt>
      <trkpt lat="43.21935" lon="5.76189">
        <ele>137.39999389648</ele>
        <time>2018-04-01T15:34:18.000Z</time>
      </trkpt>
      <trkpt lat="43.21951" lon="5.76174">
        <ele>137.60000610352</ele>
        <time>2018-04-01T15:34:21.000Z</time>
      </trkpt>
      <trkpt lat="43.21955" lon="5.76169">
        <ele>137.80000305176</ele>
        <time>2018-04-01T15:34:22.000Z</time>
      </trkpt>
      <trkpt lat="43.21963" lon="5.7616">
        <ele>138</ele>
        <time>2018-04-01T15:34:24.000Z</time>
      </trkpt>
      <trkpt lat="43.21969" lon="5.76152">
        <ele>138.39999389648</ele>
        <time>2018-04-01T15:34:26.000Z</time>
      </trkpt>
      <trkpt lat="43.2197" lon="5.76148">
        <ele>138.39999389648</ele>
        <time>2018-04-01T15:34:27.000Z</time>
      </trkpt>
      <trkpt lat="43.21967" lon="5.76143">
        <ele>138.39999389648</ele>
        <time>2018-04-01T15:34:29.000Z</time>
      </trkpt>
      <trkpt lat="43.21954" lon="5.76141">
        <ele>137.60000610352</ele>
        <time>2018-04-01T15:34:32.000Z</time>
      </trkpt>
      <trkpt lat="43.21942" lon="5.76137">
        <ele>136.80000305176</ele>
        <time>2018-04-01T15:34:34.000Z</time>
      </trkpt>
      <trkpt lat="43.21929" lon="5.76132">
        <ele>136</ele>
        <time>2018-04-01T15:34:36.000Z</time>
      </trkpt>
      <trkpt lat="43.21922" lon="5.76131">
        <ele>136.19999694824</ele>
        <time>2018-04-01T15:34:37.000Z</time>
      </trkpt>
      <trkpt lat="43.21914" lon="5.76131">
        <ele>136.19999694824</ele>
        <time>2018-04-01T15:34:38.000Z</time>
      </trkpt>
      <trkpt lat="43.219" lon="5.76131">
        <ele>135.80000305176</ele>
        <time>2018-04-01T15:34:40.000Z</time>
      </trkpt>
      <trkpt lat="43.21862" lon="5.7612">
        <ele>135.60000610352</ele>
        <time>2018-04-01T15:34:45.000Z</time>
      </trkpt>
      <trkpt lat="43.21821" lon="5.76102">
        <ele>137.80000305176</ele>
        <time>2018-04-01T15:34:51.000Z</time>
      </trkpt>
      <trkpt lat="43.21779" lon="5.76093">
        <ele>139.39999389648</ele>
        <time>2018-04-01T15:34:57.000Z</time>
      </trkpt>
      <trkpt lat="43.21772" lon="5.76093">
        <ele>139.39999389648</ele>
        <time>2018-04-01T15:34:58.000Z</time>
      </trkpt>
      <trkpt lat="43.21734" lon="5.76095">
        <ele>141.19999694824</ele>
        <time>2018-04-01T15:35:04.000Z</time>
      </trkpt>
      <trkpt lat="43.21729" lon="5.76097">
        <ele>141.19999694824</ele>
        <time>2018-04-01T15:35:05.000Z</time>
      </trkpt>
      <trkpt lat="43.21713" lon="5.76113">
        <ele>142</ele>
        <time>2018-04-01T15:35:08.000Z</time>
      </trkpt>
      <trkpt lat="43.21677" lon="5.76148">
        <ele>143.80000305176</ele>
        <time>2018-04-01T15:35:15.000Z</time>
      </trkpt>
      <trkpt lat="43.21646" lon="5.76173">
        <ele>140.39999389648</ele>
        <time>2018-04-01T15:35:20.000Z</time>
      </trkpt>
      <trkpt lat="43.21631" lon="5.76181">
        <ele>139.60000610352</ele>
        <time>2018-04-01T15:35:22.000Z</time>
      </trkpt>
      <trkpt lat="43.21615" lon="5.76182">
        <ele>139.80000305176</ele>
        <time>2018-04-01T15:35:24.000Z</time>
      </trkpt>
      <trkpt lat="43.21607" lon="5.76181">
        <ele>140.19999694824</ele>
        <time>2018-04-01T15:35:25.000Z</time>
      </trkpt>
      <trkpt lat="43.21599" lon="5.7618">
        <ele>140.39999389648</ele>
        <time>2018-04-01T15:35:26.000Z</time>
      </trkpt>
      <trkpt lat="43.21565" lon="5.76173">
        <ele>139</ele>
        <time>2018-04-01T15:35:30.000Z</time>
      </trkpt>
      <trkpt lat="43.21516" lon="5.76166">
        <ele>137.19999694824</ele>
        <time>2018-04-01T15:35:35.000Z</time>
      </trkpt>
      <trkpt lat="43.21507" lon="5.76164">
        <ele>136.80000305176</ele>
        <time>2018-04-01T15:35:36.000Z</time>
      </trkpt>
      <trkpt lat="43.21481" lon="5.76158">
        <ele>135</ele>
        <time>2018-04-01T15:35:39.000Z</time>
      </trkpt>
      <trkpt lat="43.21446" lon="5.76152">
        <ele>132.80000305176</ele>
        <time>2018-04-01T15:35:43.000Z</time>
      </trkpt>
      <trkpt lat="43.21438" lon="5.7615">
        <ele>132.19999694824</ele>
        <time>2018-04-01T15:35:44.000Z</time>
      </trkpt>
      <trkpt lat="43.2142" lon="5.76147">
        <ele>130.80000305176</ele>
        <time>2018-04-01T15:35:46.000Z</time>
      </trkpt>
      <trkpt lat="43.21394" lon="5.7614">
        <ele>128.19999694824</ele>
        <time>2018-04-01T15:35:49.000Z</time>
      </trkpt>
      <trkpt lat="43.21374" lon="5.76135">
        <ele>126.19999694824</ele>
        <time>2018-04-01T15:35:51.000Z</time>
      </trkpt>
      <trkpt lat="43.21365" lon="5.76134">
        <ele>125.19999694824</ele>
        <time>2018-04-01T15:35:52.000Z</time>
      </trkpt>
      <trkpt lat="43.21345" lon="5.7613">
        <ele>123.19999694824</ele>
        <time>2018-04-01T15:35:54.000Z</time>
      </trkpt>
      <trkpt lat="43.21326" lon="5.76126">
        <ele>123</ele>
        <time>2018-04-01T15:35:56.000Z</time>
      </trkpt>
      <trkpt lat="43.21307" lon="5.76122">
        <ele>122.59999847412</ele>
        <time>2018-04-01T15:35:58.000Z</time>
      </trkpt>
      <trkpt lat="43.21296" lon="5.76121">
        <ele>122.19999694824</ele>
        <time>2018-04-01T15:35:59.000Z</time>
      </trkpt>
      <trkpt lat="43.21286" lon="5.7612">
        <ele>122</ele>
        <time>2018-04-01T15:36:00.000Z</time>
      </trkpt>
      <trkpt lat="43.21267" lon="5.76113">
        <ele>121.59999847412</ele>
        <time>2018-04-01T15:36:02.000Z</time>
      </trkpt>
      <trkpt lat="43.21258" lon="5.76108">
        <ele>122</ele>
        <time>2018-04-01T15:36:03.000Z</time>
      </trkpt>
      <trkpt lat="43.2125" lon="5.76103">
        <ele>122.59999847412</ele>
        <time>2018-04-01T15:36:04.000Z</time>
      </trkpt>
      <trkpt lat="43.21242" lon="5.76099">
        <ele>123</ele>
        <time>2018-04-01T15:36:05.000Z</time>
      </trkpt>
      <trkpt lat="43.21233" lon="5.76096">
        <ele>123.40000152588</ele>
        <time>2018-04-01T15:36:06.000Z</time>
      </trkpt>
      <trkpt lat="43.21218" lon="5.76097">
        <ele>123.80000305176</ele>
        <time>2018-04-01T15:36:08.000Z</time>
      </trkpt>
      <trkpt lat="43.21198" lon="5.76106">
        <ele>122.59999847412</ele>
        <time>2018-04-01T15:36:11.000Z</time>
      </trkpt>
      <trkpt lat="43.21191" lon="5.7611">
        <ele>122.19999694824</ele>
        <time>2018-04-01T15:36:12.000Z</time>
      </trkpt>
      <trkpt lat="43.21149" lon="5.76128">
        <ele>119.19999694824</ele>
        <time>2018-04-01T15:36:18.000Z</time>
      </trkpt>
      <trkpt lat="43.21097" lon="5.76151">
        <ele>117.59999847412</ele>
        <time>2018-04-01T15:36:25.000Z</time>
      </trkpt>
      <trkpt lat="43.21078" lon="5.7616">
        <ele>116.59999847412</ele>
        <time>2018-04-01T15:36:28.000Z</time>
      </trkpt>
      <trkpt lat="43.21072" lon="5.76157">
        <ele>116.40000152588</ele>
        <time>2018-04-01T15:36:29.000Z</time>
      </trkpt>
      <trkpt lat="43.21061" lon="5.76134">
        <ele>116.59999847412</ele>
        <time>2018-04-01T15:36:32.000Z</time>
      </trkpt>
      <trkpt lat="43.2106" lon="5.76115">
        <ele>115.80000305176</ele>
        <time>2018-04-01T15:36:34.000Z</time>
      </trkpt>
      <trkpt lat="43.21061" lon="5.76093">
        <ele>116.19999694824</ele>
        <time>2018-04-01T15:36:36.000Z</time>
      </trkpt>
      <trkpt lat="43.21058" lon="5.76072">
        <ele>117</ele>
        <time>2018-04-01T15:36:38.000Z</time>
      </trkpt>
      <trkpt lat="43.21052" lon="5.76053">
        <ele>117.19999694824</ele>
        <time>2018-04-01T15:36:40.000Z</time>
      </trkpt>
      <trkpt lat="43.21045" lon="5.76036">
        <ele>115.80000305176</ele>
        <time>2018-04-01T15:36:42.000Z</time>
      </trkpt>
      <trkpt lat="43.21037" lon="5.76019">
        <ele>114.59999847412</ele>
        <time>2018-04-01T15:36:44.000Z</time>
      </trkpt>
      <trkpt lat="43.2103" lon="5.75999">
        <ele>113.19999694824</ele>
        <time>2018-04-01T15:36:46.000Z</time>
      </trkpt>
      <trkpt lat="43.21027" lon="5.75991">
        <ele>112.40000152588</ele>
        <time>2018-04-01T15:36:47.000Z</time>
      </trkpt>
      <trkpt lat="43.21021" lon="5.75983">
        <ele>111.59999847412</ele>
        <time>2018-04-01T15:36:48.000Z</time>
      </trkpt>
      <trkpt lat="43.21015" lon="5.7598">
        <ele>110.59999847412</ele>
        <time>2018-04-01T15:36:49.000Z</time>
      </trkpt>
      <trkpt lat="43.20998" lon="5.7598">
        <ele>109.19999694824</ele>
        <time>2018-04-01T15:36:51.000Z</time>
      </trkpt>
      <trkpt lat="43.20989" lon="5.7598">
        <ele>108.59999847412</ele>
        <time>2018-04-01T15:36:52.000Z</time>
      </trkpt>
      <trkpt lat="43.20981" lon="5.75979">
        <ele>108</ele>
        <time>2018-04-01T15:36:53.000Z</time>
      </trkpt>
      <trkpt lat="43.20963" lon="5.75978">
        <ele>106.59999847412</ele>
        <time>2018-04-01T15:36:55.000Z</time>
      </trkpt>
      <trkpt lat="43.20937" lon="5.75976">
        <ele>104.59999847412</ele>
        <time>2018-04-01T15:36:58.000Z</time>
      </trkpt>
      <trkpt lat="43.20919" lon="5.75971">
        <ele>103.59999847412</ele>
        <time>2018-04-01T15:37:00.000Z</time>
      </trkpt>
      <trkpt lat="43.20904" lon="5.75963">
        <ele>103.19999694824</ele>
        <time>2018-04-01T15:37:02.000Z</time>
      </trkpt>
      <trkpt lat="43.20896" lon="5.75959">
        <ele>102.80000305176</ele>
        <time>2018-04-01T15:37:03.000Z</time>
      </trkpt>
      <trkpt lat="43.20883" lon="5.75946">
        <ele>102.40000152588</ele>
        <time>2018-04-01T15:37:05.000Z</time>
      </trkpt>
      <trkpt lat="43.20877" lon="5.75938">
        <ele>102.19999694824</ele>
        <time>2018-04-01T15:37:06.000Z</time>
      </trkpt>
      <trkpt lat="43.20867" lon="5.7592">
        <ele>101.80000305176</ele>
        <time>2018-04-01T15:37:08.000Z</time>
      </trkpt>
      <trkpt lat="43.20848" lon="5.75897">
        <ele>101.19999694824</ele>
        <time>2018-04-01T15:37:11.000Z</time>
      </trkpt>
      <trkpt lat="43.20831" lon="5.7589">
        <ele>100.59999847412</ele>
        <time>2018-04-01T15:37:13.000Z</time>
      </trkpt>
      <trkpt lat="43.20823" lon="5.75887">
        <ele>100.19999694824</ele>
        <time>2018-04-01T15:37:14.000Z</time>
      </trkpt>
      <trkpt lat="43.20814" lon="5.75883">
        <ele>99.800003051758</ele>
        <time>2018-04-01T15:37:15.000Z</time>
      </trkpt>
      <trkpt lat="43.20779" lon="5.75872">
        <ele>98.599998474121</ele>
        <time>2018-04-01T15:37:19.000Z</time>
      </trkpt>
      <trkpt lat="43.20771" lon="5.7587">
        <ele>98.400001525879</ele>
        <time>2018-04-01T15:37:20.000Z</time>
      </trkpt>
      <trkpt lat="43.20762" lon="5.75869">
        <ele>98</ele>
        <time>2018-04-01T15:37:21.000Z</time>
      </trkpt>
      <trkpt lat="43.20736" lon="5.75873">
        <ele>97.599998474121</ele>
        <time>2018-04-01T15:37:24.000Z</time>
      </trkpt>
      <trkpt lat="43.20702" lon="5.75882">
        <ele>96.599998474121</ele>
        <time>2018-04-01T15:37:28.000Z</time>
      </trkpt>
      <trkpt lat="43.20685" lon="5.75883">
        <ele>96.199996948242</ele>
        <time>2018-04-01T15:37:30.000Z</time>
      </trkpt>
      <trkpt lat="43.20651" lon="5.75876">
        <ele>95.800003051758</ele>
        <time>2018-04-01T15:37:34.000Z</time>
      </trkpt>
      <trkpt lat="43.20643" lon="5.75871">
        <ele>95.800003051758</ele>
        <time>2018-04-01T15:37:35.000Z</time>
      </trkpt>
      <trkpt lat="43.20624" lon="5.75853">
        <ele>95.800003051758</ele>
        <time>2018-04-01T15:37:38.000Z</time>
      </trkpt>
      <trkpt lat="43.20606" lon="5.75837">
        <ele>95.800003051758</ele>
        <time>2018-04-01T15:37:41.000Z</time>
      </trkpt>
      <trkpt lat="43.20599" lon="5.75836">
        <ele>95.599998474121</ele>
        <time>2018-04-01T15:37:42.000Z</time>
      </trkpt>
      <trkpt lat="43.20592" lon="5.75836">
        <ele>95.400001525879</ele>
        <time>2018-04-01T15:37:43.000Z</time>
      </trkpt>
      <trkpt lat="43.20578" lon="5.75837">
        <ele>94.800003051758</ele>
        <time>2018-04-01T15:37:45.000Z</time>
      </trkpt>
      <trkpt lat="43.2057" lon="5.75837">
        <ele>94.400001525879</ele>
        <time>2018-04-01T15:37:46.000Z</time>
      </trkpt>
      <trkpt lat="43.20563" lon="5.75838">
        <ele>94</ele>
        <time>2018-04-01T15:37:47.000Z</time>
      </trkpt>
      <trkpt lat="43.20517" lon="5.75845">
        <ele>92.599998474121</ele>
        <time>2018-04-01T15:37:53.000Z</time>
      </trkpt>
      <trkpt lat="43.20509" lon="5.75844">
        <ele>92.400001525879</ele>
        <time>2018-04-01T15:37:54.000Z</time>
      </trkpt>
      <trkpt lat="43.20485" lon="5.75842">
        <ele>92.199996948242</ele>
        <time>2018-04-01T15:37:57.000Z</time>
      </trkpt>
      <trkpt lat="43.20478" lon="5.75841">
        <ele>92</ele>
        <time>2018-04-01T15:37:58.000Z</time>
      </trkpt>
      <trkpt lat="43.20429" lon="5.75834">
        <ele>91.400001525879</ele>
        <time>2018-04-01T15:38:04.000Z</time>
      </trkpt>
      <trkpt lat="43.20395" lon="5.75823">
        <ele>90.400001525879</ele>
        <time>2018-04-01T15:38:08.000Z</time>
      </trkpt>
      <trkpt lat="43.20378" lon="5.75819">
        <ele>90</ele>
        <time>2018-04-01T15:38:10.000Z</time>
      </trkpt>
      <trkpt lat="43.20352" lon="5.75819">
        <ele>89.199996948242</ele>
        <time>2018-04-01T15:38:13.000Z</time>
      </trkpt>
      <trkpt lat="43.20335" lon="5.75819">
        <ele>89</ele>
        <time>2018-04-01T15:38:15.000Z</time>
      </trkpt>
      <trkpt lat="43.20272" lon="5.7582">
        <ele>89</ele>
        <time>2018-04-01T15:38:22.000Z</time>
      </trkpt>
      <trkpt lat="43.20263" lon="5.7582">
        <ele>89</ele>
        <time>2018-04-01T15:38:23.000Z</time>
      </trkpt>
      <trkpt lat="43.20228" lon="5.75818">
        <ele>88.599998474121</ele>
        <time>2018-04-01T15:38:27.000Z</time>
      </trkpt>
      <trkpt lat="43.20166" lon="5.75809">
        <ele>87.800003051758</ele>
        <time>2018-04-01T15:38:34.000Z</time>
      </trkpt>
      <trkpt lat="43.20149" lon="5.75806">
        <ele>87.599998474121</ele>
        <time>2018-04-01T15:38:36.000Z</time>
      </trkpt>
      <trkpt lat="43.20091" lon="5.75796">
        <ele>87</ele>
        <time>2018-04-01T15:38:43.000Z</time>
      </trkpt>
      <trkpt lat="43.20083" lon="5.75795">
        <ele>87</ele>
        <time>2018-04-01T15:38:44.000Z</time>
      </trkpt>
      <trkpt lat="43.20075" lon="5.75794">
        <ele>86.800003051758</ele>
        <time>2018-04-01T15:38:45.000Z</time>
      </trkpt>
      <trkpt lat="43.20048" lon="5.75788">
        <ele>86.199996948242</ele>
        <time>2018-04-01T15:38:49.000Z</time>
      </trkpt>
      <trkpt lat="43.2003" lon="5.75784">
        <ele>86</ele>
        <time>2018-04-01T15:38:54.000Z</time>
      </trkpt>
      <trkpt lat="43.20029" lon="5.75784">
        <ele>85.800003051758</ele>
        <time>2018-04-01T15:38:55.000Z</time>
      </trkpt>
      <trkpt lat="43.20028" lon="5.75786">
        <ele>85.800003051758</ele>
        <time>2018-04-01T15:38:56.000Z</time>
      </trkpt>
      <trkpt lat="43.20027" lon="5.75791">
        <ele>85.599998474121</ele>
        <time>2018-04-01T15:38:57.000Z</time>
      </trkpt>
      <trkpt lat="43.20024" lon="5.75816">
        <ele>85.199996948242</ele>
        <time>2018-04-01T15:39:00.000Z</time>
      </trkpt>
      <trkpt lat="43.20024" lon="5.75837">
        <ele>85</ele>
        <time>2018-04-01T15:39:02.000Z</time>
      </trkpt>
      <trkpt lat="43.20024" lon="5.75869">
        <ele>84.599998474121</ele>
        <time>2018-04-01T15:39:05.000Z</time>
      </trkpt>
      <trkpt lat="43.20027" lon="5.75944">
        <ele>84.800003051758</ele>
        <time>2018-04-01T15:39:12.000Z</time>
      </trkpt>
      <trkpt lat="43.20025" lon="5.75966">
        <ele>85</ele>
        <time>2018-04-01T15:39:14.000Z</time>
      </trkpt>
      <trkpt lat="43.2001" lon="5.76002">
        <ele>85.400001525879</ele>
        <time>2018-04-01T15:39:18.000Z</time>
      </trkpt>
      <trkpt lat="43.19994" lon="5.76003">
        <ele>85</ele>
        <time>2018-04-01T15:39:20.000Z</time>
      </trkpt>
      <trkpt lat="43.1998" lon="5.75995">
        <ele>84.599998474121</ele>
        <time>2018-04-01T15:39:22.000Z</time>
      </trkpt>
      <trkpt lat="43.19973" lon="5.75991">
        <ele>84.400001525879</ele>
        <time>2018-04-01T15:39:23.000Z</time>
      </trkpt>
      <trkpt lat="43.19954" lon="5.75981">
        <ele>83.800003051758</ele>
        <time>2018-04-01T15:39:26.000Z</time>
      </trkpt>
      <trkpt lat="43.1993" lon="5.75968">
        <ele>83</ele>
        <time>2018-04-01T15:39:30.000Z</time>
      </trkpt>
      <trkpt lat="43.19924" lon="5.75965">
        <ele>83.400001525879</ele>
        <time>2018-04-01T15:39:31.000Z</time>
      </trkpt>
      <trkpt lat="43.199" lon="5.75953">
        <ele>85</ele>
        <time>2018-04-01T15:39:35.000Z</time>
      </trkpt>
      <trkpt lat="43.19894" lon="5.7595">
        <ele>85.400001525879</ele>
        <time>2018-04-01T15:39:36.000Z</time>
      </trkpt>
      <trkpt lat="43.19882" lon="5.75943">
        <ele>86.199996948242</ele>
        <time>2018-04-01T15:39:38.000Z</time>
      </trkpt>
      <trkpt lat="43.19863" lon="5.75934">
        <ele>87.400001525879</ele>
        <time>2018-04-01T15:39:41.000Z</time>
      </trkpt>
      <trkpt lat="43.19844" lon="5.75925">
        <ele>89</ele>
        <time>2018-04-01T15:39:44.000Z</time>
      </trkpt>
      <trkpt lat="43.19838" lon="5.75922">
        <ele>90.800003051758</ele>
        <time>2018-04-01T15:39:45.000Z</time>
      </trkpt>
      <trkpt lat="43.19825" lon="5.75917">
        <ele>94.199996948242</ele>
        <time>2018-04-01T15:39:47.000Z</time>
      </trkpt>
      <trkpt lat="43.19813" lon="5.75916">
        <ele>97.400001525879</ele>
        <time>2018-04-01T15:39:49.000Z</time>
      </trkpt>
      <trkpt lat="43.19807" lon="5.75917">
        <ele>99</ele>
        <time>2018-04-01T15:39:50.000Z</time>
      </trkpt>
      <trkpt lat="43.19788" lon="5.75926">
        <ele>102.40000152588</ele>
        <time>2018-04-01T15:39:53.000Z</time>
      </trkpt>
      <trkpt lat="43.19782" lon="5.75931">
        <ele>102.40000152588</ele>
        <time>2018-04-01T15:39:54.000Z</time>
      </trkpt>
      <trkpt lat="43.19776" lon="5.75936">
        <ele>102.40000152588</ele>
        <time>2018-04-01T15:39:55.000Z</time>
      </trkpt>
      <trkpt lat="43.19771" lon="5.75942">
        <ele>102.40000152588</ele>
        <time>2018-04-01T15:39:56.000Z</time>
      </trkpt>
      <trkpt lat="43.19765" lon="5.75947">
        <ele>102.19999694824</ele>
        <time>2018-04-01T15:39:57.000Z</time>
      </trkpt>
      <trkpt lat="43.19755" lon="5.75958">
        <ele>102.59999847412</ele>
        <time>2018-04-01T15:39:59.000Z</time>
      </trkpt>
      <trkpt lat="43.1975" lon="5.75963">
        <ele>103</ele>
        <time>2018-04-01T15:40:00.000Z</time>
      </trkpt>
      <trkpt lat="43.1974" lon="5.75974">
        <ele>104.19999694824</ele>
        <time>2018-04-01T15:40:02.000Z</time>
      </trkpt>
      <trkpt lat="43.19724" lon="5.7599">
        <ele>106.19999694824</ele>
        <time>2018-04-01T15:40:05.000Z</time>
      </trkpt>
      <trkpt lat="43.19714" lon="5.76001">
        <ele>107.40000152588</ele>
        <time>2018-04-01T15:40:07.000Z</time>
      </trkpt>
      <trkpt lat="43.19703" lon="5.76011">
        <ele>108</ele>
        <time>2018-04-01T15:40:09.000Z</time>
      </trkpt>
      <trkpt lat="43.19693" lon="5.76022">
        <ele>108</ele>
        <time>2018-04-01T15:40:11.000Z</time>
      </trkpt>
      <trkpt lat="43.19682" lon="5.76033">
        <ele>108.19999694824</ele>
        <time>2018-04-01T15:40:13.000Z</time>
      </trkpt>
      <trkpt lat="43.19672" lon="5.76043">
        <ele>107</ele>
        <time>2018-04-01T15:40:15.000Z</time>
      </trkpt>
      <trkpt lat="43.19667" lon="5.76047">
        <ele>106.40000152588</ele>
        <time>2018-04-01T15:40:16.000Z</time>
      </trkpt>
      <trkpt lat="43.19661" lon="5.76051">
        <ele>106.40000152588</ele>
        <time>2018-04-01T15:40:17.000Z</time>
      </trkpt>
      <trkpt lat="43.19649" lon="5.76056">
        <ele>106.40000152588</ele>
        <time>2018-04-01T15:40:19.000Z</time>
      </trkpt>
      <trkpt lat="43.19643" lon="5.76056">
        <ele>106.80000305176</ele>
        <time>2018-04-01T15:40:20.000Z</time>
      </trkpt>
      <trkpt lat="43.19636" lon="5.76053">
        <ele>107.59999847412</ele>
        <time>2018-04-01T15:40:21.000Z</time>
      </trkpt>
      <trkpt lat="43.19625" lon="5.76045">
        <ele>109.19999694824</ele>
        <time>2018-04-01T15:40:23.000Z</time>
      </trkpt>
      <trkpt lat="43.19619" lon="5.7604">
        <ele>110.19999694824</ele>
        <time>2018-04-01T15:40:24.000Z</time>
      </trkpt>
      <trkpt lat="43.19614" lon="5.76034">
        <ele>111</ele>
        <time>2018-04-01T15:40:25.000Z</time>
      </trkpt>
      <trkpt lat="43.19599" lon="5.76017">
        <ele>113.80000305176</ele>
        <time>2018-04-01T15:40:28.000Z</time>
      </trkpt>
      <trkpt lat="43.19594" lon="5.76011">
        <ele>114.59999847412</ele>
        <time>2018-04-01T15:40:29.000Z</time>
      </trkpt>
      <trkpt lat="43.19585" lon="5.76">
        <ele>115.80000305176</ele>
        <time>2018-04-01T15:40:31.000Z</time>
      </trkpt>
      <trkpt lat="43.19573" lon="5.7598">
        <ele>117.80000305176</ele>
        <time>2018-04-01T15:40:34.000Z</time>
      </trkpt>
      <trkpt lat="43.19568" lon="5.75965">
        <ele>118.80000305176</ele>
        <time>2018-04-01T15:40:36.000Z</time>
      </trkpt>
      <trkpt lat="43.19566" lon="5.75949">
        <ele>119</ele>
        <time>2018-04-01T15:40:38.000Z</time>
      </trkpt>
      <trkpt lat="43.19565" lon="5.7594">
        <ele>119.19999694824</ele>
        <time>2018-04-01T15:40:39.000Z</time>
      </trkpt>
      <trkpt lat="43.19565" lon="5.75933">
        <ele>119.80000305176</ele>
        <time>2018-04-01T15:40:40.000Z</time>
      </trkpt>
      <trkpt lat="43.19564" lon="5.75926">
        <ele>120.59999847412</ele>
        <time>2018-04-01T15:40:41.000Z</time>
      </trkpt>
      <trkpt lat="43.19561" lon="5.75919">
        <ele>121</ele>
        <time>2018-04-01T15:40:42.000Z</time>
      </trkpt>
      <trkpt lat="43.19559" lon="5.75913">
        <ele>121.40000152588</ele>
        <time>2018-04-01T15:40:43.000Z</time>
      </trkpt>
      <trkpt lat="43.19557" lon="5.75906">
        <ele>121.80000305176</ele>
        <time>2018-04-01T15:40:44.000Z</time>
      </trkpt>
      <trkpt lat="43.19554" lon="5.759">
        <ele>122.19999694824</ele>
        <time>2018-04-01T15:40:45.000Z</time>
      </trkpt>
      <trkpt lat="43.19547" lon="5.75884">
        <ele>123</ele>
        <time>2018-04-01T15:40:47.000Z</time>
      </trkpt>
      <trkpt lat="43.19544" lon="5.75876">
        <ele>123.19999694824</ele>
        <time>2018-04-01T15:40:48.000Z</time>
      </trkpt>
      <trkpt lat="43.19541" lon="5.75859">
        <ele>124</ele>
        <time>2018-04-01T15:40:50.000Z</time>
      </trkpt>
      <trkpt lat="43.1954" lon="5.75842">
        <ele>124.80000305176</ele>
        <time>2018-04-01T15:40:52.000Z</time>
      </trkpt>
      <trkpt lat="43.19539" lon="5.75835">
        <ele>125.19999694824</ele>
        <time>2018-04-01T15:40:53.000Z</time>
      </trkpt>
      <trkpt lat="43.19537" lon="5.75809">
        <ele>126.40000152588</ele>
        <time>2018-04-01T15:40:57.000Z</time>
      </trkpt>
      <trkpt lat="43.19536" lon="5.75804">
        <ele>126.59999847412</ele>
        <time>2018-04-01T15:40:58.000Z</time>
      </trkpt>
      <trkpt lat="43.19536" lon="5.7579">
        <ele>126.80000305176</ele>
        <time>2018-04-01T15:41:01.000Z</time>
      </trkpt>
      <trkpt lat="43.19538" lon="5.75788">
        <ele>127</ele>
        <time>2018-04-01T15:41:02.000Z</time>
      </trkpt>
      <trkpt lat="43.19541" lon="5.75785">
        <ele>127.40000152588</ele>
        <time>2018-04-01T15:41:03.000Z</time>
      </trkpt>
      <trkpt lat="43.19544" lon="5.75782">
        <ele>127.80000305176</ele>
        <time>2018-04-01T15:41:04.000Z</time>
      </trkpt>
      <trkpt lat="43.19553" lon="5.75773">
        <ele>128.80000305176</ele>
        <time>2018-04-01T15:41:07.000Z</time>
      </trkpt>
      <trkpt lat="43.19559" lon="5.75764">
        <ele>130</ele>
        <time>2018-04-01T15:41:09.000Z</time>
      </trkpt>
      <trkpt lat="43.19563" lon="5.75761">
        <ele>131</ele>
        <time>2018-04-01T15:41:10.000Z</time>
      </trkpt>
      <trkpt lat="43.19575" lon="5.75749">
        <ele>134.39999389648</ele>
        <time>2018-04-01T15:41:14.000Z</time>
      </trkpt>
      <trkpt lat="43.19577" lon="5.75746">
        <ele>135.19999694824</ele>
        <time>2018-04-01T15:41:15.000Z</time>
      </trkpt>
      <trkpt lat="43.19583" lon="5.75741">
        <ele>136.80000305176</ele>
        <time>2018-04-01T15:41:18.000Z</time>
      </trkpt>
      <trkpt lat="43.19586" lon="5.75738">
        <ele>137.60000610352</ele>
        <time>2018-04-01T15:41:20.000Z</time>
      </trkpt>
      <trkpt lat="43.19588" lon="5.75736">
        <ele>138.19999694824</ele>
        <time>2018-04-01T15:41:22.000Z</time>
      </trkpt>
    </trkseg>
  </trk>
</gpx>